<?xml version="1.0" encoding="UTF-8" standalone="no" ?>
<gpx xmlns="http://www.topografix.com/GPX/1/1" xmlns:xsi="http://www.w3.org/2001/XMLSchema-instance" xsi:schemaLocation="http://www.topografix.com/GPX/1/1 http://www.topografix.com/GPX/1/1/gpx.xsd" version="1.1" creator="VisuGPX - https://www.visugpx.com">
  <metadata>
    <name>Giro del lago Moncenisio</name>
    <desc><![CDATA[Giro del lago Moncenisio (Gran Croix - Forte Roncia - Colle Moncenisio -bivio Forte Pattecreuse)]]></desc>
  </metadata>
  <trk>
    <name><![CDATA[MTB_Moncenisio_F_Roncia_29 LUG 2020]]></name>
    <trkseg>
      <trkpt lat="45.21899" lon="6.9564">
        <ele>1860.77</ele>
        <time>2020-07-29T06:13:59Z</time>
      </trkpt>
      <trkpt lat="45.21899" lon="6.9564">
        <ele>1860.77</ele>
        <time>2020-07-29T06:14:01Z</time>
      </trkpt>
      <trkpt lat="45.21899" lon="6.95645">
        <ele>1859.81</ele>
        <time>2020-07-29T06:14:11Z</time>
      </trkpt>
      <trkpt lat="45.21897" lon="6.9565">
        <ele>1859.33</ele>
        <time>2020-07-29T06:14:23Z</time>
      </trkpt>
      <trkpt lat="45.21894" lon="6.9565">
        <ele>1859.33</ele>
        <time>2020-07-29T06:14:54Z</time>
      </trkpt>
      <trkpt lat="45.21897" lon="6.95653">
        <ele>1860.29</ele>
        <time>2020-07-29T06:15:31Z</time>
      </trkpt>
      <trkpt lat="45.219" lon="6.95655">
        <ele>1859.81</ele>
        <time>2020-07-29T06:15:41Z</time>
      </trkpt>
      <trkpt lat="45.21901" lon="6.95653">
        <ele>1859.33</ele>
        <time>2020-07-29T06:15:50Z</time>
      </trkpt>
      <trkpt lat="45.21897" lon="6.9565">
        <ele>1860.29</ele>
        <time>2020-07-29T06:16:05Z</time>
      </trkpt>
      <trkpt lat="45.21898" lon="6.95651">
        <ele>1860.29</ele>
        <time>2020-07-29T06:16:25Z</time>
      </trkpt>
      <trkpt lat="45.21916" lon="6.95656">
        <ele>1860.77</ele>
        <time>2020-07-29T06:16:43Z</time>
      </trkpt>
      <trkpt lat="45.21924" lon="6.95654">
        <ele>1861.25</ele>
        <time>2020-07-29T06:16:59Z</time>
      </trkpt>
      <trkpt lat="45.21923" lon="6.95651">
        <ele>1861.25</ele>
        <time>2020-07-29T06:17:26Z</time>
      </trkpt>
      <trkpt lat="45.21923" lon="6.9565">
        <ele>1862.21</ele>
        <time>2020-07-29T06:18:05Z</time>
      </trkpt>
      <trkpt lat="45.21923" lon="6.95651">
        <ele>1862.21</ele>
        <time>2020-07-29T06:18:45Z</time>
      </trkpt>
      <trkpt lat="45.21924" lon="6.95652">
        <ele>1863.17</ele>
        <time>2020-07-29T06:19:19Z</time>
      </trkpt>
      <trkpt lat="45.21924" lon="6.95652">
        <ele>1863.65</ele>
        <time>2020-07-29T06:19:49Z</time>
      </trkpt>
      <trkpt lat="45.21924" lon="6.95652">
        <ele>1863.65</ele>
        <time>2020-07-29T06:20:24Z</time>
      </trkpt>
      <trkpt lat="45.21924" lon="6.95652">
        <ele>1863.65</ele>
        <time>2020-07-29T06:20:57Z</time>
      </trkpt>
      <trkpt lat="45.21925" lon="6.95652">
        <ele>1864.61</ele>
        <time>2020-07-29T06:21:20Z</time>
      </trkpt>
      <trkpt lat="45.21923" lon="6.9565">
        <ele>1864.61</ele>
        <time>2020-07-29T06:21:52Z</time>
      </trkpt>
      <trkpt lat="45.21921" lon="6.95655">
        <ele>1865.09</ele>
        <time>2020-07-29T06:22:31Z</time>
      </trkpt>
      <trkpt lat="45.21923" lon="6.95654">
        <ele>1865.58</ele>
        <time>2020-07-29T06:23:01Z</time>
      </trkpt>
      <trkpt lat="45.21924" lon="6.95654">
        <ele>1865.09</ele>
        <time>2020-07-29T06:23:31Z</time>
      </trkpt>
      <trkpt lat="45.21924" lon="6.95653">
        <ele>1866.54</ele>
        <time>2020-07-29T06:24:04Z</time>
      </trkpt>
      <trkpt lat="45.21923" lon="6.95655">
        <ele>1866.06</ele>
        <time>2020-07-29T06:24:34Z</time>
      </trkpt>
      <trkpt lat="45.21922" lon="6.95652">
        <ele>1866.06</ele>
        <time>2020-07-29T06:25:01Z</time>
      </trkpt>
      <trkpt lat="45.21924" lon="6.95654">
        <ele>1867.02</ele>
        <time>2020-07-29T06:25:32Z</time>
      </trkpt>
      <trkpt lat="45.21923" lon="6.95654">
        <ele>1867.02</ele>
        <time>2020-07-29T06:25:57Z</time>
      </trkpt>
      <trkpt lat="45.21923" lon="6.95654">
        <ele>1867.02</ele>
        <time>2020-07-29T06:26:28Z</time>
      </trkpt>
      <trkpt lat="45.21921" lon="6.95654">
        <ele>1867.5</ele>
        <time>2020-07-29T06:26:59Z</time>
      </trkpt>
      <trkpt lat="45.2192" lon="6.95654">
        <ele>1867.98</ele>
        <time>2020-07-29T06:27:00Z</time>
      </trkpt>
      <trkpt lat="45.21895" lon="6.95654">
        <ele>1867.5</ele>
        <time>2020-07-29T06:27:13Z</time>
      </trkpt>
      <trkpt lat="45.21894" lon="6.95657">
        <ele>1867.98</ele>
        <time>2020-07-29T06:27:18Z</time>
      </trkpt>
      <trkpt lat="45.21893" lon="6.9566">
        <ele>1867.98</ele>
        <time>2020-07-29T06:27:20Z</time>
      </trkpt>
      <trkpt lat="45.21893" lon="6.95671">
        <ele>1869.42</ele>
        <time>2020-07-29T06:27:24Z</time>
      </trkpt>
      <trkpt lat="45.21888" lon="6.95704">
        <ele>1867.02</ele>
        <time>2020-07-29T06:27:38Z</time>
      </trkpt>
      <trkpt lat="45.21887" lon="6.95708">
        <ele>1867.5</ele>
        <time>2020-07-29T06:27:57Z</time>
      </trkpt>
      <trkpt lat="45.21869" lon="6.95743">
        <ele>1868.46</ele>
        <time>2020-07-29T06:28:10Z</time>
      </trkpt>
      <trkpt lat="45.21848" lon="6.958">
        <ele>1868.94</ele>
        <time>2020-07-29T06:28:27Z</time>
      </trkpt>
      <trkpt lat="45.21831" lon="6.95839">
        <ele>1871.34</ele>
        <time>2020-07-29T06:28:47Z</time>
      </trkpt>
      <trkpt lat="45.21811" lon="6.95868">
        <ele>1873.75</ele>
        <time>2020-07-29T06:29:06Z</time>
      </trkpt>
      <trkpt lat="45.21792" lon="6.95894">
        <ele>1875.67</ele>
        <time>2020-07-29T06:29:27Z</time>
      </trkpt>
      <trkpt lat="45.21773" lon="6.95919">
        <ele>1878.07</ele>
        <time>2020-07-29T06:29:48Z</time>
      </trkpt>
      <trkpt lat="45.21754" lon="6.95945">
        <ele>1880</ele>
        <time>2020-07-29T06:30:08Z</time>
      </trkpt>
      <trkpt lat="45.21736" lon="6.9597">
        <ele>1881.92</ele>
        <time>2020-07-29T06:30:28Z</time>
      </trkpt>
      <trkpt lat="45.21718" lon="6.95993">
        <ele>1883.36</ele>
        <time>2020-07-29T06:30:48Z</time>
      </trkpt>
      <trkpt lat="45.21709" lon="6.96006">
        <ele>1884.8</ele>
        <time>2020-07-29T06:30:59Z</time>
      </trkpt>
      <trkpt lat="45.21703" lon="6.96014">
        <ele>1885.28</ele>
        <time>2020-07-29T06:31:05Z</time>
      </trkpt>
      <trkpt lat="45.21682" lon="6.96042">
        <ele>1887.21</ele>
        <time>2020-07-29T06:31:27Z</time>
      </trkpt>
      <trkpt lat="45.21665" lon="6.96064">
        <ele>1889.13</ele>
        <time>2020-07-29T06:31:46Z</time>
      </trkpt>
      <trkpt lat="45.21643" lon="6.96091">
        <ele>1890.57</ele>
        <time>2020-07-29T06:32:08Z</time>
      </trkpt>
      <trkpt lat="45.21623" lon="6.96121">
        <ele>1892.97</ele>
        <time>2020-07-29T06:32:30Z</time>
      </trkpt>
      <trkpt lat="45.21603" lon="6.96155">
        <ele>1895.86</ele>
        <time>2020-07-29T06:32:55Z</time>
      </trkpt>
      <trkpt lat="45.21598" lon="6.96166">
        <ele>1896.34</ele>
        <time>2020-07-29T06:33:02Z</time>
      </trkpt>
      <trkpt lat="45.21594" lon="6.96173">
        <ele>1896.34</ele>
        <time>2020-07-29T06:33:07Z</time>
      </trkpt>
      <trkpt lat="45.21575" lon="6.96211">
        <ele>1898.74</ele>
        <time>2020-07-29T06:33:33Z</time>
      </trkpt>
      <trkpt lat="45.21561" lon="6.96242">
        <ele>1900.66</ele>
        <time>2020-07-29T06:33:53Z</time>
      </trkpt>
      <trkpt lat="45.21543" lon="6.9628">
        <ele>1902.59</ele>
        <time>2020-07-29T06:34:16Z</time>
      </trkpt>
      <trkpt lat="45.2153" lon="6.96308">
        <ele>1904.51</ele>
        <time>2020-07-29T06:34:35Z</time>
      </trkpt>
      <trkpt lat="45.21516" lon="6.96336">
        <ele>1905.95</ele>
        <time>2020-07-29T06:34:54Z</time>
      </trkpt>
      <trkpt lat="45.215" lon="6.9637">
        <ele>1908.83</ele>
        <time>2020-07-29T06:35:18Z</time>
      </trkpt>
      <trkpt lat="45.21485" lon="6.96403">
        <ele>1910.76</ele>
        <time>2020-07-29T06:35:39Z</time>
      </trkpt>
      <trkpt lat="45.21476" lon="6.96421">
        <ele>1911.72</ele>
        <time>2020-07-29T06:35:51Z</time>
      </trkpt>
      <trkpt lat="45.21462" lon="6.96453">
        <ele>1913.64</ele>
        <time>2020-07-29T06:36:11Z</time>
      </trkpt>
      <trkpt lat="45.21445" lon="6.96485">
        <ele>1916.04</ele>
        <time>2020-07-29T06:36:33Z</time>
      </trkpt>
      <trkpt lat="45.21431" lon="6.96519">
        <ele>1917.97</ele>
        <time>2020-07-29T06:36:55Z</time>
      </trkpt>
      <trkpt lat="45.21425" lon="6.96537">
        <ele>1918.93</ele>
        <time>2020-07-29T06:37:13Z</time>
      </trkpt>
      <trkpt lat="45.21425" lon="6.96536">
        <ele>1919.41</ele>
        <time>2020-07-29T06:37:36Z</time>
      </trkpt>
      <trkpt lat="45.21423" lon="6.96532">
        <ele>1919.41</ele>
        <time>2020-07-29T06:38:00Z</time>
      </trkpt>
      <trkpt lat="45.21421" lon="6.96535">
        <ele>1919.41</ele>
        <time>2020-07-29T06:38:26Z</time>
      </trkpt>
      <trkpt lat="45.21422" lon="6.96537">
        <ele>1919.41</ele>
        <time>2020-07-29T06:38:28Z</time>
      </trkpt>
      <trkpt lat="45.21421" lon="6.96573">
        <ele>1920.37</ele>
        <time>2020-07-29T06:38:46Z</time>
      </trkpt>
      <trkpt lat="45.21421" lon="6.96578">
        <ele>1920.85</ele>
        <time>2020-07-29T06:38:48Z</time>
      </trkpt>
      <trkpt lat="45.21423" lon="6.96587">
        <ele>1921.33</ele>
        <time>2020-07-29T06:38:53Z</time>
      </trkpt>
      <trkpt lat="45.21425" lon="6.96617">
        <ele>1922.77</ele>
        <time>2020-07-29T06:39:09Z</time>
      </trkpt>
      <trkpt lat="45.21422" lon="6.96622">
        <ele>1923.25</ele>
        <time>2020-07-29T06:39:21Z</time>
      </trkpt>
      <trkpt lat="45.21421" lon="6.96623">
        <ele>1923.25</ele>
        <time>2020-07-29T06:39:37Z</time>
      </trkpt>
      <trkpt lat="45.21423" lon="6.96632">
        <ele>1924.22</ele>
        <time>2020-07-29T06:39:42Z</time>
      </trkpt>
      <trkpt lat="45.21426" lon="6.96652">
        <ele>1928.06</ele>
        <time>2020-07-29T06:39:54Z</time>
      </trkpt>
      <trkpt lat="45.21428" lon="6.96679">
        <ele>1930.95</ele>
        <time>2020-07-29T06:40:10Z</time>
      </trkpt>
      <trkpt lat="45.21438" lon="6.96697">
        <ele>1933.83</ele>
        <time>2020-07-29T06:40:24Z</time>
      </trkpt>
      <trkpt lat="45.21451" lon="6.96715">
        <ele>1936.71</ele>
        <time>2020-07-29T06:40:41Z</time>
      </trkpt>
      <trkpt lat="45.21451" lon="6.96717">
        <ele>1936.71</ele>
        <time>2020-07-29T06:40:42Z</time>
      </trkpt>
      <trkpt lat="45.21451" lon="6.96742">
        <ele>1938.16</ele>
        <time>2020-07-29T06:41:00Z</time>
      </trkpt>
      <trkpt lat="45.21443" lon="6.9675">
        <ele>1938.64</ele>
        <time>2020-07-29T06:41:14Z</time>
      </trkpt>
      <trkpt lat="45.21445" lon="6.96747">
        <ele>1938.64</ele>
        <time>2020-07-29T06:41:30Z</time>
      </trkpt>
      <trkpt lat="45.21444" lon="6.96746">
        <ele>1938.64</ele>
        <time>2020-07-29T06:41:56Z</time>
      </trkpt>
      <trkpt lat="45.21427" lon="6.9672">
        <ele>1938.16</ele>
        <time>2020-07-29T06:42:11Z</time>
      </trkpt>
      <trkpt lat="45.21412" lon="6.96691">
        <ele>1940.08</ele>
        <time>2020-07-29T06:42:27Z</time>
      </trkpt>
      <trkpt lat="45.21396" lon="6.96679">
        <ele>1941.52</ele>
        <time>2020-07-29T06:42:44Z</time>
      </trkpt>
      <trkpt lat="45.21386" lon="6.96683">
        <ele>1942</ele>
        <time>2020-07-29T06:43:00Z</time>
      </trkpt>
      <trkpt lat="45.21384" lon="6.96684">
        <ele>1942</ele>
        <time>2020-07-29T06:43:27Z</time>
      </trkpt>
      <trkpt lat="45.21384" lon="6.96684">
        <ele>1942.48</ele>
        <time>2020-07-29T06:43:54Z</time>
      </trkpt>
      <trkpt lat="45.21384" lon="6.96686">
        <ele>1942</ele>
        <time>2020-07-29T06:44:16Z</time>
      </trkpt>
      <trkpt lat="45.21384" lon="6.96686">
        <ele>1942</ele>
        <time>2020-07-29T06:44:53Z</time>
      </trkpt>
      <trkpt lat="45.21387" lon="6.96685">
        <ele>1942.48</ele>
        <time>2020-07-29T06:45:31Z</time>
      </trkpt>
      <trkpt lat="45.21384" lon="6.96682">
        <ele>1942.96</ele>
        <time>2020-07-29T06:45:47Z</time>
      </trkpt>
      <trkpt lat="45.21386" lon="6.96678">
        <ele>1942.96</ele>
        <time>2020-07-29T06:46:01Z</time>
      </trkpt>
      <trkpt lat="45.21396" lon="6.96679">
        <ele>1942.96</ele>
        <time>2020-07-29T06:46:08Z</time>
      </trkpt>
      <trkpt lat="45.21402" lon="6.96694">
        <ele>1942</ele>
        <time>2020-07-29T06:46:14Z</time>
      </trkpt>
      <trkpt lat="45.21425" lon="6.96717">
        <ele>1940.08</ele>
        <time>2020-07-29T06:46:25Z</time>
      </trkpt>
      <trkpt lat="45.21436" lon="6.96747">
        <ele>1940.08</ele>
        <time>2020-07-29T06:46:36Z</time>
      </trkpt>
      <trkpt lat="45.21424" lon="6.96779">
        <ele>1942</ele>
        <time>2020-07-29T06:46:53Z</time>
      </trkpt>
      <trkpt lat="45.21412" lon="6.96813">
        <ele>1942.96</ele>
        <time>2020-07-29T06:47:10Z</time>
      </trkpt>
      <trkpt lat="45.21399" lon="6.96841">
        <ele>1944.4</ele>
        <time>2020-07-29T06:47:28Z</time>
      </trkpt>
      <trkpt lat="45.21389" lon="6.96873">
        <ele>1946.33</ele>
        <time>2020-07-29T06:47:48Z</time>
      </trkpt>
      <trkpt lat="45.21386" lon="6.96906">
        <ele>1948.73</ele>
        <time>2020-07-29T06:48:06Z</time>
      </trkpt>
      <trkpt lat="45.21379" lon="6.96932">
        <ele>1950.65</ele>
        <time>2020-07-29T06:48:23Z</time>
      </trkpt>
      <trkpt lat="45.21369" lon="6.96956">
        <ele>1952.09</ele>
        <time>2020-07-29T06:48:40Z</time>
      </trkpt>
      <trkpt lat="45.21369" lon="6.96957">
        <ele>1952.57</ele>
        <time>2020-07-29T06:48:41Z</time>
      </trkpt>
      <trkpt lat="45.21364" lon="6.96967">
        <ele>1953.06</ele>
        <time>2020-07-29T06:48:48Z</time>
      </trkpt>
      <trkpt lat="45.2136" lon="6.96975">
        <ele>1953.54</ele>
        <time>2020-07-29T06:48:54Z</time>
      </trkpt>
      <trkpt lat="45.21343" lon="6.97007">
        <ele>1955.46</ele>
        <time>2020-07-29T06:49:18Z</time>
      </trkpt>
      <trkpt lat="45.21329" lon="6.97035">
        <ele>1957.86</ele>
        <time>2020-07-29T06:49:38Z</time>
      </trkpt>
      <trkpt lat="45.21321" lon="6.97053">
        <ele>1958.82</ele>
        <time>2020-07-29T06:49:51Z</time>
      </trkpt>
      <trkpt lat="45.21317" lon="6.97061">
        <ele>1959.78</ele>
        <time>2020-07-29T06:49:57Z</time>
      </trkpt>
      <trkpt lat="45.21303" lon="6.97083">
        <ele>1961.23</ele>
        <time>2020-07-29T06:50:16Z</time>
      </trkpt>
      <trkpt lat="45.2129" lon="6.97097">
        <ele>1962.19</ele>
        <time>2020-07-29T06:50:32Z</time>
      </trkpt>
      <trkpt lat="45.21294" lon="6.97097">
        <ele>1962.19</ele>
        <time>2020-07-29T06:50:44Z</time>
      </trkpt>
      <trkpt lat="45.21295" lon="6.97095">
        <ele>1962.19</ele>
        <time>2020-07-29T06:51:11Z</time>
      </trkpt>
      <trkpt lat="45.21297" lon="6.97098">
        <ele>1962.67</ele>
        <time>2020-07-29T06:51:45Z</time>
      </trkpt>
      <trkpt lat="45.21297" lon="6.97104">
        <ele>1962.19</ele>
        <time>2020-07-29T06:52:01Z</time>
      </trkpt>
      <trkpt lat="45.21295" lon="6.97101">
        <ele>1962.19</ele>
        <time>2020-07-29T06:52:35Z</time>
      </trkpt>
      <trkpt lat="45.21296" lon="6.97102">
        <ele>1963.15</ele>
        <time>2020-07-29T06:52:51Z</time>
      </trkpt>
      <trkpt lat="45.21293" lon="6.97104">
        <ele>1963.63</ele>
        <time>2020-07-29T06:53:04Z</time>
      </trkpt>
      <trkpt lat="45.21293" lon="6.97103">
        <ele>1963.63</ele>
        <time>2020-07-29T06:53:25Z</time>
      </trkpt>
      <trkpt lat="45.21288" lon="6.97106">
        <ele>1963.15</ele>
        <time>2020-07-29T06:53:30Z</time>
      </trkpt>
      <trkpt lat="45.21271" lon="6.9714">
        <ele>1964.59</ele>
        <time>2020-07-29T06:53:49Z</time>
      </trkpt>
      <trkpt lat="45.21253" lon="6.97161">
        <ele>1964.59</ele>
        <time>2020-07-29T06:54:02Z</time>
      </trkpt>
      <trkpt lat="45.21244" lon="6.97192">
        <ele>1965.55</ele>
        <time>2020-07-29T06:54:17Z</time>
      </trkpt>
      <trkpt lat="45.21229" lon="6.97217">
        <ele>1966.99</ele>
        <time>2020-07-29T06:54:33Z</time>
      </trkpt>
      <trkpt lat="45.2121" lon="6.97241">
        <ele>1970.36</ele>
        <time>2020-07-29T06:54:52Z</time>
      </trkpt>
      <trkpt lat="45.21206" lon="6.97265">
        <ele>1973.24</ele>
        <time>2020-07-29T06:55:05Z</time>
      </trkpt>
      <trkpt lat="45.212" lon="6.97291">
        <ele>1973.72</ele>
        <time>2020-07-29T06:55:21Z</time>
      </trkpt>
      <trkpt lat="45.21195" lon="6.97314">
        <ele>1975.17</ele>
        <time>2020-07-29T06:55:40Z</time>
      </trkpt>
      <trkpt lat="45.21194" lon="6.97318">
        <ele>1975.17</ele>
        <time>2020-07-29T06:55:57Z</time>
      </trkpt>
      <trkpt lat="45.21183" lon="6.97333">
        <ele>1977.09</ele>
        <time>2020-07-29T06:56:17Z</time>
      </trkpt>
      <trkpt lat="45.2117" lon="6.97343">
        <ele>1978.53</ele>
        <time>2020-07-29T06:56:37Z</time>
      </trkpt>
      <trkpt lat="45.21159" lon="6.97357">
        <ele>1980.45</ele>
        <time>2020-07-29T06:56:56Z</time>
      </trkpt>
      <trkpt lat="45.21153" lon="6.97373">
        <ele>1982.38</ele>
        <time>2020-07-29T06:57:13Z</time>
      </trkpt>
      <trkpt lat="45.21159" lon="6.97395">
        <ele>1983.34</ele>
        <time>2020-07-29T06:57:35Z</time>
      </trkpt>
      <trkpt lat="45.21169" lon="6.9741">
        <ele>1985.26</ele>
        <time>2020-07-29T06:57:54Z</time>
      </trkpt>
      <trkpt lat="45.21178" lon="6.97421">
        <ele>1987.18</ele>
        <time>2020-07-29T06:58:12Z</time>
      </trkpt>
      <trkpt lat="45.21189" lon="6.97433">
        <ele>1989.1</ele>
        <time>2020-07-29T06:58:31Z</time>
      </trkpt>
      <trkpt lat="45.21197" lon="6.97444">
        <ele>1990.55</ele>
        <time>2020-07-29T06:58:48Z</time>
      </trkpt>
      <trkpt lat="45.21197" lon="6.97464">
        <ele>1991.51</ele>
        <time>2020-07-29T06:59:07Z</time>
      </trkpt>
      <trkpt lat="45.21204" lon="6.97479">
        <ele>1993.91</ele>
        <time>2020-07-29T06:59:28Z</time>
      </trkpt>
      <trkpt lat="45.21212" lon="6.97475">
        <ele>1994.39</ele>
        <time>2020-07-29T06:59:46Z</time>
      </trkpt>
      <trkpt lat="45.21222" lon="6.97463">
        <ele>1994.87</ele>
        <time>2020-07-29T07:00:02Z</time>
      </trkpt>
      <trkpt lat="45.21235" lon="6.9745">
        <ele>1996.8</ele>
        <time>2020-07-29T07:00:22Z</time>
      </trkpt>
      <trkpt lat="45.21245" lon="6.97445">
        <ele>1998.24</ele>
        <time>2020-07-29T07:00:39Z</time>
      </trkpt>
      <trkpt lat="45.21257" lon="6.97449">
        <ele>1999.2</ele>
        <time>2020-07-29T07:00:57Z</time>
      </trkpt>
      <trkpt lat="45.21258" lon="6.97453">
        <ele>1999.2</ele>
        <time>2020-07-29T07:01:15Z</time>
      </trkpt>
      <trkpt lat="45.21258" lon="6.97453">
        <ele>1999.68</ele>
        <time>2020-07-29T07:01:19Z</time>
      </trkpt>
      <trkpt lat="45.21262" lon="6.97461">
        <ele>2000.16</ele>
        <time>2020-07-29T07:01:25Z</time>
      </trkpt>
      <trkpt lat="45.21266" lon="6.97494">
        <ele>2002.56</ele>
        <time>2020-07-29T07:01:46Z</time>
      </trkpt>
      <trkpt lat="45.2127" lon="6.9751">
        <ele>2003.04</ele>
        <time>2020-07-29T07:01:57Z</time>
      </trkpt>
      <trkpt lat="45.21272" lon="6.9752">
        <ele>2004.01</ele>
        <time>2020-07-29T07:02:03Z</time>
      </trkpt>
      <trkpt lat="45.21278" lon="6.97543">
        <ele>2006.41</ele>
        <time>2020-07-29T07:02:19Z</time>
      </trkpt>
      <trkpt lat="45.21281" lon="6.97548">
        <ele>2006.41</ele>
        <time>2020-07-29T07:02:23Z</time>
      </trkpt>
      <trkpt lat="45.21297" lon="6.97573">
        <ele>2007.85</ele>
        <time>2020-07-29T07:02:46Z</time>
      </trkpt>
      <trkpt lat="45.21309" lon="6.9759">
        <ele>2009.77</ele>
        <time>2020-07-29T07:03:02Z</time>
      </trkpt>
      <trkpt lat="45.21326" lon="6.976">
        <ele>2011.7</ele>
        <time>2020-07-29T07:03:20Z</time>
      </trkpt>
      <trkpt lat="45.21327" lon="6.97601">
        <ele>2011.7</ele>
        <time>2020-07-29T07:03:42Z</time>
      </trkpt>
      <trkpt lat="45.21338" lon="6.97589">
        <ele>2013.62</ele>
        <time>2020-07-29T07:04:01Z</time>
      </trkpt>
      <trkpt lat="45.21341" lon="6.9757">
        <ele>2014.58</ele>
        <time>2020-07-29T07:04:18Z</time>
      </trkpt>
      <trkpt lat="45.21342" lon="6.97562">
        <ele>2015.06</ele>
        <time>2020-07-29T07:04:26Z</time>
      </trkpt>
      <trkpt lat="45.21342" lon="6.97535">
        <ele>2016.02</ele>
        <time>2020-07-29T07:04:46Z</time>
      </trkpt>
      <trkpt lat="45.21341" lon="6.9752">
        <ele>2016.5</ele>
        <time>2020-07-29T07:05:04Z</time>
      </trkpt>
      <trkpt lat="45.21343" lon="6.97505">
        <ele>2016.5</ele>
        <time>2020-07-29T07:05:20Z</time>
      </trkpt>
      <trkpt lat="45.21343" lon="6.9748">
        <ele>2016.98</ele>
        <time>2020-07-29T07:05:39Z</time>
      </trkpt>
      <trkpt lat="45.21344" lon="6.97466">
        <ele>2017.46</ele>
        <time>2020-07-29T07:05:56Z</time>
      </trkpt>
      <trkpt lat="45.21347" lon="6.97453">
        <ele>2017.94</ele>
        <time>2020-07-29T07:06:12Z</time>
      </trkpt>
      <trkpt lat="45.21348" lon="6.97454">
        <ele>2017.94</ele>
        <time>2020-07-29T07:06:36Z</time>
      </trkpt>
      <trkpt lat="45.21345" lon="6.9745">
        <ele>2018.91</ele>
        <time>2020-07-29T07:06:52Z</time>
      </trkpt>
      <trkpt lat="45.21356" lon="6.97439">
        <ele>2020.83</ele>
        <time>2020-07-29T07:07:11Z</time>
      </trkpt>
      <trkpt lat="45.21369" lon="6.97445">
        <ele>2022.27</ele>
        <time>2020-07-29T07:07:29Z</time>
      </trkpt>
      <trkpt lat="45.21381" lon="6.97452">
        <ele>2024.19</ele>
        <time>2020-07-29T07:07:48Z</time>
      </trkpt>
      <trkpt lat="45.21393" lon="6.97456">
        <ele>2025.64</ele>
        <time>2020-07-29T07:08:06Z</time>
      </trkpt>
      <trkpt lat="45.21398" lon="6.97459">
        <ele>2026.12</ele>
        <time>2020-07-29T07:08:23Z</time>
      </trkpt>
      <trkpt lat="45.21406" lon="6.97467">
        <ele>2027.56</ele>
        <time>2020-07-29T07:08:38Z</time>
      </trkpt>
      <trkpt lat="45.21416" lon="6.97479">
        <ele>2029.48</ele>
        <time>2020-07-29T07:08:58Z</time>
      </trkpt>
      <trkpt lat="45.21422" lon="6.97478">
        <ele>2030.44</ele>
        <time>2020-07-29T07:09:12Z</time>
      </trkpt>
      <trkpt lat="45.21423" lon="6.9747">
        <ele>2030.44</ele>
        <time>2020-07-29T07:09:25Z</time>
      </trkpt>
      <trkpt lat="45.21409" lon="6.97449">
        <ele>2032.36</ele>
        <time>2020-07-29T07:09:44Z</time>
      </trkpt>
      <trkpt lat="45.21395" lon="6.97438">
        <ele>2034.29</ele>
        <time>2020-07-29T07:09:59Z</time>
      </trkpt>
      <trkpt lat="45.21383" lon="6.9742">
        <ele>2035.25</ele>
        <time>2020-07-29T07:10:15Z</time>
      </trkpt>
      <trkpt lat="45.21365" lon="6.97409">
        <ele>2036.69</ele>
        <time>2020-07-29T07:10:33Z</time>
      </trkpt>
      <trkpt lat="45.21365" lon="6.97405">
        <ele>2036.69</ele>
        <time>2020-07-29T07:10:35Z</time>
      </trkpt>
      <trkpt lat="45.21367" lon="6.97401">
        <ele>2037.17</ele>
        <time>2020-07-29T07:10:38Z</time>
      </trkpt>
      <trkpt lat="45.2137" lon="6.97402">
        <ele>2037.65</ele>
        <time>2020-07-29T07:10:41Z</time>
      </trkpt>
      <trkpt lat="45.21376" lon="6.97409">
        <ele>2038.61</ele>
        <time>2020-07-29T07:10:54Z</time>
      </trkpt>
      <trkpt lat="45.21388" lon="6.97413">
        <ele>2040.05</ele>
        <time>2020-07-29T07:11:14Z</time>
      </trkpt>
      <trkpt lat="45.21399" lon="6.97417">
        <ele>2041.98</ele>
        <time>2020-07-29T07:11:32Z</time>
      </trkpt>
      <trkpt lat="45.21406" lon="6.9742">
        <ele>2042.94</ele>
        <time>2020-07-29T07:11:47Z</time>
      </trkpt>
      <trkpt lat="45.21418" lon="6.97422">
        <ele>2044.38</ele>
        <time>2020-07-29T07:12:05Z</time>
      </trkpt>
      <trkpt lat="45.21432" lon="6.97422">
        <ele>2046.3</ele>
        <time>2020-07-29T07:12:25Z</time>
      </trkpt>
      <trkpt lat="45.21442" lon="6.97422">
        <ele>2047.75</ele>
        <time>2020-07-29T07:12:42Z</time>
      </trkpt>
      <trkpt lat="45.21454" lon="6.97423">
        <ele>2049.19</ele>
        <time>2020-07-29T07:13:02Z</time>
      </trkpt>
      <trkpt lat="45.21465" lon="6.97428">
        <ele>2051.11</ele>
        <time>2020-07-29T07:13:21Z</time>
      </trkpt>
      <trkpt lat="45.21473" lon="6.9744">
        <ele>2053.03</ele>
        <time>2020-07-29T07:13:40Z</time>
      </trkpt>
      <trkpt lat="45.21484" lon="6.97449">
        <ele>2054.47</ele>
        <time>2020-07-29T07:13:59Z</time>
      </trkpt>
      <trkpt lat="45.21498" lon="6.9745">
        <ele>2055.92</ele>
        <time>2020-07-29T07:14:20Z</time>
      </trkpt>
      <trkpt lat="45.21512" lon="6.97446">
        <ele>2057.36</ele>
        <time>2020-07-29T07:14:42Z</time>
      </trkpt>
      <trkpt lat="45.21525" lon="6.9744">
        <ele>2059.28</ele>
        <time>2020-07-29T07:15:03Z</time>
      </trkpt>
      <trkpt lat="45.21537" lon="6.97436">
        <ele>2060.24</ele>
        <time>2020-07-29T07:15:22Z</time>
      </trkpt>
      <trkpt lat="45.21548" lon="6.97433">
        <ele>2062.17</ele>
        <time>2020-07-29T07:15:40Z</time>
      </trkpt>
      <trkpt lat="45.2156" lon="6.97434">
        <ele>2063.13</ele>
        <time>2020-07-29T07:15:58Z</time>
      </trkpt>
      <trkpt lat="45.21572" lon="6.97435">
        <ele>2064.57</ele>
        <time>2020-07-29T07:16:17Z</time>
      </trkpt>
      <trkpt lat="45.2158" lon="6.97438">
        <ele>2066.01</ele>
        <time>2020-07-29T07:16:34Z</time>
      </trkpt>
      <trkpt lat="45.2159" lon="6.97439">
        <ele>2066.97</ele>
        <time>2020-07-29T07:16:52Z</time>
      </trkpt>
      <trkpt lat="45.21603" lon="6.97441">
        <ele>2068.41</ele>
        <time>2020-07-29T07:17:13Z</time>
      </trkpt>
      <trkpt lat="45.2161" lon="6.97444">
        <ele>2069.38</ele>
        <time>2020-07-29T07:17:28Z</time>
      </trkpt>
      <trkpt lat="45.21618" lon="6.97439">
        <ele>2069.86</ele>
        <time>2020-07-29T07:17:46Z</time>
      </trkpt>
      <trkpt lat="45.21618" lon="6.97434">
        <ele>2069.86</ele>
        <time>2020-07-29T07:18:10Z</time>
      </trkpt>
      <trkpt lat="45.21614" lon="6.9743">
        <ele>2070.34</ele>
        <time>2020-07-29T07:18:15Z</time>
      </trkpt>
      <trkpt lat="45.2161" lon="6.97428">
        <ele>2070.82</ele>
        <time>2020-07-29T07:18:18Z</time>
      </trkpt>
      <trkpt lat="45.2159" lon="6.97419">
        <ele>2072.26</ele>
        <time>2020-07-29T07:18:37Z</time>
      </trkpt>
      <trkpt lat="45.21581" lon="6.97409">
        <ele>2072.74</ele>
        <time>2020-07-29T07:18:53Z</time>
      </trkpt>
      <trkpt lat="45.2158" lon="6.9741">
        <ele>2073.22</ele>
        <time>2020-07-29T07:19:25Z</time>
      </trkpt>
      <trkpt lat="45.21567" lon="6.97388">
        <ele>2074.66</ele>
        <time>2020-07-29T07:19:41Z</time>
      </trkpt>
      <trkpt lat="45.21548" lon="6.97378">
        <ele>2077.07</ele>
        <time>2020-07-29T07:19:59Z</time>
      </trkpt>
      <trkpt lat="45.21527" lon="6.97375">
        <ele>2078.99</ele>
        <time>2020-07-29T07:20:16Z</time>
      </trkpt>
      <trkpt lat="45.21524" lon="6.97373">
        <ele>2078.99</ele>
        <time>2020-07-29T07:20:28Z</time>
      </trkpt>
      <trkpt lat="45.21518" lon="6.97362">
        <ele>2080.43</ele>
        <time>2020-07-29T07:20:45Z</time>
      </trkpt>
      <trkpt lat="45.21527" lon="6.97361">
        <ele>2081.87</ele>
        <time>2020-07-29T07:21:01Z</time>
      </trkpt>
      <trkpt lat="45.2154" lon="6.97361">
        <ele>2083.79</ele>
        <time>2020-07-29T07:21:20Z</time>
      </trkpt>
      <trkpt lat="45.21551" lon="6.97356">
        <ele>2084.76</ele>
        <time>2020-07-29T07:21:37Z</time>
      </trkpt>
      <trkpt lat="45.21565" lon="6.97352">
        <ele>2085.72</ele>
        <time>2020-07-29T07:21:57Z</time>
      </trkpt>
      <trkpt lat="45.21564" lon="6.97351">
        <ele>2086.2</ele>
        <time>2020-07-29T07:22:21Z</time>
      </trkpt>
      <trkpt lat="45.21576" lon="6.97346">
        <ele>2087.16</ele>
        <time>2020-07-29T07:22:39Z</time>
      </trkpt>
      <trkpt lat="45.21587" lon="6.97343">
        <ele>2088.12</ele>
        <time>2020-07-29T07:22:55Z</time>
      </trkpt>
      <trkpt lat="45.21593" lon="6.97334">
        <ele>2088.6</ele>
        <time>2020-07-29T07:23:11Z</time>
      </trkpt>
      <trkpt lat="45.21591" lon="6.97334">
        <ele>2088.12</ele>
        <time>2020-07-29T07:23:38Z</time>
      </trkpt>
      <trkpt lat="45.21592" lon="6.97334">
        <ele>2088.6</ele>
        <time>2020-07-29T07:24:11Z</time>
      </trkpt>
      <trkpt lat="45.21591" lon="6.97335">
        <ele>2089.08</ele>
        <time>2020-07-29T07:24:35Z</time>
      </trkpt>
      <trkpt lat="45.21597" lon="6.97338">
        <ele>2089.08</ele>
        <time>2020-07-29T07:24:58Z</time>
      </trkpt>
      <trkpt lat="45.21615" lon="6.97341">
        <ele>2090.52</ele>
        <time>2020-07-29T07:25:19Z</time>
      </trkpt>
      <trkpt lat="45.21626" lon="6.97339">
        <ele>2091.49</ele>
        <time>2020-07-29T07:25:36Z</time>
      </trkpt>
      <trkpt lat="45.21621" lon="6.97332">
        <ele>2091.97</ele>
        <time>2020-07-29T07:25:51Z</time>
      </trkpt>
      <trkpt lat="45.21621" lon="6.97334">
        <ele>2091.97</ele>
        <time>2020-07-29T07:26:19Z</time>
      </trkpt>
      <trkpt lat="45.21621" lon="6.97334">
        <ele>2091.97</ele>
        <time>2020-07-29T07:26:54Z</time>
      </trkpt>
      <trkpt lat="45.21618" lon="6.97334">
        <ele>2092.45</ele>
        <time>2020-07-29T07:27:19Z</time>
      </trkpt>
      <trkpt lat="45.2161" lon="6.97329">
        <ele>2093.41</ele>
        <time>2020-07-29T07:27:35Z</time>
      </trkpt>
      <trkpt lat="45.21597" lon="6.97321">
        <ele>2094.37</ele>
        <time>2020-07-29T07:27:53Z</time>
      </trkpt>
      <trkpt lat="45.21587" lon="6.97308">
        <ele>2097.25</ele>
        <time>2020-07-29T07:28:13Z</time>
      </trkpt>
      <trkpt lat="45.21585" lon="6.97302">
        <ele>2096.29</ele>
        <time>2020-07-29T07:28:20Z</time>
      </trkpt>
      <trkpt lat="45.21584" lon="6.97296">
        <ele>2097.25</ele>
        <time>2020-07-29T07:28:33Z</time>
      </trkpt>
      <trkpt lat="45.21593" lon="6.97294">
        <ele>2097.25</ele>
        <time>2020-07-29T07:28:45Z</time>
      </trkpt>
      <trkpt lat="45.21605" lon="6.97295">
        <ele>2097.73</ele>
        <time>2020-07-29T07:29:03Z</time>
      </trkpt>
      <trkpt lat="45.2162" lon="6.97295">
        <ele>2099.18</ele>
        <time>2020-07-29T07:29:23Z</time>
      </trkpt>
      <trkpt lat="45.21632" lon="6.97301">
        <ele>2100.14</ele>
        <time>2020-07-29T07:29:42Z</time>
      </trkpt>
      <trkpt lat="45.21634" lon="6.97302">
        <ele>2099.66</ele>
        <time>2020-07-29T07:29:57Z</time>
      </trkpt>
      <trkpt lat="45.21636" lon="6.97299">
        <ele>2099.18</ele>
        <time>2020-07-29T07:30:36Z</time>
      </trkpt>
      <trkpt lat="45.21636" lon="6.97298">
        <ele>2099.66</ele>
        <time>2020-07-29T07:31:16Z</time>
      </trkpt>
      <trkpt lat="45.21638" lon="6.973">
        <ele>2099.66</ele>
        <time>2020-07-29T07:32:01Z</time>
      </trkpt>
      <trkpt lat="45.21637" lon="6.973">
        <ele>2100.14</ele>
        <time>2020-07-29T07:32:48Z</time>
      </trkpt>
      <trkpt lat="45.21637" lon="6.97299">
        <ele>2100.62</ele>
        <time>2020-07-29T07:33:32Z</time>
      </trkpt>
      <trkpt lat="45.21637" lon="6.97304">
        <ele>2101.58</ele>
        <time>2020-07-29T07:34:15Z</time>
      </trkpt>
      <trkpt lat="45.21636" lon="6.973">
        <ele>2101.1</ele>
        <time>2020-07-29T07:34:42Z</time>
      </trkpt>
      <trkpt lat="45.21653" lon="6.973">
        <ele>2101.58</ele>
        <time>2020-07-29T07:34:59Z</time>
      </trkpt>
      <trkpt lat="45.21657" lon="6.97305">
        <ele>2101.58</ele>
        <time>2020-07-29T07:35:06Z</time>
      </trkpt>
      <trkpt lat="45.21664" lon="6.97326">
        <ele>2102.54</ele>
        <time>2020-07-29T07:35:26Z</time>
      </trkpt>
      <trkpt lat="45.21673" lon="6.97334">
        <ele>2102.06</ele>
        <time>2020-07-29T07:35:44Z</time>
      </trkpt>
      <trkpt lat="45.21684" lon="6.97332">
        <ele>2101.1</ele>
        <time>2020-07-29T07:36:01Z</time>
      </trkpt>
      <trkpt lat="45.21683" lon="6.97314">
        <ele>2101.1</ele>
        <time>2020-07-29T07:36:17Z</time>
      </trkpt>
      <trkpt lat="45.21688" lon="6.97314">
        <ele>2099.66</ele>
        <time>2020-07-29T07:36:32Z</time>
      </trkpt>
      <trkpt lat="45.21692" lon="6.97311">
        <ele>2097.73</ele>
        <time>2020-07-29T07:36:45Z</time>
      </trkpt>
      <trkpt lat="45.21696" lon="6.97316">
        <ele>2096.29</ele>
        <time>2020-07-29T07:36:59Z</time>
      </trkpt>
      <trkpt lat="45.21698" lon="6.97329">
        <ele>2096.29</ele>
        <time>2020-07-29T07:37:15Z</time>
      </trkpt>
      <trkpt lat="45.21697" lon="6.97343">
        <ele>2094.85</ele>
        <time>2020-07-29T07:37:26Z</time>
      </trkpt>
      <trkpt lat="45.21701" lon="6.97367">
        <ele>2093.89</ele>
        <time>2020-07-29T07:37:45Z</time>
      </trkpt>
      <trkpt lat="45.21707" lon="6.97365">
        <ele>2093.41</ele>
        <time>2020-07-29T07:37:57Z</time>
      </trkpt>
      <trkpt lat="45.21727" lon="6.97345">
        <ele>2090.04</ele>
        <time>2020-07-29T07:38:07Z</time>
      </trkpt>
      <trkpt lat="45.2174" lon="6.97331">
        <ele>2087.64</ele>
        <time>2020-07-29T07:38:11Z</time>
      </trkpt>
      <trkpt lat="45.21753" lon="6.97324">
        <ele>2086.68</ele>
        <time>2020-07-29T07:38:14Z</time>
      </trkpt>
      <trkpt lat="45.21778" lon="6.97307">
        <ele>2086.2</ele>
        <time>2020-07-29T07:38:24Z</time>
      </trkpt>
      <trkpt lat="45.21787" lon="6.97274">
        <ele>2087.16</ele>
        <time>2020-07-29T07:38:40Z</time>
      </trkpt>
      <trkpt lat="45.21789" lon="6.97264">
        <ele>2087.16</ele>
        <time>2020-07-29T07:38:45Z</time>
      </trkpt>
      <trkpt lat="45.21801" lon="6.97232">
        <ele>2089.08</ele>
        <time>2020-07-29T07:39:04Z</time>
      </trkpt>
      <trkpt lat="45.21808" lon="6.97227">
        <ele>2089.56</ele>
        <time>2020-07-29T07:39:10Z</time>
      </trkpt>
      <trkpt lat="45.21825" lon="6.97234">
        <ele>2091</ele>
        <time>2020-07-29T07:39:27Z</time>
      </trkpt>
      <trkpt lat="45.21836" lon="6.97242">
        <ele>2092.93</ele>
        <time>2020-07-29T07:39:46Z</time>
      </trkpt>
      <trkpt lat="45.21848" lon="6.9725">
        <ele>2093.89</ele>
        <time>2020-07-29T07:40:06Z</time>
      </trkpt>
      <trkpt lat="45.21858" lon="6.97256">
        <ele>2095.33</ele>
        <time>2020-07-29T07:40:23Z</time>
      </trkpt>
      <trkpt lat="45.21869" lon="6.9726">
        <ele>2097.25</ele>
        <time>2020-07-29T07:40:42Z</time>
      </trkpt>
      <trkpt lat="45.21877" lon="6.97266">
        <ele>2099.18</ele>
        <time>2020-07-29T07:40:58Z</time>
      </trkpt>
      <trkpt lat="45.21885" lon="6.97276">
        <ele>2100.14</ele>
        <time>2020-07-29T07:41:15Z</time>
      </trkpt>
      <trkpt lat="45.21893" lon="6.97284">
        <ele>2100.62</ele>
        <time>2020-07-29T07:41:31Z</time>
      </trkpt>
      <trkpt lat="45.219" lon="6.97288">
        <ele>2101.1</ele>
        <time>2020-07-29T07:41:48Z</time>
      </trkpt>
      <trkpt lat="45.2191" lon="6.97294">
        <ele>2101.58</ele>
        <time>2020-07-29T07:42:03Z</time>
      </trkpt>
      <trkpt lat="45.21909" lon="6.97293">
        <ele>2101.58</ele>
        <time>2020-07-29T07:42:04Z</time>
      </trkpt>
      <trkpt lat="45.2193" lon="6.973">
        <ele>2101.58</ele>
        <time>2020-07-29T07:42:20Z</time>
      </trkpt>
      <trkpt lat="45.21958" lon="6.9731">
        <ele>2103.02</ele>
        <time>2020-07-29T07:42:39Z</time>
      </trkpt>
      <trkpt lat="45.2198" lon="6.97311">
        <ele>2104.46</ele>
        <time>2020-07-29T07:42:54Z</time>
      </trkpt>
      <trkpt lat="45.22002" lon="6.97307">
        <ele>2104.94</ele>
        <time>2020-07-29T07:43:09Z</time>
      </trkpt>
      <trkpt lat="45.22025" lon="6.97301">
        <ele>2104.94</ele>
        <time>2020-07-29T07:43:24Z</time>
      </trkpt>
      <trkpt lat="45.22052" lon="6.97289">
        <ele>2105.42</ele>
        <time>2020-07-29T07:43:42Z</time>
      </trkpt>
      <trkpt lat="45.22058" lon="6.97288">
        <ele>2105.42</ele>
        <time>2020-07-29T07:43:46Z</time>
      </trkpt>
      <trkpt lat="45.22085" lon="6.97274">
        <ele>2106.39</ele>
        <time>2020-07-29T07:44:04Z</time>
      </trkpt>
      <trkpt lat="45.2211" lon="6.97262">
        <ele>2106.39</ele>
        <time>2020-07-29T07:44:19Z</time>
      </trkpt>
      <trkpt lat="45.22131" lon="6.97248">
        <ele>2106.87</ele>
        <time>2020-07-29T07:44:33Z</time>
      </trkpt>
      <trkpt lat="45.22152" lon="6.97238">
        <ele>2106.39</ele>
        <time>2020-07-29T07:44:45Z</time>
      </trkpt>
      <trkpt lat="45.22183" lon="6.9722">
        <ele>2104.94</ele>
        <time>2020-07-29T07:44:59Z</time>
      </trkpt>
      <trkpt lat="45.22202" lon="6.97213">
        <ele>2103.98</ele>
        <time>2020-07-29T07:45:11Z</time>
      </trkpt>
      <trkpt lat="45.222" lon="6.97212">
        <ele>2104.46</ele>
        <time>2020-07-29T07:45:46Z</time>
      </trkpt>
      <trkpt lat="45.222" lon="6.97213">
        <ele>2104.46</ele>
        <time>2020-07-29T07:45:48Z</time>
      </trkpt>
      <trkpt lat="45.22227" lon="6.97223">
        <ele>2103.02</ele>
        <time>2020-07-29T07:46:01Z</time>
      </trkpt>
      <trkpt lat="45.2226" lon="6.97216">
        <ele>2102.06</ele>
        <time>2020-07-29T07:46:14Z</time>
      </trkpt>
      <trkpt lat="45.22287" lon="6.97193">
        <ele>2102.06</ele>
        <time>2020-07-29T07:46:29Z</time>
      </trkpt>
      <trkpt lat="45.22305" lon="6.97165">
        <ele>2101.58</ele>
        <time>2020-07-29T07:46:42Z</time>
      </trkpt>
      <trkpt lat="45.22328" lon="6.97133">
        <ele>2100.14</ele>
        <time>2020-07-29T07:46:55Z</time>
      </trkpt>
      <trkpt lat="45.22334" lon="6.97125">
        <ele>2100.14</ele>
        <time>2020-07-29T07:46:59Z</time>
      </trkpt>
      <trkpt lat="45.22357" lon="6.97101">
        <ele>2098.7</ele>
        <time>2020-07-29T07:47:12Z</time>
      </trkpt>
      <trkpt lat="45.22378" lon="6.97082">
        <ele>2097.73</ele>
        <time>2020-07-29T07:47:23Z</time>
      </trkpt>
      <trkpt lat="45.22396" lon="6.97053">
        <ele>2095.33</ele>
        <time>2020-07-29T07:47:34Z</time>
      </trkpt>
      <trkpt lat="45.22414" lon="6.97027">
        <ele>2092.45</ele>
        <time>2020-07-29T07:47:48Z</time>
      </trkpt>
      <trkpt lat="45.22413" lon="6.97028">
        <ele>2092.93</ele>
        <time>2020-07-29T07:48:05Z</time>
      </trkpt>
      <trkpt lat="45.22424" lon="6.97028">
        <ele>2092.45</ele>
        <time>2020-07-29T07:48:33Z</time>
      </trkpt>
      <trkpt lat="45.22452" lon="6.97013">
        <ele>2089.56</ele>
        <time>2020-07-29T07:48:44Z</time>
      </trkpt>
      <trkpt lat="45.22476" lon="6.96981">
        <ele>2086.2</ele>
        <time>2020-07-29T07:48:55Z</time>
      </trkpt>
      <trkpt lat="45.22489" lon="6.96955">
        <ele>2085.24</ele>
        <time>2020-07-29T07:49:06Z</time>
      </trkpt>
      <trkpt lat="45.22491" lon="6.96956">
        <ele>2085.24</ele>
        <time>2020-07-29T07:49:24Z</time>
      </trkpt>
      <trkpt lat="45.22496" lon="6.96947">
        <ele>2086.2</ele>
        <time>2020-07-29T07:49:38Z</time>
      </trkpt>
      <trkpt lat="45.22496" lon="6.96948">
        <ele>2086.2</ele>
        <time>2020-07-29T07:49:55Z</time>
      </trkpt>
      <trkpt lat="45.22503" lon="6.96942">
        <ele>2086.68</ele>
        <time>2020-07-29T07:50:02Z</time>
      </trkpt>
      <trkpt lat="45.22523" lon="6.96926">
        <ele>2088.6</ele>
        <time>2020-07-29T07:50:21Z</time>
      </trkpt>
      <trkpt lat="45.22535" lon="6.96921">
        <ele>2090.04</ele>
        <time>2020-07-29T07:50:33Z</time>
      </trkpt>
      <trkpt lat="45.22544" lon="6.9692">
        <ele>2091</ele>
        <time>2020-07-29T07:50:41Z</time>
      </trkpt>
      <trkpt lat="45.22557" lon="6.96906">
        <ele>2092.45</ele>
        <time>2020-07-29T07:50:58Z</time>
      </trkpt>
      <trkpt lat="45.22561" lon="6.96902">
        <ele>2092.93</ele>
        <time>2020-07-29T07:51:03Z</time>
      </trkpt>
      <trkpt lat="45.22577" lon="6.96895">
        <ele>2094.37</ele>
        <time>2020-07-29T07:51:21Z</time>
      </trkpt>
      <trkpt lat="45.22592" lon="6.96887">
        <ele>2096.29</ele>
        <time>2020-07-29T07:51:38Z</time>
      </trkpt>
      <trkpt lat="45.22607" lon="6.96879">
        <ele>2097.73</ele>
        <time>2020-07-29T07:51:56Z</time>
      </trkpt>
      <trkpt lat="45.22611" lon="6.96877">
        <ele>2098.21</ele>
        <time>2020-07-29T07:52:06Z</time>
      </trkpt>
      <trkpt lat="45.22621" lon="6.96872">
        <ele>2100.14</ele>
        <time>2020-07-29T07:52:25Z</time>
      </trkpt>
      <trkpt lat="45.22626" lon="6.96872">
        <ele>2100.62</ele>
        <time>2020-07-29T07:52:43Z</time>
      </trkpt>
      <trkpt lat="45.2263" lon="6.9687">
        <ele>2101.1</ele>
        <time>2020-07-29T07:53:08Z</time>
      </trkpt>
      <trkpt lat="45.22641" lon="6.96864">
        <ele>2102.54</ele>
        <time>2020-07-29T07:53:23Z</time>
      </trkpt>
      <trkpt lat="45.22654" lon="6.96859">
        <ele>2103.98</ele>
        <time>2020-07-29T07:53:43Z</time>
      </trkpt>
      <trkpt lat="45.22666" lon="6.96854">
        <ele>2105.42</ele>
        <time>2020-07-29T07:54:02Z</time>
      </trkpt>
      <trkpt lat="45.22676" lon="6.96848">
        <ele>2107.35</ele>
        <time>2020-07-29T07:54:19Z</time>
      </trkpt>
      <trkpt lat="45.22685" lon="6.96839">
        <ele>2108.31</ele>
        <time>2020-07-29T07:54:35Z</time>
      </trkpt>
      <trkpt lat="45.22695" lon="6.96826">
        <ele>2109.75</ele>
        <time>2020-07-29T07:54:55Z</time>
      </trkpt>
      <trkpt lat="45.22704" lon="6.96814">
        <ele>2111.19</ele>
        <time>2020-07-29T07:55:14Z</time>
      </trkpt>
      <trkpt lat="45.22713" lon="6.96803">
        <ele>2113.12</ele>
        <time>2020-07-29T07:55:33Z</time>
      </trkpt>
      <trkpt lat="45.22724" lon="6.96796">
        <ele>2114.56</ele>
        <time>2020-07-29T07:55:52Z</time>
      </trkpt>
      <trkpt lat="45.22734" lon="6.96789">
        <ele>2116</ele>
        <time>2020-07-29T07:56:11Z</time>
      </trkpt>
      <trkpt lat="45.22742" lon="6.96783">
        <ele>2117.44</ele>
        <time>2020-07-29T07:56:28Z</time>
      </trkpt>
      <trkpt lat="45.2274" lon="6.96774">
        <ele>2117.44</ele>
        <time>2020-07-29T07:56:57Z</time>
      </trkpt>
      <trkpt lat="45.22747" lon="6.96776">
        <ele>2118.4</ele>
        <time>2020-07-29T07:57:29Z</time>
      </trkpt>
      <trkpt lat="45.22759" lon="6.96768">
        <ele>2120.32</ele>
        <time>2020-07-29T07:57:49Z</time>
      </trkpt>
      <trkpt lat="45.22771" lon="6.96761">
        <ele>2121.77</ele>
        <time>2020-07-29T07:58:08Z</time>
      </trkpt>
      <trkpt lat="45.22781" lon="6.96749">
        <ele>2123.21</ele>
        <time>2020-07-29T07:58:27Z</time>
      </trkpt>
      <trkpt lat="45.22793" lon="6.9674">
        <ele>2124.17</ele>
        <time>2020-07-29T07:58:46Z</time>
      </trkpt>
      <trkpt lat="45.22804" lon="6.96732">
        <ele>2125.61</ele>
        <time>2020-07-29T07:59:05Z</time>
      </trkpt>
      <trkpt lat="45.22813" lon="6.96724">
        <ele>2127.53</ele>
        <time>2020-07-29T07:59:24Z</time>
      </trkpt>
      <trkpt lat="45.22823" lon="6.96715">
        <ele>2129.46</ele>
        <time>2020-07-29T07:59:44Z</time>
      </trkpt>
      <trkpt lat="45.22834" lon="6.96708">
        <ele>2130.42</ele>
        <time>2020-07-29T08:00:03Z</time>
      </trkpt>
      <trkpt lat="45.22845" lon="6.967">
        <ele>2131.86</ele>
        <time>2020-07-29T08:00:21Z</time>
      </trkpt>
      <trkpt lat="45.22851" lon="6.96688">
        <ele>2133.3</ele>
        <time>2020-07-29T08:00:38Z</time>
      </trkpt>
      <trkpt lat="45.22855" lon="6.96672">
        <ele>2134.74</ele>
        <time>2020-07-29T08:00:56Z</time>
      </trkpt>
      <trkpt lat="45.22858" lon="6.96657">
        <ele>2135.71</ele>
        <time>2020-07-29T08:01:12Z</time>
      </trkpt>
      <trkpt lat="45.22862" lon="6.96642">
        <ele>2136.67</ele>
        <time>2020-07-29T08:01:29Z</time>
      </trkpt>
      <trkpt lat="45.22869" lon="6.96628">
        <ele>2138.11</ele>
        <time>2020-07-29T08:01:48Z</time>
      </trkpt>
      <trkpt lat="45.22875" lon="6.96613">
        <ele>2140.03</ele>
        <time>2020-07-29T08:02:07Z</time>
      </trkpt>
      <trkpt lat="45.22882" lon="6.966">
        <ele>2141.47</ele>
        <time>2020-07-29T08:02:27Z</time>
      </trkpt>
      <trkpt lat="45.2289" lon="6.96591">
        <ele>2142.92</ele>
        <time>2020-07-29T08:02:45Z</time>
      </trkpt>
      <trkpt lat="45.229" lon="6.96586">
        <ele>2144.36</ele>
        <time>2020-07-29T08:03:02Z</time>
      </trkpt>
      <trkpt lat="45.22909" lon="6.9658">
        <ele>2145.8</ele>
        <time>2020-07-29T08:03:19Z</time>
      </trkpt>
      <trkpt lat="45.22914" lon="6.96563">
        <ele>2147.24</ele>
        <time>2020-07-29T08:03:38Z</time>
      </trkpt>
      <trkpt lat="45.22917" lon="6.96543">
        <ele>2148.68</ele>
        <time>2020-07-29T08:03:59Z</time>
      </trkpt>
      <trkpt lat="45.22918" lon="6.96524">
        <ele>2149.65</ele>
        <time>2020-07-29T08:04:19Z</time>
      </trkpt>
      <trkpt lat="45.2292" lon="6.96506">
        <ele>2151.09</ele>
        <time>2020-07-29T08:04:40Z</time>
      </trkpt>
      <trkpt lat="45.22923" lon="6.96501">
        <ele>2152.05</ele>
        <time>2020-07-29T08:04:55Z</time>
      </trkpt>
      <trkpt lat="45.22927" lon="6.96493">
        <ele>2152.53</ele>
        <time>2020-07-29T08:05:13Z</time>
      </trkpt>
      <trkpt lat="45.22933" lon="6.96474">
        <ele>2153.49</ele>
        <time>2020-07-29T08:05:32Z</time>
      </trkpt>
      <trkpt lat="45.22937" lon="6.96462">
        <ele>2154.45</ele>
        <time>2020-07-29T08:05:49Z</time>
      </trkpt>
      <trkpt lat="45.22936" lon="6.96461">
        <ele>2154.45</ele>
        <time>2020-07-29T08:06:03Z</time>
      </trkpt>
      <trkpt lat="45.22936" lon="6.96459">
        <ele>2154.45</ele>
        <time>2020-07-29T08:06:05Z</time>
      </trkpt>
      <trkpt lat="45.22945" lon="6.96434">
        <ele>2156.37</ele>
        <time>2020-07-29T08:06:22Z</time>
      </trkpt>
      <trkpt lat="45.2295" lon="6.96406">
        <ele>2157.82</ele>
        <time>2020-07-29T08:06:40Z</time>
      </trkpt>
      <trkpt lat="45.2296" lon="6.96382">
        <ele>2160.22</ele>
        <time>2020-07-29T08:07:00Z</time>
      </trkpt>
      <trkpt lat="45.22964" lon="6.96371">
        <ele>2160.7</ele>
        <time>2020-07-29T08:07:08Z</time>
      </trkpt>
      <trkpt lat="45.22967" lon="6.96362">
        <ele>2161.18</ele>
        <time>2020-07-29T08:07:15Z</time>
      </trkpt>
      <trkpt lat="45.22973" lon="6.96353">
        <ele>2162.14</ele>
        <time>2020-07-29T08:07:23Z</time>
      </trkpt>
      <trkpt lat="45.22987" lon="6.96346">
        <ele>2163.58</ele>
        <time>2020-07-29T08:07:38Z</time>
      </trkpt>
      <trkpt lat="45.22999" lon="6.96342">
        <ele>2164.55</ele>
        <time>2020-07-29T08:07:51Z</time>
      </trkpt>
      <trkpt lat="45.23014" lon="6.96335">
        <ele>2165.99</ele>
        <time>2020-07-29T08:08:07Z</time>
      </trkpt>
      <trkpt lat="45.23026" lon="6.96344">
        <ele>2167.43</ele>
        <time>2020-07-29T08:08:20Z</time>
      </trkpt>
      <trkpt lat="45.23028" lon="6.96351">
        <ele>2168.39</ele>
        <time>2020-07-29T08:08:25Z</time>
      </trkpt>
      <trkpt lat="45.23027" lon="6.96364">
        <ele>2168.87</ele>
        <time>2020-07-29T08:08:34Z</time>
      </trkpt>
      <trkpt lat="45.23042" lon="6.96373">
        <ele>2170.31</ele>
        <time>2020-07-29T08:08:50Z</time>
      </trkpt>
      <trkpt lat="45.23054" lon="6.96383">
        <ele>2171.27</ele>
        <time>2020-07-29T08:09:06Z</time>
      </trkpt>
      <trkpt lat="45.23058" lon="6.96382">
        <ele>2171.76</ele>
        <time>2020-07-29T08:09:10Z</time>
      </trkpt>
      <trkpt lat="45.23071" lon="6.96368">
        <ele>2173.2</ele>
        <time>2020-07-29T08:09:27Z</time>
      </trkpt>
      <trkpt lat="45.23083" lon="6.9637">
        <ele>2174.16</ele>
        <time>2020-07-29T08:09:41Z</time>
      </trkpt>
      <trkpt lat="45.231" lon="6.96381">
        <ele>2176.08</ele>
        <time>2020-07-29T08:10:02Z</time>
      </trkpt>
      <trkpt lat="45.23116" lon="6.96385">
        <ele>2177.52</ele>
        <time>2020-07-29T08:10:21Z</time>
      </trkpt>
      <trkpt lat="45.23128" lon="6.96392">
        <ele>2178.48</ele>
        <time>2020-07-29T08:10:36Z</time>
      </trkpt>
      <trkpt lat="45.2314" lon="6.96392">
        <ele>2179.93</ele>
        <time>2020-07-29T08:10:51Z</time>
      </trkpt>
      <trkpt lat="45.23147" lon="6.96387">
        <ele>2180.41</ele>
        <time>2020-07-29T08:10:59Z</time>
      </trkpt>
      <trkpt lat="45.23157" lon="6.96368">
        <ele>2181.37</ele>
        <time>2020-07-29T08:11:15Z</time>
      </trkpt>
      <trkpt lat="45.23159" lon="6.96362">
        <ele>2181.37</ele>
        <time>2020-07-29T08:11:19Z</time>
      </trkpt>
      <trkpt lat="45.2316" lon="6.96354">
        <ele>2181.85</ele>
        <time>2020-07-29T08:11:24Z</time>
      </trkpt>
      <trkpt lat="45.23179" lon="6.96333">
        <ele>2181.37</ele>
        <time>2020-07-29T08:11:41Z</time>
      </trkpt>
      <trkpt lat="45.23199" lon="6.96313">
        <ele>2181.85</ele>
        <time>2020-07-29T08:11:59Z</time>
      </trkpt>
      <trkpt lat="45.23214" lon="6.963">
        <ele>2183.77</ele>
        <time>2020-07-29T08:12:16Z</time>
      </trkpt>
      <trkpt lat="45.23232" lon="6.96303">
        <ele>2184.25</ele>
        <time>2020-07-29T08:12:31Z</time>
      </trkpt>
      <trkpt lat="45.23234" lon="6.96303">
        <ele>2184.25</ele>
        <time>2020-07-29T08:12:32Z</time>
      </trkpt>
      <trkpt lat="45.23245" lon="6.9628">
        <ele>2186.18</ele>
        <time>2020-07-29T08:12:48Z</time>
      </trkpt>
      <trkpt lat="45.23246" lon="6.96278">
        <ele>2186.18</ele>
        <time>2020-07-29T08:12:49Z</time>
      </trkpt>
      <trkpt lat="45.23261" lon="6.96263">
        <ele>2186.18</ele>
        <time>2020-07-29T08:13:02Z</time>
      </trkpt>
      <trkpt lat="45.23273" lon="6.96235">
        <ele>2186.66</ele>
        <time>2020-07-29T08:13:19Z</time>
      </trkpt>
      <trkpt lat="45.23291" lon="6.96209">
        <ele>2187.62</ele>
        <time>2020-07-29T08:13:38Z</time>
      </trkpt>
      <trkpt lat="45.2331" lon="6.96191">
        <ele>2188.1</ele>
        <time>2020-07-29T08:13:54Z</time>
      </trkpt>
      <trkpt lat="45.23321" lon="6.96181">
        <ele>2188.58</ele>
        <time>2020-07-29T08:14:09Z</time>
      </trkpt>
      <trkpt lat="45.23321" lon="6.96181">
        <ele>2188.58</ele>
        <time>2020-07-29T08:14:46Z</time>
      </trkpt>
      <trkpt lat="45.23333" lon="6.96178">
        <ele>2188.58</ele>
        <time>2020-07-29T08:15:02Z</time>
      </trkpt>
      <trkpt lat="45.23358" lon="6.96179">
        <ele>2189.54</ele>
        <time>2020-07-29T08:15:19Z</time>
      </trkpt>
      <trkpt lat="45.23359" lon="6.96178">
        <ele>2189.54</ele>
        <time>2020-07-29T08:15:32Z</time>
      </trkpt>
      <trkpt lat="45.23368" lon="6.96178">
        <ele>2190.02</ele>
        <time>2020-07-29T08:15:55Z</time>
      </trkpt>
      <trkpt lat="45.23374" lon="6.96166">
        <ele>2191.46</ele>
        <time>2020-07-29T08:16:03Z</time>
      </trkpt>
      <trkpt lat="45.23392" lon="6.9616">
        <ele>2193.87</ele>
        <time>2020-07-29T08:16:18Z</time>
      </trkpt>
      <trkpt lat="45.23404" lon="6.96159">
        <ele>2192.9</ele>
        <time>2020-07-29T08:16:27Z</time>
      </trkpt>
      <trkpt lat="45.23411" lon="6.96139">
        <ele>2193.39</ele>
        <time>2020-07-29T08:16:38Z</time>
      </trkpt>
      <trkpt lat="45.23427" lon="6.96114">
        <ele>2194.35</ele>
        <time>2020-07-29T08:16:57Z</time>
      </trkpt>
      <trkpt lat="45.23436" lon="6.96107">
        <ele>2194.35</ele>
        <time>2020-07-29T08:17:05Z</time>
      </trkpt>
      <trkpt lat="45.23444" lon="6.96104">
        <ele>2194.83</ele>
        <time>2020-07-29T08:17:11Z</time>
      </trkpt>
      <trkpt lat="45.23461" lon="6.96088">
        <ele>2194.83</ele>
        <time>2020-07-29T08:17:26Z</time>
      </trkpt>
      <trkpt lat="45.23479" lon="6.96062">
        <ele>2195.79</ele>
        <time>2020-07-29T08:17:45Z</time>
      </trkpt>
      <trkpt lat="45.235" lon="6.96036">
        <ele>2196.27</ele>
        <time>2020-07-29T08:18:06Z</time>
      </trkpt>
      <trkpt lat="45.23526" lon="6.96014">
        <ele>2197.23</ele>
        <time>2020-07-29T08:18:28Z</time>
      </trkpt>
      <trkpt lat="45.23548" lon="6.96002">
        <ele>2198.67</ele>
        <time>2020-07-29T08:18:46Z</time>
      </trkpt>
      <trkpt lat="45.2357" lon="6.95995">
        <ele>2199.63</ele>
        <time>2020-07-29T08:19:04Z</time>
      </trkpt>
      <trkpt lat="45.23592" lon="6.95979">
        <ele>2200.59</ele>
        <time>2020-07-29T08:19:24Z</time>
      </trkpt>
      <trkpt lat="45.23612" lon="6.95977">
        <ele>2201.56</ele>
        <time>2020-07-29T08:19:41Z</time>
      </trkpt>
      <trkpt lat="45.23631" lon="6.95975">
        <ele>2203</ele>
        <time>2020-07-29T08:20:01Z</time>
      </trkpt>
      <trkpt lat="45.2363" lon="6.95972">
        <ele>2203</ele>
        <time>2020-07-29T08:20:23Z</time>
      </trkpt>
      <trkpt lat="45.23631" lon="6.95971">
        <ele>2203</ele>
        <time>2020-07-29T08:20:30Z</time>
      </trkpt>
      <trkpt lat="45.23639" lon="6.95973">
        <ele>2203.48</ele>
        <time>2020-07-29T08:20:37Z</time>
      </trkpt>
      <trkpt lat="45.2366" lon="6.95975">
        <ele>2204.44</ele>
        <time>2020-07-29T08:20:55Z</time>
      </trkpt>
      <trkpt lat="45.23681" lon="6.95971">
        <ele>2205.88</ele>
        <time>2020-07-29T08:21:13Z</time>
      </trkpt>
      <trkpt lat="45.23696" lon="6.95962">
        <ele>2206.84</ele>
        <time>2020-07-29T08:21:27Z</time>
      </trkpt>
      <trkpt lat="45.23708" lon="6.95946">
        <ele>2208.29</ele>
        <time>2020-07-29T08:21:43Z</time>
      </trkpt>
      <trkpt lat="45.23728" lon="6.95943">
        <ele>2209.25</ele>
        <time>2020-07-29T08:22:02Z</time>
      </trkpt>
      <trkpt lat="45.23743" lon="6.95935">
        <ele>2210.21</ele>
        <time>2020-07-29T08:22:17Z</time>
      </trkpt>
      <trkpt lat="45.23758" lon="6.95931">
        <ele>2211.17</ele>
        <time>2020-07-29T08:22:33Z</time>
      </trkpt>
      <trkpt lat="45.23773" lon="6.9593">
        <ele>2212.13</ele>
        <time>2020-07-29T08:22:48Z</time>
      </trkpt>
      <trkpt lat="45.23788" lon="6.9593">
        <ele>2213.09</ele>
        <time>2020-07-29T08:23:05Z</time>
      </trkpt>
      <trkpt lat="45.23792" lon="6.95929">
        <ele>2213.57</ele>
        <time>2020-07-29T08:23:09Z</time>
      </trkpt>
      <trkpt lat="45.23809" lon="6.95917">
        <ele>2214.53</ele>
        <time>2020-07-29T08:23:27Z</time>
      </trkpt>
      <trkpt lat="45.23827" lon="6.95908">
        <ele>2215.98</ele>
        <time>2020-07-29T08:23:46Z</time>
      </trkpt>
      <trkpt lat="45.23845" lon="6.95904">
        <ele>2217.42</ele>
        <time>2020-07-29T08:24:05Z</time>
      </trkpt>
      <trkpt lat="45.23856" lon="6.95903">
        <ele>2217.9</ele>
        <time>2020-07-29T08:24:17Z</time>
      </trkpt>
      <trkpt lat="45.23873" lon="6.95893">
        <ele>2219.34</ele>
        <time>2020-07-29T08:24:35Z</time>
      </trkpt>
      <trkpt lat="45.23889" lon="6.95888">
        <ele>2220.78</ele>
        <time>2020-07-29T08:24:51Z</time>
      </trkpt>
      <trkpt lat="45.23911" lon="6.95882">
        <ele>2221.74</ele>
        <time>2020-07-29T08:25:13Z</time>
      </trkpt>
      <trkpt lat="45.23925" lon="6.95862">
        <ele>2223.19</ele>
        <time>2020-07-29T08:25:31Z</time>
      </trkpt>
      <trkpt lat="45.2393" lon="6.95859">
        <ele>2223.19</ele>
        <time>2020-07-29T08:25:36Z</time>
      </trkpt>
      <trkpt lat="45.23953" lon="6.9586">
        <ele>2224.63</ele>
        <time>2020-07-29T08:25:56Z</time>
      </trkpt>
      <trkpt lat="45.23977" lon="6.95846">
        <ele>2226.07</ele>
        <time>2020-07-29T08:26:16Z</time>
      </trkpt>
      <trkpt lat="45.23995" lon="6.95839">
        <ele>2227.03</ele>
        <time>2020-07-29T08:26:32Z</time>
      </trkpt>
      <trkpt lat="45.24002" lon="6.95835">
        <ele>2227.03</ele>
        <time>2020-07-29T08:26:39Z</time>
      </trkpt>
      <trkpt lat="45.24021" lon="6.95836">
        <ele>2227.99</ele>
        <time>2020-07-29T08:26:56Z</time>
      </trkpt>
      <trkpt lat="45.24038" lon="6.95829">
        <ele>2229.43</ele>
        <time>2020-07-29T08:27:14Z</time>
      </trkpt>
      <trkpt lat="45.24049" lon="6.9583">
        <ele>2229.92</ele>
        <time>2020-07-29T08:27:23Z</time>
      </trkpt>
      <trkpt lat="45.24064" lon="6.95804">
        <ele>2231.84</ele>
        <time>2020-07-29T08:27:44Z</time>
      </trkpt>
      <trkpt lat="45.24082" lon="6.95778">
        <ele>2233.28</ele>
        <time>2020-07-29T08:28:06Z</time>
      </trkpt>
      <trkpt lat="45.241" lon="6.95767">
        <ele>2234.24</ele>
        <time>2020-07-29T08:28:23Z</time>
      </trkpt>
      <trkpt lat="45.24119" lon="6.95766">
        <ele>2236.64</ele>
        <time>2020-07-29T08:28:42Z</time>
      </trkpt>
      <trkpt lat="45.24133" lon="6.95767">
        <ele>2238.09</ele>
        <time>2020-07-29T08:28:56Z</time>
      </trkpt>
      <trkpt lat="45.24135" lon="6.95766">
        <ele>2238.57</ele>
        <time>2020-07-29T08:29:08Z</time>
      </trkpt>
      <trkpt lat="45.24137" lon="6.9576">
        <ele>2238.57</ele>
        <time>2020-07-29T08:29:37Z</time>
      </trkpt>
      <trkpt lat="45.24144" lon="6.95759">
        <ele>2239.53</ele>
        <time>2020-07-29T08:29:52Z</time>
      </trkpt>
      <trkpt lat="45.24149" lon="6.95741">
        <ele>2240.97</ele>
        <time>2020-07-29T08:30:11Z</time>
      </trkpt>
      <trkpt lat="45.24152" lon="6.95728">
        <ele>2242.41</ele>
        <time>2020-07-29T08:30:29Z</time>
      </trkpt>
      <trkpt lat="45.24158" lon="6.95713">
        <ele>2244.33</ele>
        <time>2020-07-29T08:30:49Z</time>
      </trkpt>
      <trkpt lat="45.24164" lon="6.95701">
        <ele>2245.3</ele>
        <time>2020-07-29T08:31:06Z</time>
      </trkpt>
      <trkpt lat="45.24171" lon="6.9569">
        <ele>2247.22</ele>
        <time>2020-07-29T08:31:25Z</time>
      </trkpt>
      <trkpt lat="45.2418" lon="6.95688">
        <ele>2248.66</ele>
        <time>2020-07-29T08:31:41Z</time>
      </trkpt>
      <trkpt lat="45.24188" lon="6.95684">
        <ele>2250.1</ele>
        <time>2020-07-29T08:31:57Z</time>
      </trkpt>
      <trkpt lat="45.24197" lon="6.95686">
        <ele>2251.06</ele>
        <time>2020-07-29T08:32:11Z</time>
      </trkpt>
      <trkpt lat="45.24204" lon="6.95691">
        <ele>2252.03</ele>
        <time>2020-07-29T08:32:27Z</time>
      </trkpt>
      <trkpt lat="45.2421" lon="6.95694">
        <ele>2253.95</ele>
        <time>2020-07-29T08:32:43Z</time>
      </trkpt>
      <trkpt lat="45.2422" lon="6.95698">
        <ele>2255.39</ele>
        <time>2020-07-29T08:33:00Z</time>
      </trkpt>
      <trkpt lat="45.2423" lon="6.95704">
        <ele>2256.83</ele>
        <time>2020-07-29T08:33:17Z</time>
      </trkpt>
      <trkpt lat="45.2424" lon="6.95704">
        <ele>2258.27</ele>
        <time>2020-07-29T08:33:35Z</time>
      </trkpt>
      <trkpt lat="45.24248" lon="6.95705">
        <ele>2259.72</ele>
        <time>2020-07-29T08:33:53Z</time>
      </trkpt>
      <trkpt lat="45.24256" lon="6.95705">
        <ele>2261.16</ele>
        <time>2020-07-29T08:34:09Z</time>
      </trkpt>
      <trkpt lat="45.24265" lon="6.95709">
        <ele>2262.12</ele>
        <time>2020-07-29T08:34:25Z</time>
      </trkpt>
      <trkpt lat="45.24276" lon="6.95715">
        <ele>2264.04</ele>
        <time>2020-07-29T08:34:44Z</time>
      </trkpt>
      <trkpt lat="45.24285" lon="6.95713">
        <ele>2265</ele>
        <time>2020-07-29T08:35:01Z</time>
      </trkpt>
      <trkpt lat="45.24288" lon="6.95714">
        <ele>2265.48</ele>
        <time>2020-07-29T08:35:23Z</time>
      </trkpt>
      <trkpt lat="45.24298" lon="6.95711">
        <ele>2267.41</ele>
        <time>2020-07-29T08:35:41Z</time>
      </trkpt>
      <trkpt lat="45.24303" lon="6.95708">
        <ele>2267.89</ele>
        <time>2020-07-29T08:35:55Z</time>
      </trkpt>
      <trkpt lat="45.24304" lon="6.95706">
        <ele>2268.37</ele>
        <time>2020-07-29T08:36:15Z</time>
      </trkpt>
      <trkpt lat="45.24322" lon="6.95691">
        <ele>2271.73</ele>
        <time>2020-07-29T08:36:30Z</time>
      </trkpt>
      <trkpt lat="45.24338" lon="6.95676">
        <ele>2272.21</ele>
        <time>2020-07-29T08:36:46Z</time>
      </trkpt>
      <trkpt lat="45.24341" lon="6.95675">
        <ele>2272.21</ele>
        <time>2020-07-29T08:36:49Z</time>
      </trkpt>
      <trkpt lat="45.24344" lon="6.95689">
        <ele>2273.66</ele>
        <time>2020-07-29T08:37:01Z</time>
      </trkpt>
      <trkpt lat="45.24337" lon="6.95694">
        <ele>2274.62</ele>
        <time>2020-07-29T08:37:15Z</time>
      </trkpt>
      <trkpt lat="45.24328" lon="6.95698">
        <ele>2275.1</ele>
        <time>2020-07-29T08:37:31Z</time>
      </trkpt>
      <trkpt lat="45.2432" lon="6.95708">
        <ele>2276.06</ele>
        <time>2020-07-29T08:37:50Z</time>
      </trkpt>
      <trkpt lat="45.24314" lon="6.95715">
        <ele>2276.54</ele>
        <time>2020-07-29T08:38:07Z</time>
      </trkpt>
      <trkpt lat="45.243" lon="6.95725">
        <ele>2277.5</ele>
        <time>2020-07-29T08:38:27Z</time>
      </trkpt>
      <trkpt lat="45.24299" lon="6.95739">
        <ele>2278.94</ele>
        <time>2020-07-29T08:38:43Z</time>
      </trkpt>
      <trkpt lat="45.2431" lon="6.95739">
        <ele>2279.9</ele>
        <time>2020-07-29T08:39:00Z</time>
      </trkpt>
      <trkpt lat="45.24319" lon="6.95727">
        <ele>2280.87</ele>
        <time>2020-07-29T08:39:16Z</time>
      </trkpt>
      <trkpt lat="45.24327" lon="6.95713">
        <ele>2282.31</ele>
        <time>2020-07-29T08:39:35Z</time>
      </trkpt>
      <trkpt lat="45.24338" lon="6.95708">
        <ele>2283.75</ele>
        <time>2020-07-29T08:39:52Z</time>
      </trkpt>
      <trkpt lat="45.24348" lon="6.95709">
        <ele>2284.71</ele>
        <time>2020-07-29T08:40:09Z</time>
      </trkpt>
      <trkpt lat="45.24358" lon="6.95708">
        <ele>2286.15</ele>
        <time>2020-07-29T08:40:26Z</time>
      </trkpt>
      <trkpt lat="45.2437" lon="6.95711">
        <ele>2287.11</ele>
        <time>2020-07-29T08:40:44Z</time>
      </trkpt>
      <trkpt lat="45.24379" lon="6.95717">
        <ele>2288.08</ele>
        <time>2020-07-29T08:41:01Z</time>
      </trkpt>
      <trkpt lat="45.24391" lon="6.95721">
        <ele>2289.52</ele>
        <time>2020-07-29T08:41:19Z</time>
      </trkpt>
      <trkpt lat="45.24398" lon="6.95724">
        <ele>2290</ele>
        <time>2020-07-29T08:41:33Z</time>
      </trkpt>
      <trkpt lat="45.24398" lon="6.95724">
        <ele>2290</ele>
        <time>2020-07-29T08:42:10Z</time>
      </trkpt>
      <trkpt lat="45.24402" lon="6.95725">
        <ele>2290</ele>
        <time>2020-07-29T08:42:21Z</time>
      </trkpt>
      <trkpt lat="45.24402" lon="6.95706">
        <ele>2291.44</ele>
        <time>2020-07-29T08:42:32Z</time>
      </trkpt>
      <trkpt lat="45.24403" lon="6.95691">
        <ele>2292.4</ele>
        <time>2020-07-29T08:42:47Z</time>
      </trkpt>
      <trkpt lat="45.24404" lon="6.95686">
        <ele>2292.4</ele>
        <time>2020-07-29T08:43:03Z</time>
      </trkpt>
      <trkpt lat="45.24404" lon="6.95685">
        <ele>2292.4</ele>
        <time>2020-07-29T08:43:08Z</time>
      </trkpt>
      <trkpt lat="45.24401" lon="6.95676">
        <ele>2292.4</ele>
        <time>2020-07-29T08:43:22Z</time>
      </trkpt>
      <trkpt lat="45.24401" lon="6.95675">
        <ele>2292.4</ele>
        <time>2020-07-29T08:43:50Z</time>
      </trkpt>
      <trkpt lat="45.24401" lon="6.95675">
        <ele>2292.4</ele>
        <time>2020-07-29T08:44:33Z</time>
      </trkpt>
      <trkpt lat="45.24401" lon="6.95675">
        <ele>2292.88</ele>
        <time>2020-07-29T08:45:27Z</time>
      </trkpt>
      <trkpt lat="45.24401" lon="6.95675">
        <ele>2292.88</ele>
        <time>2020-07-29T08:46:11Z</time>
      </trkpt>
      <trkpt lat="45.24401" lon="6.95675">
        <ele>2293.36</ele>
        <time>2020-07-29T08:46:49Z</time>
      </trkpt>
      <trkpt lat="45.24401" lon="6.95675">
        <ele>2292.88</ele>
        <time>2020-07-29T08:47:21Z</time>
      </trkpt>
      <trkpt lat="45.24403" lon="6.95674">
        <ele>2292.88</ele>
        <time>2020-07-29T08:48:00Z</time>
      </trkpt>
      <trkpt lat="45.24401" lon="6.95676">
        <ele>2293.36</ele>
        <time>2020-07-29T08:48:39Z</time>
      </trkpt>
      <trkpt lat="45.24401" lon="6.95675">
        <ele>2292.88</ele>
        <time>2020-07-29T08:49:03Z</time>
      </trkpt>
      <trkpt lat="45.24401" lon="6.95676">
        <ele>2292.88</ele>
        <time>2020-07-29T08:49:39Z</time>
      </trkpt>
      <trkpt lat="45.244" lon="6.95675">
        <ele>2292.88</ele>
        <time>2020-07-29T08:50:17Z</time>
      </trkpt>
      <trkpt lat="45.24399" lon="6.95662">
        <ele>2292.88</ele>
        <time>2020-07-29T08:50:32Z</time>
      </trkpt>
      <trkpt lat="45.24399" lon="6.95644">
        <ele>2292.88</ele>
        <time>2020-07-29T08:50:48Z</time>
      </trkpt>
      <trkpt lat="45.244" lon="6.95642">
        <ele>2292.88</ele>
        <time>2020-07-29T08:51:02Z</time>
      </trkpt>
      <trkpt lat="45.24399" lon="6.95642">
        <ele>2292.88</ele>
        <time>2020-07-29T08:51:29Z</time>
      </trkpt>
      <trkpt lat="45.24399" lon="6.95644">
        <ele>2293.36</ele>
        <time>2020-07-29T08:51:53Z</time>
      </trkpt>
      <trkpt lat="45.24399" lon="6.95644">
        <ele>2293.36</ele>
        <time>2020-07-29T08:52:15Z</time>
      </trkpt>
      <trkpt lat="45.24398" lon="6.95643">
        <ele>2293.36</ele>
        <time>2020-07-29T08:52:46Z</time>
      </trkpt>
      <trkpt lat="45.24399" lon="6.95641">
        <ele>2293.36</ele>
        <time>2020-07-29T08:53:10Z</time>
      </trkpt>
      <trkpt lat="45.24398" lon="6.95642">
        <ele>2293.36</ele>
        <time>2020-07-29T08:53:36Z</time>
      </trkpt>
      <trkpt lat="45.24399" lon="6.95643">
        <ele>2293.36</ele>
        <time>2020-07-29T08:53:52Z</time>
      </trkpt>
      <trkpt lat="45.24399" lon="6.95642">
        <ele>2293.36</ele>
        <time>2020-07-29T08:54:26Z</time>
      </trkpt>
      <trkpt lat="45.244" lon="6.95638">
        <ele>2293.36</ele>
        <time>2020-07-29T08:54:56Z</time>
      </trkpt>
      <trkpt lat="45.244" lon="6.95641">
        <ele>2293.36</ele>
        <time>2020-07-29T08:55:23Z</time>
      </trkpt>
      <trkpt lat="45.244" lon="6.95642">
        <ele>2293.36</ele>
        <time>2020-07-29T08:55:55Z</time>
      </trkpt>
      <trkpt lat="45.244" lon="6.95641">
        <ele>2293.36</ele>
        <time>2020-07-29T08:56:30Z</time>
      </trkpt>
      <trkpt lat="45.24399" lon="6.95643">
        <ele>2293.84</ele>
        <time>2020-07-29T08:57:07Z</time>
      </trkpt>
      <trkpt lat="45.244" lon="6.95643">
        <ele>2293.84</ele>
        <time>2020-07-29T08:57:51Z</time>
      </trkpt>
      <trkpt lat="45.244" lon="6.95641">
        <ele>2294.32</ele>
        <time>2020-07-29T08:58:22Z</time>
      </trkpt>
      <trkpt lat="45.244" lon="6.95642">
        <ele>2294.32</ele>
        <time>2020-07-29T08:58:56Z</time>
      </trkpt>
      <trkpt lat="45.24401" lon="6.9564">
        <ele>2294.32</ele>
        <time>2020-07-29T08:59:25Z</time>
      </trkpt>
      <trkpt lat="45.24402" lon="6.95638">
        <ele>2294.8</ele>
        <time>2020-07-29T08:59:58Z</time>
      </trkpt>
      <trkpt lat="45.244" lon="6.95644">
        <ele>2295.28</ele>
        <time>2020-07-29T09:00:25Z</time>
      </trkpt>
      <trkpt lat="45.24389" lon="6.95652">
        <ele>2295.77</ele>
        <time>2020-07-29T09:00:40Z</time>
      </trkpt>
      <trkpt lat="45.24387" lon="6.95643">
        <ele>2295.77</ele>
        <time>2020-07-29T09:00:52Z</time>
      </trkpt>
      <trkpt lat="45.24387" lon="6.95643">
        <ele>2295.77</ele>
        <time>2020-07-29T09:01:11Z</time>
      </trkpt>
      <trkpt lat="45.24388" lon="6.95644">
        <ele>2295.28</ele>
        <time>2020-07-29T09:01:37Z</time>
      </trkpt>
      <trkpt lat="45.24387" lon="6.95643">
        <ele>2295.28</ele>
        <time>2020-07-29T09:02:04Z</time>
      </trkpt>
      <trkpt lat="45.24388" lon="6.95643">
        <ele>2295.77</ele>
        <time>2020-07-29T09:02:33Z</time>
      </trkpt>
      <trkpt lat="45.24388" lon="6.95644">
        <ele>2295.77</ele>
        <time>2020-07-29T09:03:15Z</time>
      </trkpt>
      <trkpt lat="45.24388" lon="6.95643">
        <ele>2295.77</ele>
        <time>2020-07-29T09:03:38Z</time>
      </trkpt>
      <trkpt lat="45.24387" lon="6.95643">
        <ele>2295.77</ele>
        <time>2020-07-29T09:04:11Z</time>
      </trkpt>
      <trkpt lat="45.24387" lon="6.95642">
        <ele>2295.77</ele>
        <time>2020-07-29T09:04:48Z</time>
      </trkpt>
      <trkpt lat="45.24386" lon="6.95642">
        <ele>2295.77</ele>
        <time>2020-07-29T09:05:16Z</time>
      </trkpt>
      <trkpt lat="45.24386" lon="6.95642">
        <ele>2295.77</ele>
        <time>2020-07-29T09:05:52Z</time>
      </trkpt>
      <trkpt lat="45.24387" lon="6.95643">
        <ele>2295.77</ele>
        <time>2020-07-29T09:06:31Z</time>
      </trkpt>
      <trkpt lat="45.24388" lon="6.95643">
        <ele>2295.77</ele>
        <time>2020-07-29T09:07:14Z</time>
      </trkpt>
      <trkpt lat="45.24389" lon="6.95643">
        <ele>2295.77</ele>
        <time>2020-07-29T09:07:58Z</time>
      </trkpt>
      <trkpt lat="45.24389" lon="6.95643">
        <ele>2296.25</ele>
        <time>2020-07-29T09:08:34Z</time>
      </trkpt>
      <trkpt lat="45.24388" lon="6.95643">
        <ele>2295.77</ele>
        <time>2020-07-29T09:09:01Z</time>
      </trkpt>
      <trkpt lat="45.24389" lon="6.95644">
        <ele>2295.77</ele>
        <time>2020-07-29T09:09:37Z</time>
      </trkpt>
      <trkpt lat="45.24388" lon="6.95643">
        <ele>2296.25</ele>
        <time>2020-07-29T09:10:10Z</time>
      </trkpt>
      <trkpt lat="45.24389" lon="6.95643">
        <ele>2296.25</ele>
        <time>2020-07-29T09:10:45Z</time>
      </trkpt>
      <trkpt lat="45.24389" lon="6.95644">
        <ele>2296.25</ele>
        <time>2020-07-29T09:11:20Z</time>
      </trkpt>
      <trkpt lat="45.24389" lon="6.95645">
        <ele>2296.25</ele>
        <time>2020-07-29T09:11:48Z</time>
      </trkpt>
      <trkpt lat="45.24388" lon="6.95644">
        <ele>2296.25</ele>
        <time>2020-07-29T09:12:23Z</time>
      </trkpt>
      <trkpt lat="45.24389" lon="6.95645">
        <ele>2296.25</ele>
        <time>2020-07-29T09:12:48Z</time>
      </trkpt>
      <trkpt lat="45.24389" lon="6.95644">
        <ele>2296.25</ele>
        <time>2020-07-29T09:13:15Z</time>
      </trkpt>
      <trkpt lat="45.24388" lon="6.95645">
        <ele>2296.25</ele>
        <time>2020-07-29T09:13:40Z</time>
      </trkpt>
      <trkpt lat="45.24389" lon="6.95645">
        <ele>2296.25</ele>
        <time>2020-07-29T09:14:02Z</time>
      </trkpt>
      <trkpt lat="45.24388" lon="6.95643">
        <ele>2296.73</ele>
        <time>2020-07-29T09:14:34Z</time>
      </trkpt>
      <trkpt lat="45.24388" lon="6.95643">
        <ele>2296.25</ele>
        <time>2020-07-29T09:15:13Z</time>
      </trkpt>
      <trkpt lat="45.24389" lon="6.95644">
        <ele>2296.73</ele>
        <time>2020-07-29T09:15:46Z</time>
      </trkpt>
      <trkpt lat="45.24389" lon="6.95645">
        <ele>2296.73</ele>
        <time>2020-07-29T09:16:26Z</time>
      </trkpt>
      <trkpt lat="45.24389" lon="6.95644">
        <ele>2296.73</ele>
        <time>2020-07-29T09:17:12Z</time>
      </trkpt>
      <trkpt lat="45.24389" lon="6.95644">
        <ele>2296.73</ele>
        <time>2020-07-29T09:17:57Z</time>
      </trkpt>
      <trkpt lat="45.24389" lon="6.95644">
        <ele>2297.21</ele>
        <time>2020-07-29T09:18:25Z</time>
      </trkpt>
      <trkpt lat="45.24389" lon="6.95646">
        <ele>2297.69</ele>
        <time>2020-07-29T09:18:54Z</time>
      </trkpt>
      <trkpt lat="45.24389" lon="6.95644">
        <ele>2297.69</ele>
        <time>2020-07-29T09:19:29Z</time>
      </trkpt>
      <trkpt lat="45.24389" lon="6.95646">
        <ele>2297.21</ele>
        <time>2020-07-29T09:19:55Z</time>
      </trkpt>
      <trkpt lat="45.24388" lon="6.95645">
        <ele>2297.69</ele>
        <time>2020-07-29T09:20:20Z</time>
      </trkpt>
      <trkpt lat="45.24389" lon="6.95645">
        <ele>2297.69</ele>
        <time>2020-07-29T09:20:53Z</time>
      </trkpt>
      <trkpt lat="45.24389" lon="6.95646">
        <ele>2297.69</ele>
        <time>2020-07-29T09:21:31Z</time>
      </trkpt>
      <trkpt lat="45.24388" lon="6.95646">
        <ele>2297.69</ele>
        <time>2020-07-29T09:22:06Z</time>
      </trkpt>
      <trkpt lat="45.24389" lon="6.95645">
        <ele>2298.17</ele>
        <time>2020-07-29T09:22:40Z</time>
      </trkpt>
      <trkpt lat="45.24389" lon="6.95646">
        <ele>2298.17</ele>
        <time>2020-07-29T09:23:14Z</time>
      </trkpt>
      <trkpt lat="45.2439" lon="6.95645">
        <ele>2298.17</ele>
        <time>2020-07-29T09:23:48Z</time>
      </trkpt>
      <trkpt lat="45.24389" lon="6.95645">
        <ele>2298.17</ele>
        <time>2020-07-29T09:24:25Z</time>
      </trkpt>
      <trkpt lat="45.24389" lon="6.95645">
        <ele>2298.17</ele>
        <time>2020-07-29T09:24:56Z</time>
      </trkpt>
      <trkpt lat="45.24388" lon="6.95646">
        <ele>2298.17</ele>
        <time>2020-07-29T09:25:34Z</time>
      </trkpt>
      <trkpt lat="45.24388" lon="6.95645">
        <ele>2298.17</ele>
        <time>2020-07-29T09:26:16Z</time>
      </trkpt>
      <trkpt lat="45.24389" lon="6.95647">
        <ele>2298.17</ele>
        <time>2020-07-29T09:26:50Z</time>
      </trkpt>
      <trkpt lat="45.24388" lon="6.95646">
        <ele>2298.17</ele>
        <time>2020-07-29T09:27:17Z</time>
      </trkpt>
      <trkpt lat="45.24389" lon="6.95647">
        <ele>2298.17</ele>
        <time>2020-07-29T09:27:51Z</time>
      </trkpt>
      <trkpt lat="45.24388" lon="6.95646">
        <ele>2298.65</ele>
        <time>2020-07-29T09:28:24Z</time>
      </trkpt>
      <trkpt lat="45.24389" lon="6.95646">
        <ele>2298.65</ele>
        <time>2020-07-29T09:28:55Z</time>
      </trkpt>
      <trkpt lat="45.24389" lon="6.95645">
        <ele>2298.65</ele>
        <time>2020-07-29T09:29:20Z</time>
      </trkpt>
      <trkpt lat="45.24389" lon="6.95644">
        <ele>2299.13</ele>
        <time>2020-07-29T09:29:50Z</time>
      </trkpt>
      <trkpt lat="45.24389" lon="6.95646">
        <ele>2299.13</ele>
        <time>2020-07-29T09:30:22Z</time>
      </trkpt>
      <trkpt lat="45.24388" lon="6.95646">
        <ele>2299.13</ele>
        <time>2020-07-29T09:30:48Z</time>
      </trkpt>
      <trkpt lat="45.2439" lon="6.95646">
        <ele>2298.65</ele>
        <time>2020-07-29T09:31:13Z</time>
      </trkpt>
      <trkpt lat="45.24389" lon="6.95647">
        <ele>2298.65</ele>
        <time>2020-07-29T09:31:32Z</time>
      </trkpt>
      <trkpt lat="45.2439" lon="6.95647">
        <ele>2299.13</ele>
        <time>2020-07-29T09:31:53Z</time>
      </trkpt>
      <trkpt lat="45.2439" lon="6.95645">
        <ele>2299.13</ele>
        <time>2020-07-29T09:32:17Z</time>
      </trkpt>
      <trkpt lat="45.24388" lon="6.95648">
        <ele>2299.13</ele>
        <time>2020-07-29T09:32:52Z</time>
      </trkpt>
      <trkpt lat="45.24387" lon="6.95647">
        <ele>2299.13</ele>
        <time>2020-07-29T09:33:18Z</time>
      </trkpt>
      <trkpt lat="45.24387" lon="6.95655">
        <ele>2299.13</ele>
        <time>2020-07-29T09:33:29Z</time>
      </trkpt>
      <trkpt lat="45.24388" lon="6.95655">
        <ele>2298.65</ele>
        <time>2020-07-29T09:33:42Z</time>
      </trkpt>
      <trkpt lat="45.24402" lon="6.95671">
        <ele>2298.65</ele>
        <time>2020-07-29T09:33:55Z</time>
      </trkpt>
      <trkpt lat="45.24411" lon="6.95681">
        <ele>2298.65</ele>
        <time>2020-07-29T09:34:02Z</time>
      </trkpt>
      <trkpt lat="45.24437" lon="6.9567">
        <ele>2297.69</ele>
        <time>2020-07-29T09:34:13Z</time>
      </trkpt>
      <trkpt lat="45.24469" lon="6.95644">
        <ele>2297.69</ele>
        <time>2020-07-29T09:34:28Z</time>
      </trkpt>
      <trkpt lat="45.24496" lon="6.9561">
        <ele>2297.21</ele>
        <time>2020-07-29T09:34:44Z</time>
      </trkpt>
      <trkpt lat="45.24508" lon="6.95596">
        <ele>2296.25</ele>
        <time>2020-07-29T09:34:49Z</time>
      </trkpt>
      <trkpt lat="45.24546" lon="6.95607">
        <ele>2295.77</ele>
        <time>2020-07-29T09:35:02Z</time>
      </trkpt>
      <trkpt lat="45.24579" lon="6.95611">
        <ele>2295.77</ele>
        <time>2020-07-29T09:35:16Z</time>
      </trkpt>
      <trkpt lat="45.24615" lon="6.95598">
        <ele>2296.73</ele>
        <time>2020-07-29T09:35:32Z</time>
      </trkpt>
      <trkpt lat="45.24648" lon="6.95583">
        <ele>2296.73</ele>
        <time>2020-07-29T09:35:49Z</time>
      </trkpt>
      <trkpt lat="45.24652" lon="6.9558">
        <ele>2296.73</ele>
        <time>2020-07-29T09:36:10Z</time>
      </trkpt>
      <trkpt lat="45.24686" lon="6.95567">
        <ele>2297.21</ele>
        <time>2020-07-29T09:36:25Z</time>
      </trkpt>
      <trkpt lat="45.24713" lon="6.9554">
        <ele>2297.21</ele>
        <time>2020-07-29T09:36:38Z</time>
      </trkpt>
      <trkpt lat="45.24732" lon="6.95524">
        <ele>2297.69</ele>
        <time>2020-07-29T09:36:49Z</time>
      </trkpt>
      <trkpt lat="45.24766" lon="6.95546">
        <ele>2297.69</ele>
        <time>2020-07-29T09:37:04Z</time>
      </trkpt>
      <trkpt lat="45.24797" lon="6.95573">
        <ele>2297.69</ele>
        <time>2020-07-29T09:37:18Z</time>
      </trkpt>
      <trkpt lat="45.24816" lon="6.95595">
        <ele>2298.17</ele>
        <time>2020-07-29T09:37:31Z</time>
      </trkpt>
      <trkpt lat="45.24816" lon="6.95594">
        <ele>2298.17</ele>
        <time>2020-07-29T09:37:56Z</time>
      </trkpt>
      <trkpt lat="45.24818" lon="6.95599">
        <ele>2297.69</ele>
        <time>2020-07-29T09:37:59Z</time>
      </trkpt>
      <trkpt lat="45.24844" lon="6.95646">
        <ele>2298.65</ele>
        <time>2020-07-29T09:38:16Z</time>
      </trkpt>
      <trkpt lat="45.24869" lon="6.9567">
        <ele>2300.09</ele>
        <time>2020-07-29T09:38:32Z</time>
      </trkpt>
      <trkpt lat="45.24883" lon="6.95693">
        <ele>2301.05</ele>
        <time>2020-07-29T09:38:49Z</time>
      </trkpt>
      <trkpt lat="45.24892" lon="6.95711">
        <ele>2302.49</ele>
        <time>2020-07-29T09:39:04Z</time>
      </trkpt>
      <trkpt lat="45.24895" lon="6.95716">
        <ele>2303.46</ele>
        <time>2020-07-29T09:39:08Z</time>
      </trkpt>
      <trkpt lat="45.24896" lon="6.95719">
        <ele>2303.94</ele>
        <time>2020-07-29T09:39:10Z</time>
      </trkpt>
      <trkpt lat="45.24914" lon="6.95731">
        <ele>2304.42</ele>
        <time>2020-07-29T09:39:27Z</time>
      </trkpt>
      <trkpt lat="45.2492" lon="6.95733">
        <ele>2304.9</ele>
        <time>2020-07-29T09:39:37Z</time>
      </trkpt>
      <trkpt lat="45.24923" lon="6.95734">
        <ele>2304.9</ele>
        <time>2020-07-29T09:39:42Z</time>
      </trkpt>
      <trkpt lat="45.2493" lon="6.95732">
        <ele>2304.9</ele>
        <time>2020-07-29T09:39:58Z</time>
      </trkpt>
      <trkpt lat="45.2493" lon="6.95731">
        <ele>2305.38</ele>
        <time>2020-07-29T09:40:00Z</time>
      </trkpt>
      <trkpt lat="45.24936" lon="6.9569">
        <ele>2302.01</ele>
        <time>2020-07-29T09:40:11Z</time>
      </trkpt>
      <trkpt lat="45.24929" lon="6.95653">
        <ele>2301.05</ele>
        <time>2020-07-29T09:40:21Z</time>
      </trkpt>
      <trkpt lat="45.24916" lon="6.95605">
        <ele>2298.17</ele>
        <time>2020-07-29T09:40:33Z</time>
      </trkpt>
      <trkpt lat="45.24896" lon="6.95556">
        <ele>2295.77</ele>
        <time>2020-07-29T09:40:44Z</time>
      </trkpt>
      <trkpt lat="45.24875" lon="6.95516">
        <ele>2294.32</ele>
        <time>2020-07-29T09:40:56Z</time>
      </trkpt>
      <trkpt lat="45.24879" lon="6.95482">
        <ele>2294.8</ele>
        <time>2020-07-29T09:41:05Z</time>
      </trkpt>
      <trkpt lat="45.24885" lon="6.95461">
        <ele>2294.32</ele>
        <time>2020-07-29T09:41:11Z</time>
      </trkpt>
      <trkpt lat="45.24904" lon="6.95407">
        <ele>2293.84</ele>
        <time>2020-07-29T09:41:25Z</time>
      </trkpt>
      <trkpt lat="45.24914" lon="6.95368">
        <ele>2293.36</ele>
        <time>2020-07-29T09:41:37Z</time>
      </trkpt>
      <trkpt lat="45.24917" lon="6.95353">
        <ele>2292.4</ele>
        <time>2020-07-29T09:41:49Z</time>
      </trkpt>
      <trkpt lat="45.24921" lon="6.95356">
        <ele>2291.92</ele>
        <time>2020-07-29T09:42:09Z</time>
      </trkpt>
      <trkpt lat="45.2492" lon="6.95354">
        <ele>2292.4</ele>
        <time>2020-07-29T09:42:47Z</time>
      </trkpt>
      <trkpt lat="45.24915" lon="6.95352">
        <ele>2292.4</ele>
        <time>2020-07-29T09:43:05Z</time>
      </trkpt>
      <trkpt lat="45.24914" lon="6.95352">
        <ele>2292.4</ele>
        <time>2020-07-29T09:43:09Z</time>
      </trkpt>
      <trkpt lat="45.24911" lon="6.9534">
        <ele>2291.44</ele>
        <time>2020-07-29T09:43:13Z</time>
      </trkpt>
      <trkpt lat="45.24897" lon="6.95279">
        <ele>2288.56</ele>
        <time>2020-07-29T09:43:24Z</time>
      </trkpt>
      <trkpt lat="45.24894" lon="6.95239">
        <ele>2284.71</ele>
        <time>2020-07-29T09:43:32Z</time>
      </trkpt>
      <trkpt lat="45.24894" lon="6.9523">
        <ele>2284.23</ele>
        <time>2020-07-29T09:43:34Z</time>
      </trkpt>
      <trkpt lat="45.24884" lon="6.95187">
        <ele>2281.35</ele>
        <time>2020-07-29T09:43:43Z</time>
      </trkpt>
      <trkpt lat="45.24869" lon="6.95159">
        <ele>2277.5</ele>
        <time>2020-07-29T09:43:50Z</time>
      </trkpt>
      <trkpt lat="45.24855" lon="6.95132">
        <ele>2273.66</ele>
        <time>2020-07-29T09:43:56Z</time>
      </trkpt>
      <trkpt lat="45.24847" lon="6.9512">
        <ele>2272.21</ele>
        <time>2020-07-29T09:43:59Z</time>
      </trkpt>
      <trkpt lat="45.24836" lon="6.95104">
        <ele>2268.37</ele>
        <time>2020-07-29T09:44:03Z</time>
      </trkpt>
      <trkpt lat="45.24824" lon="6.95086">
        <ele>2265</ele>
        <time>2020-07-29T09:44:08Z</time>
      </trkpt>
      <trkpt lat="45.24817" lon="6.95077">
        <ele>2263.08</ele>
        <time>2020-07-29T09:44:11Z</time>
      </trkpt>
      <trkpt lat="45.24802" lon="6.95054">
        <ele>2259.24</ele>
        <time>2020-07-29T09:44:17Z</time>
      </trkpt>
      <trkpt lat="45.24785" lon="6.95036">
        <ele>2255.87</ele>
        <time>2020-07-29T09:44:23Z</time>
      </trkpt>
      <trkpt lat="45.24772" lon="6.95021">
        <ele>2252.99</ele>
        <time>2020-07-29T09:44:28Z</time>
      </trkpt>
      <trkpt lat="45.24759" lon="6.95007">
        <ele>2249.14</ele>
        <time>2020-07-29T09:44:33Z</time>
      </trkpt>
      <trkpt lat="45.24751" lon="6.95">
        <ele>2247.7</ele>
        <time>2020-07-29T09:44:36Z</time>
      </trkpt>
      <trkpt lat="45.2473" lon="6.94988">
        <ele>2244.33</ele>
        <time>2020-07-29T09:44:44Z</time>
      </trkpt>
      <trkpt lat="45.24711" lon="6.94987">
        <ele>2240.49</ele>
        <time>2020-07-29T09:44:51Z</time>
      </trkpt>
      <trkpt lat="45.24694" lon="6.94982">
        <ele>2237.61</ele>
        <time>2020-07-29T09:44:57Z</time>
      </trkpt>
      <trkpt lat="45.24669" lon="6.94974">
        <ele>2234.24</ele>
        <time>2020-07-29T09:45:05Z</time>
      </trkpt>
      <trkpt lat="45.24666" lon="6.94974">
        <ele>2233.28</ele>
        <time>2020-07-29T09:45:15Z</time>
      </trkpt>
      <trkpt lat="45.24646" lon="6.94963">
        <ele>2230.4</ele>
        <time>2020-07-29T09:45:25Z</time>
      </trkpt>
      <trkpt lat="45.24629" lon="6.94953">
        <ele>2227.03</ele>
        <time>2020-07-29T09:45:31Z</time>
      </trkpt>
      <trkpt lat="45.24612" lon="6.94935">
        <ele>2223.67</ele>
        <time>2020-07-29T09:45:38Z</time>
      </trkpt>
      <trkpt lat="45.24607" lon="6.94929">
        <ele>2222.71</ele>
        <time>2020-07-29T09:45:40Z</time>
      </trkpt>
      <trkpt lat="45.24591" lon="6.94916">
        <ele>2219.82</ele>
        <time>2020-07-29T09:45:46Z</time>
      </trkpt>
      <trkpt lat="45.2458" lon="6.94902">
        <ele>2216.94</ele>
        <time>2020-07-29T09:45:51Z</time>
      </trkpt>
      <trkpt lat="45.24569" lon="6.94885">
        <ele>2213.57</ele>
        <time>2020-07-29T09:45:56Z</time>
      </trkpt>
      <trkpt lat="45.2456" lon="6.94864">
        <ele>2210.21</ele>
        <time>2020-07-29T09:46:03Z</time>
      </trkpt>
      <trkpt lat="45.24558" lon="6.94856">
        <ele>2208.77</ele>
        <time>2020-07-29T09:46:06Z</time>
      </trkpt>
      <trkpt lat="45.24557" lon="6.94852">
        <ele>2207.81</ele>
        <time>2020-07-29T09:46:17Z</time>
      </trkpt>
      <trkpt lat="45.24556" lon="6.94847">
        <ele>2207.32</ele>
        <time>2020-07-29T09:46:32Z</time>
      </trkpt>
      <trkpt lat="45.24556" lon="6.94819">
        <ele>2204.44</ele>
        <time>2020-07-29T09:46:38Z</time>
      </trkpt>
      <trkpt lat="45.24557" lon="6.94803">
        <ele>2203</ele>
        <time>2020-07-29T09:46:41Z</time>
      </trkpt>
      <trkpt lat="45.24558" lon="6.94798">
        <ele>2202.52</ele>
        <time>2020-07-29T09:46:42Z</time>
      </trkpt>
      <trkpt lat="45.24567" lon="6.94758">
        <ele>2199.63</ele>
        <time>2020-07-29T09:46:50Z</time>
      </trkpt>
      <trkpt lat="45.24569" lon="6.94747">
        <ele>2198.67</ele>
        <time>2020-07-29T09:46:52Z</time>
      </trkpt>
      <trkpt lat="45.24571" lon="6.94735">
        <ele>2198.19</ele>
        <time>2020-07-29T09:46:54Z</time>
      </trkpt>
      <trkpt lat="45.24573" lon="6.9472">
        <ele>2196.27</ele>
        <time>2020-07-29T09:46:57Z</time>
      </trkpt>
      <trkpt lat="45.24578" lon="6.94687">
        <ele>2191.94</ele>
        <time>2020-07-29T09:47:03Z</time>
      </trkpt>
      <trkpt lat="45.24583" lon="6.94658">
        <ele>2189.06</ele>
        <time>2020-07-29T09:47:07Z</time>
      </trkpt>
      <trkpt lat="45.24594" lon="6.94626">
        <ele>2189.54</ele>
        <time>2020-07-29T09:47:12Z</time>
      </trkpt>
      <trkpt lat="45.246" lon="6.94597">
        <ele>2186.18</ele>
        <time>2020-07-29T09:47:17Z</time>
      </trkpt>
      <trkpt lat="45.2461" lon="6.94552">
        <ele>2182.33</ele>
        <time>2020-07-29T09:47:25Z</time>
      </trkpt>
      <trkpt lat="45.24616" lon="6.94531">
        <ele>2180.41</ele>
        <time>2020-07-29T09:47:36Z</time>
      </trkpt>
      <trkpt lat="45.24615" lon="6.94532">
        <ele>2180.41</ele>
        <time>2020-07-29T09:48:02Z</time>
      </trkpt>
      <trkpt lat="45.24618" lon="6.94513">
        <ele>2178.97</ele>
        <time>2020-07-29T09:48:29Z</time>
      </trkpt>
      <trkpt lat="45.24619" lon="6.94476">
        <ele>2176.08</ele>
        <time>2020-07-29T09:48:36Z</time>
      </trkpt>
      <trkpt lat="45.24616" lon="6.94441">
        <ele>2172.72</ele>
        <time>2020-07-29T09:48:43Z</time>
      </trkpt>
      <trkpt lat="45.24613" lon="6.94426">
        <ele>2171.27</ele>
        <time>2020-07-29T09:48:46Z</time>
      </trkpt>
      <trkpt lat="45.2461" lon="6.94419">
        <ele>2170.79</ele>
        <time>2020-07-29T09:48:48Z</time>
      </trkpt>
      <trkpt lat="45.24588" lon="6.9438">
        <ele>2167.43</ele>
        <time>2020-07-29T09:48:58Z</time>
      </trkpt>
      <trkpt lat="45.24584" lon="6.94346">
        <ele>2164.06</ele>
        <time>2020-07-29T09:49:04Z</time>
      </trkpt>
      <trkpt lat="45.2457" lon="6.94334">
        <ele>2161.18</ele>
        <time>2020-07-29T09:49:10Z</time>
      </trkpt>
      <trkpt lat="45.24554" lon="6.94359">
        <ele>2157.82</ele>
        <time>2020-07-29T09:49:17Z</time>
      </trkpt>
      <trkpt lat="45.24543" lon="6.94382">
        <ele>2153.97</ele>
        <time>2020-07-29T09:49:23Z</time>
      </trkpt>
      <trkpt lat="45.24535" lon="6.94394">
        <ele>2152.53</ele>
        <time>2020-07-29T09:49:26Z</time>
      </trkpt>
      <trkpt lat="45.24521" lon="6.94415">
        <ele>2149.16</ele>
        <time>2020-07-29T09:49:32Z</time>
      </trkpt>
      <trkpt lat="45.24509" lon="6.94433">
        <ele>2145.8</ele>
        <time>2020-07-29T09:49:37Z</time>
      </trkpt>
      <trkpt lat="45.24502" lon="6.94443">
        <ele>2143.88</ele>
        <time>2020-07-29T09:49:41Z</time>
      </trkpt>
      <trkpt lat="45.24498" lon="6.94448">
        <ele>2142.92</ele>
        <time>2020-07-29T09:49:51Z</time>
      </trkpt>
      <trkpt lat="45.24477" lon="6.94469">
        <ele>2138.59</ele>
        <time>2020-07-29T09:50:00Z</time>
      </trkpt>
      <trkpt lat="45.24471" lon="6.94475">
        <ele>2137.63</ele>
        <time>2020-07-29T09:50:02Z</time>
      </trkpt>
      <trkpt lat="45.24451" lon="6.94494">
        <ele>2134.26</ele>
        <time>2020-07-29T09:50:08Z</time>
      </trkpt>
      <trkpt lat="45.24442" lon="6.94519">
        <ele>2131.86</ele>
        <time>2020-07-29T09:50:13Z</time>
      </trkpt>
      <trkpt lat="45.24418" lon="6.94558">
        <ele>2128.98</ele>
        <time>2020-07-29T09:50:21Z</time>
      </trkpt>
      <trkpt lat="45.24404" lon="6.94581">
        <ele>2125.61</ele>
        <time>2020-07-29T09:50:26Z</time>
      </trkpt>
      <trkpt lat="45.24379" lon="6.94577">
        <ele>2121.77</ele>
        <time>2020-07-29T09:50:33Z</time>
      </trkpt>
      <trkpt lat="45.24363" lon="6.94548">
        <ele>2118.4</ele>
        <time>2020-07-29T09:50:39Z</time>
      </trkpt>
      <trkpt lat="45.24354" lon="6.94515">
        <ele>2114.56</ele>
        <time>2020-07-29T09:50:45Z</time>
      </trkpt>
      <trkpt lat="45.24357" lon="6.94477">
        <ele>2110.71</ele>
        <time>2020-07-29T09:50:52Z</time>
      </trkpt>
      <trkpt lat="45.24346" lon="6.94451">
        <ele>2107.35</ele>
        <time>2020-07-29T09:50:58Z</time>
      </trkpt>
      <trkpt lat="45.24345" lon="6.9444">
        <ele>2105.91</ele>
        <time>2020-07-29T09:51:07Z</time>
      </trkpt>
      <trkpt lat="45.24345" lon="6.94434">
        <ele>2105.91</ele>
        <time>2020-07-29T09:51:31Z</time>
      </trkpt>
      <trkpt lat="45.24345" lon="6.94401">
        <ele>2103.02</ele>
        <time>2020-07-29T09:51:36Z</time>
      </trkpt>
      <trkpt lat="45.24354" lon="6.94359">
        <ele>2102.06</ele>
        <time>2020-07-29T09:51:43Z</time>
      </trkpt>
      <trkpt lat="45.24391" lon="6.94238">
        <ele>2100.62</ele>
        <time>2020-07-29T09:52:02Z</time>
      </trkpt>
      <trkpt lat="45.24448" lon="6.94108">
        <ele>2097.73</ele>
        <time>2020-07-29T09:52:20Z</time>
      </trkpt>
      <trkpt lat="45.24503" lon="6.93996">
        <ele>2096.77</ele>
        <time>2020-07-29T09:52:37Z</time>
      </trkpt>
      <trkpt lat="45.24572" lon="6.93884">
        <ele>2095.81</ele>
        <time>2020-07-29T09:52:58Z</time>
      </trkpt>
      <trkpt lat="45.24582" lon="6.93877">
        <ele>2095.33</ele>
        <time>2020-07-29T09:53:07Z</time>
      </trkpt>
      <trkpt lat="45.2458" lon="6.93878">
        <ele>2095.33</ele>
        <time>2020-07-29T09:53:40Z</time>
      </trkpt>
      <trkpt lat="45.2458" lon="6.93878">
        <ele>2095.33</ele>
        <time>2020-07-29T09:54:12Z</time>
      </trkpt>
      <trkpt lat="45.2458" lon="6.93878">
        <ele>2094.85</ele>
        <time>2020-07-29T09:54:36Z</time>
      </trkpt>
      <trkpt lat="45.2458" lon="6.93878">
        <ele>2094.85</ele>
        <time>2020-07-29T09:54:56Z</time>
      </trkpt>
      <trkpt lat="45.24581" lon="6.93877">
        <ele>2094.37</ele>
        <time>2020-07-29T09:55:12Z</time>
      </trkpt>
      <trkpt lat="45.24587" lon="6.93866">
        <ele>2094.37</ele>
        <time>2020-07-29T09:55:27Z</time>
      </trkpt>
      <trkpt lat="45.24627" lon="6.93809">
        <ele>2093.89</ele>
        <time>2020-07-29T09:55:43Z</time>
      </trkpt>
      <trkpt lat="45.24645" lon="6.9378">
        <ele>2094.37</ele>
        <time>2020-07-29T09:55:54Z</time>
      </trkpt>
      <trkpt lat="45.24645" lon="6.93779">
        <ele>2093.89</ele>
        <time>2020-07-29T09:56:01Z</time>
      </trkpt>
      <trkpt lat="45.24654" lon="6.93733">
        <ele>2093.89</ele>
        <time>2020-07-29T09:56:14Z</time>
      </trkpt>
      <trkpt lat="45.24658" lon="6.93631">
        <ele>2092.93</ele>
        <time>2020-07-29T09:56:31Z</time>
      </trkpt>
      <trkpt lat="45.24666" lon="6.93521">
        <ele>2092.93</ele>
        <time>2020-07-29T09:56:51Z</time>
      </trkpt>
      <trkpt lat="45.24711" lon="6.93436">
        <ele>2092.45</ele>
        <time>2020-07-29T09:57:10Z</time>
      </trkpt>
      <trkpt lat="45.24742" lon="6.93375">
        <ele>2093.41</ele>
        <time>2020-07-29T09:57:29Z</time>
      </trkpt>
      <trkpt lat="45.24759" lon="6.93324">
        <ele>2094.85</ele>
        <time>2020-07-29T09:57:49Z</time>
      </trkpt>
      <trkpt lat="45.24768" lon="6.93284">
        <ele>2096.29</ele>
        <time>2020-07-29T09:58:07Z</time>
      </trkpt>
      <trkpt lat="45.24777" lon="6.93237">
        <ele>2098.21</ele>
        <time>2020-07-29T09:58:29Z</time>
      </trkpt>
      <trkpt lat="45.24786" lon="6.93196">
        <ele>2099.66</ele>
        <time>2020-07-29T09:58:48Z</time>
      </trkpt>
      <trkpt lat="45.24796" lon="6.93151">
        <ele>2101.1</ele>
        <time>2020-07-29T09:59:10Z</time>
      </trkpt>
      <trkpt lat="45.24807" lon="6.93095">
        <ele>2103.5</ele>
        <time>2020-07-29T09:59:37Z</time>
      </trkpt>
      <trkpt lat="45.24815" lon="6.93054">
        <ele>2104.46</ele>
        <time>2020-07-29T09:59:57Z</time>
      </trkpt>
      <trkpt lat="45.24824" lon="6.9301">
        <ele>2105.91</ele>
        <time>2020-07-29T10:00:17Z</time>
      </trkpt>
      <trkpt lat="45.24837" lon="6.92968">
        <ele>2105.91</ele>
        <time>2020-07-29T10:00:34Z</time>
      </trkpt>
      <trkpt lat="45.24865" lon="6.92902">
        <ele>2105.42</ele>
        <time>2020-07-29T10:00:57Z</time>
      </trkpt>
      <trkpt lat="45.24895" lon="6.92844">
        <ele>2103.5</ele>
        <time>2020-07-29T10:01:10Z</time>
      </trkpt>
      <trkpt lat="45.24924" lon="6.92783">
        <ele>2100.14</ele>
        <time>2020-07-29T10:01:18Z</time>
      </trkpt>
      <trkpt lat="45.24944" lon="6.92731">
        <ele>2097.73</ele>
        <time>2020-07-29T10:01:23Z</time>
      </trkpt>
      <trkpt lat="45.24959" lon="6.92676">
        <ele>2096.29</ele>
        <time>2020-07-29T10:01:28Z</time>
      </trkpt>
      <trkpt lat="45.24984" lon="6.92561">
        <ele>2092.93</ele>
        <time>2020-07-29T10:01:40Z</time>
      </trkpt>
      <trkpt lat="45.25006" lon="6.92484">
        <ele>2090.04</ele>
        <time>2020-07-29T10:01:48Z</time>
      </trkpt>
      <trkpt lat="45.2501" lon="6.92474">
        <ele>2090.04</ele>
        <time>2020-07-29T10:01:49Z</time>
      </trkpt>
      <trkpt lat="45.25035" lon="6.92422">
        <ele>2086.68</ele>
        <time>2020-07-29T10:01:54Z</time>
      </trkpt>
      <trkpt lat="45.25057" lon="6.92377">
        <ele>2083.79</ele>
        <time>2020-07-29T10:01:58Z</time>
      </trkpt>
      <trkpt lat="45.25074" lon="6.92342">
        <ele>2082.35</ele>
        <time>2020-07-29T10:02:01Z</time>
      </trkpt>
      <trkpt lat="45.25103" lon="6.92285">
        <ele>2078.99</ele>
        <time>2020-07-29T10:02:06Z</time>
      </trkpt>
      <trkpt lat="45.25123" lon="6.92243">
        <ele>2078.03</ele>
        <time>2020-07-29T10:02:10Z</time>
      </trkpt>
      <trkpt lat="45.25157" lon="6.92146">
        <ele>2075.62</ele>
        <time>2020-07-29T10:02:21Z</time>
      </trkpt>
      <trkpt lat="45.25159" lon="6.92135">
        <ele>2075.14</ele>
        <time>2020-07-29T10:02:23Z</time>
      </trkpt>
      <trkpt lat="45.25155" lon="6.92074">
        <ele>2073.22</ele>
        <time>2020-07-29T10:02:36Z</time>
      </trkpt>
      <trkpt lat="45.25155" lon="6.92072">
        <ele>2072.74</ele>
        <time>2020-07-29T10:02:45Z</time>
      </trkpt>
      <trkpt lat="45.25154" lon="6.92073">
        <ele>2072.74</ele>
        <time>2020-07-29T10:03:31Z</time>
      </trkpt>
      <trkpt lat="45.25157" lon="6.9208">
        <ele>2073.7</ele>
        <time>2020-07-29T10:03:51Z</time>
      </trkpt>
      <trkpt lat="45.2516" lon="6.9208">
        <ele>2073.7</ele>
        <time>2020-07-29T10:04:17Z</time>
      </trkpt>
      <trkpt lat="45.25164" lon="6.92079">
        <ele>2073.22</ele>
        <time>2020-07-29T10:04:27Z</time>
      </trkpt>
      <trkpt lat="45.25172" lon="6.92069">
        <ele>2073.7</ele>
        <time>2020-07-29T10:04:33Z</time>
      </trkpt>
      <trkpt lat="45.25182" lon="6.91968">
        <ele>2071.78</ele>
        <time>2020-07-29T10:04:50Z</time>
      </trkpt>
      <trkpt lat="45.25204" lon="6.91821">
        <ele>2069.86</ele>
        <time>2020-07-29T10:05:10Z</time>
      </trkpt>
      <trkpt lat="45.2522" lon="6.91722">
        <ele>2067.45</ele>
        <time>2020-07-29T10:05:25Z</time>
      </trkpt>
      <trkpt lat="45.25207" lon="6.9169">
        <ele>2067.45</ele>
        <time>2020-07-29T10:05:35Z</time>
      </trkpt>
      <trkpt lat="45.25201" lon="6.91685">
        <ele>2067.93</ele>
        <time>2020-07-29T10:05:45Z</time>
      </trkpt>
      <trkpt lat="45.25203" lon="6.91681">
        <ele>2067.93</ele>
        <time>2020-07-29T10:06:06Z</time>
      </trkpt>
      <trkpt lat="45.25206" lon="6.91678">
        <ele>2066.97</ele>
        <time>2020-07-29T10:06:25Z</time>
      </trkpt>
      <trkpt lat="45.25208" lon="6.91677">
        <ele>2066.97</ele>
        <time>2020-07-29T10:06:46Z</time>
      </trkpt>
      <trkpt lat="45.25205" lon="6.91673">
        <ele>2067.45</ele>
        <time>2020-07-29T10:07:09Z</time>
      </trkpt>
      <trkpt lat="45.2521" lon="6.91663">
        <ele>2067.45</ele>
        <time>2020-07-29T10:07:29Z</time>
      </trkpt>
      <trkpt lat="45.2521" lon="6.91661">
        <ele>2066.97</ele>
        <time>2020-07-29T10:07:45Z</time>
      </trkpt>
      <trkpt lat="45.25211" lon="6.91659">
        <ele>2066.97</ele>
        <time>2020-07-29T10:08:07Z</time>
      </trkpt>
      <trkpt lat="45.25216" lon="6.91659">
        <ele>2067.45</ele>
        <time>2020-07-29T10:08:27Z</time>
      </trkpt>
      <trkpt lat="45.25218" lon="6.91657">
        <ele>2067.45</ele>
        <time>2020-07-29T10:08:52Z</time>
      </trkpt>
      <trkpt lat="45.25213" lon="6.91653">
        <ele>2067.45</ele>
        <time>2020-07-29T10:09:09Z</time>
      </trkpt>
      <trkpt lat="45.25214" lon="6.91653">
        <ele>2067.45</ele>
        <time>2020-07-29T10:09:38Z</time>
      </trkpt>
      <trkpt lat="45.25219" lon="6.9165">
        <ele>2066.49</ele>
        <time>2020-07-29T10:10:05Z</time>
      </trkpt>
      <trkpt lat="45.25217" lon="6.91648">
        <ele>2066.49</ele>
        <time>2020-07-29T10:10:41Z</time>
      </trkpt>
      <trkpt lat="45.25224" lon="6.91643">
        <ele>2066.97</ele>
        <time>2020-07-29T10:11:02Z</time>
      </trkpt>
      <trkpt lat="45.25223" lon="6.91635">
        <ele>2066.49</ele>
        <time>2020-07-29T10:11:21Z</time>
      </trkpt>
      <trkpt lat="45.25222" lon="6.91633">
        <ele>2066.49</ele>
        <time>2020-07-29T10:11:37Z</time>
      </trkpt>
      <trkpt lat="45.25226" lon="6.91634">
        <ele>2066.49</ele>
        <time>2020-07-29T10:11:42Z</time>
      </trkpt>
      <trkpt lat="45.25237" lon="6.91631">
        <ele>2066.97</ele>
        <time>2020-07-29T10:11:57Z</time>
      </trkpt>
      <trkpt lat="45.25246" lon="6.91633">
        <ele>2066.97</ele>
        <time>2020-07-29T10:12:04Z</time>
      </trkpt>
      <trkpt lat="45.25254" lon="6.91615">
        <ele>2067.45</ele>
        <time>2020-07-29T10:12:11Z</time>
      </trkpt>
      <trkpt lat="45.25262" lon="6.91573">
        <ele>2068.89</ele>
        <time>2020-07-29T10:12:29Z</time>
      </trkpt>
      <trkpt lat="45.25271" lon="6.91529">
        <ele>2069.38</ele>
        <time>2020-07-29T10:12:48Z</time>
      </trkpt>
      <trkpt lat="45.2528" lon="6.91473">
        <ele>2070.34</ele>
        <time>2020-07-29T10:13:09Z</time>
      </trkpt>
      <trkpt lat="45.25286" lon="6.91424">
        <ele>2071.3</ele>
        <time>2020-07-29T10:13:28Z</time>
      </trkpt>
      <trkpt lat="45.25288" lon="6.91374">
        <ele>2072.26</ele>
        <time>2020-07-29T10:13:45Z</time>
      </trkpt>
      <trkpt lat="45.25288" lon="6.91303">
        <ele>2073.7</ele>
        <time>2020-07-29T10:14:08Z</time>
      </trkpt>
      <trkpt lat="45.25292" lon="6.9125">
        <ele>2073.7</ele>
        <time>2020-07-29T10:14:24Z</time>
      </trkpt>
      <trkpt lat="45.25307" lon="6.91188">
        <ele>2074.18</ele>
        <time>2020-07-29T10:14:42Z</time>
      </trkpt>
      <trkpt lat="45.2532" lon="6.91123">
        <ele>2074.18</ele>
        <time>2020-07-29T10:15:01Z</time>
      </trkpt>
      <trkpt lat="45.2532" lon="6.91042">
        <ele>2074.66</ele>
        <time>2020-07-29T10:15:21Z</time>
      </trkpt>
      <trkpt lat="45.25317" lon="6.90971">
        <ele>2075.14</ele>
        <time>2020-07-29T10:15:39Z</time>
      </trkpt>
      <trkpt lat="45.25314" lon="6.90876">
        <ele>2075.14</ele>
        <time>2020-07-29T10:16:03Z</time>
      </trkpt>
      <trkpt lat="45.25321" lon="6.9081">
        <ele>2076.1</ele>
        <time>2020-07-29T10:16:19Z</time>
      </trkpt>
      <trkpt lat="45.25356" lon="6.9075">
        <ele>2075.62</ele>
        <time>2020-07-29T10:16:35Z</time>
      </trkpt>
      <trkpt lat="45.25408" lon="6.90685">
        <ele>2074.66</ele>
        <time>2020-07-29T10:16:51Z</time>
      </trkpt>
      <trkpt lat="45.25479" lon="6.90635">
        <ele>2073.7</ele>
        <time>2020-07-29T10:17:08Z</time>
      </trkpt>
      <trkpt lat="45.25558" lon="6.90607">
        <ele>2072.26</ele>
        <time>2020-07-29T10:17:25Z</time>
      </trkpt>
      <trkpt lat="45.25618" lon="6.90586">
        <ele>2073.22</ele>
        <time>2020-07-29T10:17:42Z</time>
      </trkpt>
      <trkpt lat="45.25646" lon="6.90567">
        <ele>2075.14</ele>
        <time>2020-07-29T10:17:59Z</time>
      </trkpt>
      <trkpt lat="45.25643" lon="6.90534">
        <ele>2073.7</ele>
        <time>2020-07-29T10:18:09Z</time>
      </trkpt>
      <trkpt lat="45.25618" lon="6.90525">
        <ele>2072.26</ele>
        <time>2020-07-29T10:18:18Z</time>
      </trkpt>
      <trkpt lat="45.25619" lon="6.90525">
        <ele>2072.26</ele>
        <time>2020-07-29T10:18:40Z</time>
      </trkpt>
      <trkpt lat="45.25602" lon="6.90529">
        <ele>2071.3</ele>
        <time>2020-07-29T10:18:57Z</time>
      </trkpt>
      <trkpt lat="45.25598" lon="6.9053">
        <ele>2071.3</ele>
        <time>2020-07-29T10:18:58Z</time>
      </trkpt>
      <trkpt lat="45.25541" lon="6.90541">
        <ele>2067.93</ele>
        <time>2020-07-29T10:19:09Z</time>
      </trkpt>
      <trkpt lat="45.25497" lon="6.90545">
        <ele>2065.05</ele>
        <time>2020-07-29T10:19:16Z</time>
      </trkpt>
      <trkpt lat="45.25462" lon="6.90525">
        <ele>2062.65</ele>
        <time>2020-07-29T10:19:22Z</time>
      </trkpt>
      <trkpt lat="45.25434" lon="6.90501">
        <ele>2060.24</ele>
        <time>2020-07-29T10:19:28Z</time>
      </trkpt>
      <trkpt lat="45.254" lon="6.90479">
        <ele>2057.36</ele>
        <time>2020-07-29T10:19:38Z</time>
      </trkpt>
      <trkpt lat="45.25397" lon="6.90479">
        <ele>2056.88</ele>
        <time>2020-07-29T10:19:39Z</time>
      </trkpt>
      <trkpt lat="45.25372" lon="6.90511">
        <ele>2054.47</ele>
        <time>2020-07-29T10:19:46Z</time>
      </trkpt>
      <trkpt lat="45.25352" lon="6.90588">
        <ele>2050.63</ele>
        <time>2020-07-29T10:19:55Z</time>
      </trkpt>
      <trkpt lat="45.25347" lon="6.90605">
        <ele>2049.67</ele>
        <time>2020-07-29T10:19:57Z</time>
      </trkpt>
      <trkpt lat="45.25341" lon="6.90621">
        <ele>2049.19</ele>
        <time>2020-07-29T10:19:59Z</time>
      </trkpt>
      <trkpt lat="45.25329" lon="6.90643">
        <ele>2047.75</ele>
        <time>2020-07-29T10:20:02Z</time>
      </trkpt>
      <trkpt lat="45.25316" lon="6.90661">
        <ele>2045.82</ele>
        <time>2020-07-29T10:20:05Z</time>
      </trkpt>
      <trkpt lat="45.25286" lon="6.90693">
        <ele>2042.46</ele>
        <time>2020-07-29T10:20:11Z</time>
      </trkpt>
      <trkpt lat="45.25265" lon="6.90714">
        <ele>2040.05</ele>
        <time>2020-07-29T10:20:16Z</time>
      </trkpt>
      <trkpt lat="45.25243" lon="6.9074">
        <ele>2037.17</ele>
        <time>2020-07-29T10:20:25Z</time>
      </trkpt>
      <trkpt lat="45.25244" lon="6.9074">
        <ele>2037.65</ele>
        <time>2020-07-29T10:20:40Z</time>
      </trkpt>
      <trkpt lat="45.25243" lon="6.90741">
        <ele>2037.65</ele>
        <time>2020-07-29T10:20:59Z</time>
      </trkpt>
      <trkpt lat="45.25238" lon="6.90752">
        <ele>2036.69</ele>
        <time>2020-07-29T10:21:03Z</time>
      </trkpt>
      <trkpt lat="45.25227" lon="6.90777">
        <ele>2035.25</ele>
        <time>2020-07-29T10:21:08Z</time>
      </trkpt>
      <trkpt lat="45.25221" lon="6.90796">
        <ele>2034.29</ele>
        <time>2020-07-29T10:21:11Z</time>
      </trkpt>
      <trkpt lat="45.25203" lon="6.90852">
        <ele>2030.92</ele>
        <time>2020-07-29T10:21:19Z</time>
      </trkpt>
      <trkpt lat="45.25196" lon="6.90873">
        <ele>2029.48</ele>
        <time>2020-07-29T10:21:22Z</time>
      </trkpt>
      <trkpt lat="45.25187" lon="6.90897">
        <ele>2027.56</ele>
        <time>2020-07-29T10:21:26Z</time>
      </trkpt>
      <trkpt lat="45.2517" lon="6.90936">
        <ele>2024.67</ele>
        <time>2020-07-29T10:21:35Z</time>
      </trkpt>
      <trkpt lat="45.25162" lon="6.90935">
        <ele>2024.19</ele>
        <time>2020-07-29T10:21:45Z</time>
      </trkpt>
      <trkpt lat="45.25163" lon="6.90933">
        <ele>2023.71</ele>
        <time>2020-07-29T10:22:10Z</time>
      </trkpt>
      <trkpt lat="45.25163" lon="6.9093">
        <ele>2023.23</ele>
        <time>2020-07-29T10:22:25Z</time>
      </trkpt>
      <trkpt lat="45.25163" lon="6.90929">
        <ele>2023.71</ele>
        <time>2020-07-29T10:22:28Z</time>
      </trkpt>
      <trkpt lat="45.2518" lon="6.90893">
        <ele>2022.27</ele>
        <time>2020-07-29T10:22:41Z</time>
      </trkpt>
      <trkpt lat="45.2519" lon="6.90835">
        <ele>2020.83</ele>
        <time>2020-07-29T10:22:54Z</time>
      </trkpt>
      <trkpt lat="45.25193" lon="6.90823">
        <ele>2020.83</ele>
        <time>2020-07-29T10:22:56Z</time>
      </trkpt>
      <trkpt lat="45.25203" lon="6.90789">
        <ele>2020.35</ele>
        <time>2020-07-29T10:23:01Z</time>
      </trkpt>
      <trkpt lat="45.25208" lon="6.90732">
        <ele>2018.91</ele>
        <time>2020-07-29T10:23:08Z</time>
      </trkpt>
      <trkpt lat="45.25206" lon="6.90715">
        <ele>2017.94</ele>
        <time>2020-07-29T10:23:10Z</time>
      </trkpt>
      <trkpt lat="45.25204" lon="6.90676">
        <ele>2016.5</ele>
        <time>2020-07-29T10:23:15Z</time>
      </trkpt>
      <trkpt lat="45.25203" lon="6.9066">
        <ele>2016.02</ele>
        <time>2020-07-29T10:23:17Z</time>
      </trkpt>
      <trkpt lat="45.25187" lon="6.90628">
        <ele>2014.1</ele>
        <time>2020-07-29T10:23:22Z</time>
      </trkpt>
      <trkpt lat="45.2516" lon="6.90627">
        <ele>2014.58</ele>
        <time>2020-07-29T10:23:29Z</time>
      </trkpt>
      <trkpt lat="45.25158" lon="6.9063">
        <ele>2014.58</ele>
        <time>2020-07-29T10:23:42Z</time>
      </trkpt>
      <trkpt lat="45.25158" lon="6.9063">
        <ele>2015.06</ele>
        <time>2020-07-29T10:23:47Z</time>
      </trkpt>
      <trkpt lat="45.25128" lon="6.90634">
        <ele>2014.58</ele>
        <time>2020-07-29T10:24:01Z</time>
      </trkpt>
      <trkpt lat="45.25121" lon="6.9063">
        <ele>2014.58</ele>
        <time>2020-07-29T10:24:03Z</time>
      </trkpt>
      <trkpt lat="45.25103" lon="6.90633">
        <ele>2014.1</ele>
        <time>2020-07-29T10:24:08Z</time>
      </trkpt>
      <trkpt lat="45.25062" lon="6.90687">
        <ele>2014.1</ele>
        <time>2020-07-29T10:24:23Z</time>
      </trkpt>
      <trkpt lat="45.25018" lon="6.90706">
        <ele>2012.66</ele>
        <time>2020-07-29T10:24:32Z</time>
      </trkpt>
      <trkpt lat="45.24962" lon="6.90739">
        <ele>2014.1</ele>
        <time>2020-07-29T10:24:46Z</time>
      </trkpt>
      <trkpt lat="45.24917" lon="6.90762">
        <ele>2013.62</ele>
        <time>2020-07-29T10:24:58Z</time>
      </trkpt>
      <trkpt lat="45.24883" lon="6.90769">
        <ele>2014.58</ele>
        <time>2020-07-29T10:25:10Z</time>
      </trkpt>
      <trkpt lat="45.24819" lon="6.9075">
        <ele>2012.18</ele>
        <time>2020-07-29T10:25:22Z</time>
      </trkpt>
      <trkpt lat="45.24806" lon="6.90748">
        <ele>2011.7</ele>
        <time>2020-07-29T10:25:24Z</time>
      </trkpt>
      <trkpt lat="45.2478" lon="6.90727">
        <ele>2011.7</ele>
        <time>2020-07-29T10:25:30Z</time>
      </trkpt>
      <trkpt lat="45.24775" lon="6.90713">
        <ele>2011.7</ele>
        <time>2020-07-29T10:25:32Z</time>
      </trkpt>
      <trkpt lat="45.24753" lon="6.90687">
        <ele>2011.22</ele>
        <time>2020-07-29T10:25:38Z</time>
      </trkpt>
      <trkpt lat="45.24701" lon="6.90668">
        <ele>2012.18</ele>
        <time>2020-07-29T10:25:52Z</time>
      </trkpt>
      <trkpt lat="45.24639" lon="6.90633">
        <ele>2012.18</ele>
        <time>2020-07-29T10:26:09Z</time>
      </trkpt>
      <trkpt lat="45.24561" lon="6.90619">
        <ele>2008.81</ele>
        <time>2020-07-29T10:26:24Z</time>
      </trkpt>
      <trkpt lat="45.24515" lon="6.90602">
        <ele>2010.25</ele>
        <time>2020-07-29T10:26:34Z</time>
      </trkpt>
      <trkpt lat="45.24466" lon="6.90584">
        <ele>2012.66</ele>
        <time>2020-07-29T10:26:49Z</time>
      </trkpt>
      <trkpt lat="45.24406" lon="6.90563">
        <ele>2011.7</ele>
        <time>2020-07-29T10:27:06Z</time>
      </trkpt>
      <trkpt lat="45.24384" lon="6.90563">
        <ele>2011.7</ele>
        <time>2020-07-29T10:27:11Z</time>
      </trkpt>
      <trkpt lat="45.24346" lon="6.90572">
        <ele>2011.7</ele>
        <time>2020-07-29T10:27:20Z</time>
      </trkpt>
      <trkpt lat="45.24273" lon="6.90579">
        <ele>2011.7</ele>
        <time>2020-07-29T10:27:39Z</time>
      </trkpt>
      <trkpt lat="45.24237" lon="6.90576">
        <ele>2011.7</ele>
        <time>2020-07-29T10:27:48Z</time>
      </trkpt>
      <trkpt lat="45.24205" lon="6.90565">
        <ele>2011.22</ele>
        <time>2020-07-29T10:27:55Z</time>
      </trkpt>
      <trkpt lat="45.24123" lon="6.90559">
        <ele>2010.73</ele>
        <time>2020-07-29T10:28:12Z</time>
      </trkpt>
      <trkpt lat="45.24083" lon="6.9056">
        <ele>2011.22</ele>
        <time>2020-07-29T10:28:26Z</time>
      </trkpt>
      <trkpt lat="45.24029" lon="6.90576">
        <ele>2012.18</ele>
        <time>2020-07-29T10:28:45Z</time>
      </trkpt>
      <trkpt lat="45.23989" lon="6.90602">
        <ele>2013.14</ele>
        <time>2020-07-29T10:29:03Z</time>
      </trkpt>
      <trkpt lat="45.23957" lon="6.90628">
        <ele>2014.1</ele>
        <time>2020-07-29T10:29:20Z</time>
      </trkpt>
      <trkpt lat="45.23922" lon="6.90642">
        <ele>2014.1</ele>
        <time>2020-07-29T10:29:38Z</time>
      </trkpt>
      <trkpt lat="45.23893" lon="6.9064">
        <ele>2015.54</ele>
        <time>2020-07-29T10:29:54Z</time>
      </trkpt>
      <trkpt lat="45.23864" lon="6.90632">
        <ele>2016.98</ele>
        <time>2020-07-29T10:30:10Z</time>
      </trkpt>
      <trkpt lat="45.23838" lon="6.90631">
        <ele>2019.39</ele>
        <time>2020-07-29T10:30:26Z</time>
      </trkpt>
      <trkpt lat="45.23815" lon="6.90603">
        <ele>2017.94</ele>
        <time>2020-07-29T10:30:37Z</time>
      </trkpt>
      <trkpt lat="45.23795" lon="6.90577">
        <ele>2016.02</ele>
        <time>2020-07-29T10:30:48Z</time>
      </trkpt>
      <trkpt lat="45.23795" lon="6.90577">
        <ele>2016.02</ele>
        <time>2020-07-29T10:31:09Z</time>
      </trkpt>
      <trkpt lat="45.23792" lon="6.90565">
        <ele>2015.06</ele>
        <time>2020-07-29T10:31:13Z</time>
      </trkpt>
      <trkpt lat="45.23777" lon="6.90523">
        <ele>2014.1</ele>
        <time>2020-07-29T10:31:20Z</time>
      </trkpt>
      <trkpt lat="45.23762" lon="6.90461">
        <ele>2011.22</ele>
        <time>2020-07-29T10:31:27Z</time>
      </trkpt>
      <trkpt lat="45.23753" lon="6.90435">
        <ele>2010.73</ele>
        <time>2020-07-29T10:31:30Z</time>
      </trkpt>
      <trkpt lat="45.23744" lon="6.90419">
        <ele>2010.73</ele>
        <time>2020-07-29T10:31:32Z</time>
      </trkpt>
      <trkpt lat="45.2371" lon="6.90381">
        <ele>2011.7</ele>
        <time>2020-07-29T10:31:42Z</time>
      </trkpt>
      <trkpt lat="45.23691" lon="6.90354">
        <ele>2013.14</ele>
        <time>2020-07-29T10:31:57Z</time>
      </trkpt>
      <trkpt lat="45.23673" lon="6.90317">
        <ele>2014.58</ele>
        <time>2020-07-29T10:32:17Z</time>
      </trkpt>
      <trkpt lat="45.23653" lon="6.90286">
        <ele>2016.02</ele>
        <time>2020-07-29T10:32:37Z</time>
      </trkpt>
      <trkpt lat="45.23634" lon="6.90257">
        <ele>2017.46</ele>
        <time>2020-07-29T10:32:59Z</time>
      </trkpt>
      <trkpt lat="45.23616" lon="6.90243">
        <ele>2019.87</ele>
        <time>2020-07-29T10:33:17Z</time>
      </trkpt>
      <trkpt lat="45.23598" lon="6.90232">
        <ele>2022.27</ele>
        <time>2020-07-29T10:33:35Z</time>
      </trkpt>
      <trkpt lat="45.23595" lon="6.90227">
        <ele>2022.75</ele>
        <time>2020-07-29T10:33:40Z</time>
      </trkpt>
      <trkpt lat="45.23583" lon="6.90206">
        <ele>2024.19</ele>
        <time>2020-07-29T10:33:59Z</time>
      </trkpt>
      <trkpt lat="45.23574" lon="6.9019">
        <ele>2025.15</ele>
        <time>2020-07-29T10:34:13Z</time>
      </trkpt>
      <trkpt lat="45.23571" lon="6.90183">
        <ele>2026.12</ele>
        <time>2020-07-29T10:34:18Z</time>
      </trkpt>
      <trkpt lat="45.23547" lon="6.9016">
        <ele>2026.6</ele>
        <time>2020-07-29T10:34:37Z</time>
      </trkpt>
      <trkpt lat="45.23525" lon="6.90151">
        <ele>2027.56</ele>
        <time>2020-07-29T10:34:51Z</time>
      </trkpt>
      <trkpt lat="45.23499" lon="6.90141">
        <ele>2027.08</ele>
        <time>2020-07-29T10:35:08Z</time>
      </trkpt>
      <trkpt lat="45.23478" lon="6.90135">
        <ele>2028.04</ele>
        <time>2020-07-29T10:35:24Z</time>
      </trkpt>
      <trkpt lat="45.23463" lon="6.9013">
        <ele>2029</ele>
        <time>2020-07-29T10:35:38Z</time>
      </trkpt>
      <trkpt lat="45.23458" lon="6.90129">
        <ele>2029.48</ele>
        <time>2020-07-29T10:35:42Z</time>
      </trkpt>
      <trkpt lat="45.23438" lon="6.9012">
        <ele>2030.92</ele>
        <time>2020-07-29T10:36:01Z</time>
      </trkpt>
      <trkpt lat="45.23421" lon="6.90109">
        <ele>2032.84</ele>
        <time>2020-07-29T10:36:18Z</time>
      </trkpt>
      <trkpt lat="45.23404" lon="6.90093">
        <ele>2033.33</ele>
        <time>2020-07-29T10:36:33Z</time>
      </trkpt>
      <trkpt lat="45.23376" lon="6.90051">
        <ele>2030.92</ele>
        <time>2020-07-29T10:36:46Z</time>
      </trkpt>
      <trkpt lat="45.2337" lon="6.9004">
        <ele>2030.92</ele>
        <time>2020-07-29T10:36:48Z</time>
      </trkpt>
      <trkpt lat="45.23338" lon="6.90003">
        <ele>2031.4</ele>
        <time>2020-07-29T10:37:01Z</time>
      </trkpt>
      <trkpt lat="45.23316" lon="6.89979">
        <ele>2029.96</ele>
        <time>2020-07-29T10:37:09Z</time>
      </trkpt>
      <trkpt lat="45.23306" lon="6.89968">
        <ele>2030.44</ele>
        <time>2020-07-29T10:37:12Z</time>
      </trkpt>
      <trkpt lat="45.23266" lon="6.89946">
        <ele>2029.48</ele>
        <time>2020-07-29T10:37:25Z</time>
      </trkpt>
      <trkpt lat="45.23251" lon="6.89934">
        <ele>2028.52</ele>
        <time>2020-07-29T10:37:37Z</time>
      </trkpt>
      <trkpt lat="45.23253" lon="6.89936">
        <ele>2028.52</ele>
        <time>2020-07-29T10:38:06Z</time>
      </trkpt>
      <trkpt lat="45.23252" lon="6.89936">
        <ele>2029</ele>
        <time>2020-07-29T10:38:22Z</time>
      </trkpt>
      <trkpt lat="45.23244" lon="6.89937">
        <ele>2028.52</ele>
        <time>2020-07-29T10:38:31Z</time>
      </trkpt>
      <trkpt lat="45.23223" lon="6.89925">
        <ele>2027.56</ele>
        <time>2020-07-29T10:38:41Z</time>
      </trkpt>
      <trkpt lat="45.23219" lon="6.89924">
        <ele>2027.56</ele>
        <time>2020-07-29T10:38:42Z</time>
      </trkpt>
      <trkpt lat="45.23185" lon="6.89947">
        <ele>2027.08</ele>
        <time>2020-07-29T10:38:54Z</time>
      </trkpt>
      <trkpt lat="45.23187" lon="6.89986">
        <ele>2028.52</ele>
        <time>2020-07-29T10:39:08Z</time>
      </trkpt>
      <trkpt lat="45.23202" lon="6.90018">
        <ele>2029.48</ele>
        <time>2020-07-29T10:39:22Z</time>
      </trkpt>
      <trkpt lat="45.23214" lon="6.90055">
        <ele>2030.44</ele>
        <time>2020-07-29T10:39:38Z</time>
      </trkpt>
      <trkpt lat="45.23223" lon="6.90092">
        <ele>2031.4</ele>
        <time>2020-07-29T10:39:54Z</time>
      </trkpt>
      <trkpt lat="45.23241" lon="6.90132">
        <ele>2031.4</ele>
        <time>2020-07-29T10:40:10Z</time>
      </trkpt>
      <trkpt lat="45.23259" lon="6.90194">
        <ele>2029.96</ele>
        <time>2020-07-29T10:40:25Z</time>
      </trkpt>
      <trkpt lat="45.23273" lon="6.90235">
        <ele>2031.4</ele>
        <time>2020-07-29T10:40:40Z</time>
      </trkpt>
      <trkpt lat="45.23282" lon="6.90278">
        <ele>2031.88</ele>
        <time>2020-07-29T10:40:56Z</time>
      </trkpt>
      <trkpt lat="45.23303" lon="6.9032">
        <ele>2033.33</ele>
        <time>2020-07-29T10:41:14Z</time>
      </trkpt>
      <trkpt lat="45.23317" lon="6.90357">
        <ele>2033.33</ele>
        <time>2020-07-29T10:41:30Z</time>
      </trkpt>
      <trkpt lat="45.23329" lon="6.90391">
        <ele>2034.29</ele>
        <time>2020-07-29T10:41:46Z</time>
      </trkpt>
      <trkpt lat="45.2334" lon="6.9042">
        <ele>2035.25</ele>
        <time>2020-07-29T10:42:01Z</time>
      </trkpt>
      <trkpt lat="45.23348" lon="6.90463">
        <ele>2035.73</ele>
        <time>2020-07-29T10:42:19Z</time>
      </trkpt>
      <trkpt lat="45.23343" lon="6.90515">
        <ele>2036.21</ele>
        <time>2020-07-29T10:42:37Z</time>
      </trkpt>
      <trkpt lat="45.23347" lon="6.90569">
        <ele>2036.21</ele>
        <time>2020-07-29T10:42:56Z</time>
      </trkpt>
      <trkpt lat="45.23362" lon="6.90602">
        <ele>2038.13</ele>
        <time>2020-07-29T10:43:12Z</time>
      </trkpt>
      <trkpt lat="45.23376" lon="6.90633">
        <ele>2039.09</ele>
        <time>2020-07-29T10:43:27Z</time>
      </trkpt>
      <trkpt lat="45.2339" lon="6.90675">
        <ele>2040.05</ele>
        <time>2020-07-29T10:43:45Z</time>
      </trkpt>
      <trkpt lat="45.23381" lon="6.90716">
        <ele>2040.54</ele>
        <time>2020-07-29T10:44:01Z</time>
      </trkpt>
      <trkpt lat="45.23372" lon="6.90772">
        <ele>2040.54</ele>
        <time>2020-07-29T10:44:18Z</time>
      </trkpt>
      <trkpt lat="45.23365" lon="6.90825">
        <ele>2039.57</ele>
        <time>2020-07-29T10:44:32Z</time>
      </trkpt>
      <trkpt lat="45.23346" lon="6.90894">
        <ele>2038.61</ele>
        <time>2020-07-29T10:44:48Z</time>
      </trkpt>
      <trkpt lat="45.23325" lon="6.90946">
        <ele>2039.09</ele>
        <time>2020-07-29T10:45:01Z</time>
      </trkpt>
      <trkpt lat="45.233" lon="6.91008">
        <ele>2038.61</ele>
        <time>2020-07-29T10:45:16Z</time>
      </trkpt>
      <trkpt lat="45.23269" lon="6.91046">
        <ele>2039.09</ele>
        <time>2020-07-29T10:45:32Z</time>
      </trkpt>
      <trkpt lat="45.23243" lon="6.91091">
        <ele>2039.57</ele>
        <time>2020-07-29T10:45:47Z</time>
      </trkpt>
      <trkpt lat="45.23225" lon="6.9113">
        <ele>2040.05</ele>
        <time>2020-07-29T10:46:00Z</time>
      </trkpt>
      <trkpt lat="45.23217" lon="6.91173">
        <ele>2041.5</ele>
        <time>2020-07-29T10:46:19Z</time>
      </trkpt>
      <trkpt lat="45.2321" lon="6.91207">
        <ele>2043.42</ele>
        <time>2020-07-29T10:46:36Z</time>
      </trkpt>
      <trkpt lat="45.232" lon="6.91237">
        <ele>2044.38</ele>
        <time>2020-07-29T10:46:53Z</time>
      </trkpt>
      <trkpt lat="45.23186" lon="6.91273">
        <ele>2044.38</ele>
        <time>2020-07-29T10:47:10Z</time>
      </trkpt>
      <trkpt lat="45.23181" lon="6.91305">
        <ele>2045.34</ele>
        <time>2020-07-29T10:47:25Z</time>
      </trkpt>
      <trkpt lat="45.23169" lon="6.91338">
        <ele>2045.82</ele>
        <time>2020-07-29T10:47:42Z</time>
      </trkpt>
      <trkpt lat="45.23157" lon="6.91372">
        <ele>2047.26</ele>
        <time>2020-07-29T10:48:01Z</time>
      </trkpt>
      <trkpt lat="45.23154" lon="6.91415">
        <ele>2048.23</ele>
        <time>2020-07-29T10:48:20Z</time>
      </trkpt>
      <trkpt lat="45.23156" lon="6.91456">
        <ele>2048.71</ele>
        <time>2020-07-29T10:48:35Z</time>
      </trkpt>
      <trkpt lat="45.23159" lon="6.91503">
        <ele>2049.19</ele>
        <time>2020-07-29T10:48:53Z</time>
      </trkpt>
      <trkpt lat="45.2316" lon="6.91541">
        <ele>2050.15</ele>
        <time>2020-07-29T10:49:08Z</time>
      </trkpt>
      <trkpt lat="45.23141" lon="6.91579">
        <ele>2051.11</ele>
        <time>2020-07-29T10:49:25Z</time>
      </trkpt>
      <trkpt lat="45.23137" lon="6.91588">
        <ele>2051.11</ele>
        <time>2020-07-29T10:49:29Z</time>
      </trkpt>
      <trkpt lat="45.23134" lon="6.91599">
        <ele>2051.11</ele>
        <time>2020-07-29T10:49:33Z</time>
      </trkpt>
      <trkpt lat="45.23119" lon="6.91649">
        <ele>2050.15</ele>
        <time>2020-07-29T10:49:49Z</time>
      </trkpt>
      <trkpt lat="45.23107" lon="6.91683">
        <ele>2050.63</ele>
        <time>2020-07-29T10:50:03Z</time>
      </trkpt>
      <trkpt lat="45.23079" lon="6.91701">
        <ele>2050.15</ele>
        <time>2020-07-29T10:50:16Z</time>
      </trkpt>
      <trkpt lat="45.23045" lon="6.91723">
        <ele>2049.19</ele>
        <time>2020-07-29T10:50:31Z</time>
      </trkpt>
      <trkpt lat="45.23008" lon="6.91747">
        <ele>2049.19</ele>
        <time>2020-07-29T10:50:46Z</time>
      </trkpt>
      <trkpt lat="45.22977" lon="6.91768">
        <ele>2049.19</ele>
        <time>2020-07-29T10:51:00Z</time>
      </trkpt>
      <trkpt lat="45.22967" lon="6.91783">
        <ele>2049.67</ele>
        <time>2020-07-29T10:51:11Z</time>
      </trkpt>
      <trkpt lat="45.22968" lon="6.91785">
        <ele>2050.15</ele>
        <time>2020-07-29T10:51:37Z</time>
      </trkpt>
      <trkpt lat="45.22968" lon="6.91785">
        <ele>2049.67</ele>
        <time>2020-07-29T10:51:59Z</time>
      </trkpt>
      <trkpt lat="45.22967" lon="6.91786">
        <ele>2050.15</ele>
        <time>2020-07-29T10:52:26Z</time>
      </trkpt>
      <trkpt lat="45.22966" lon="6.91784">
        <ele>2050.15</ele>
        <time>2020-07-29T10:52:38Z</time>
      </trkpt>
      <trkpt lat="45.22946" lon="6.91797">
        <ele>2050.63</ele>
        <time>2020-07-29T10:52:53Z</time>
      </trkpt>
      <trkpt lat="45.2293" lon="6.91811">
        <ele>2051.59</ele>
        <time>2020-07-29T10:53:06Z</time>
      </trkpt>
      <trkpt lat="45.22921" lon="6.91817">
        <ele>2052.07</ele>
        <time>2020-07-29T10:53:13Z</time>
      </trkpt>
      <trkpt lat="45.22898" lon="6.91833">
        <ele>2053.51</ele>
        <time>2020-07-29T10:53:31Z</time>
      </trkpt>
      <trkpt lat="45.22885" lon="6.91843">
        <ele>2054.47</ele>
        <time>2020-07-29T10:53:48Z</time>
      </trkpt>
      <trkpt lat="45.22874" lon="6.91855">
        <ele>2054.47</ele>
        <time>2020-07-29T10:54:03Z</time>
      </trkpt>
      <trkpt lat="45.22856" lon="6.91884">
        <ele>2054.96</ele>
        <time>2020-07-29T10:54:21Z</time>
      </trkpt>
      <trkpt lat="45.22833" lon="6.91898">
        <ele>2055.92</ele>
        <time>2020-07-29T10:54:38Z</time>
      </trkpt>
      <trkpt lat="45.22808" lon="6.91905">
        <ele>2056.4</ele>
        <time>2020-07-29T10:54:55Z</time>
      </trkpt>
      <trkpt lat="45.228" lon="6.91937">
        <ele>2057.84</ele>
        <time>2020-07-29T10:55:13Z</time>
      </trkpt>
      <trkpt lat="45.22802" lon="6.91949">
        <ele>2058.32</ele>
        <time>2020-07-29T10:55:19Z</time>
      </trkpt>
      <trkpt lat="45.22792" lon="6.91978">
        <ele>2059.76</ele>
        <time>2020-07-29T10:55:37Z</time>
      </trkpt>
      <trkpt lat="45.22786" lon="6.91979">
        <ele>2060.24</ele>
        <time>2020-07-29T10:55:41Z</time>
      </trkpt>
      <trkpt lat="45.22781" lon="6.91978">
        <ele>2060.24</ele>
        <time>2020-07-29T10:55:45Z</time>
      </trkpt>
      <trkpt lat="45.22758" lon="6.91975">
        <ele>2061.68</ele>
        <time>2020-07-29T10:56:03Z</time>
      </trkpt>
      <trkpt lat="45.22757" lon="6.91975">
        <ele>2061.68</ele>
        <time>2020-07-29T10:56:04Z</time>
      </trkpt>
      <trkpt lat="45.22753" lon="6.91978">
        <ele>2062.17</ele>
        <time>2020-07-29T10:56:08Z</time>
      </trkpt>
      <trkpt lat="45.22732" lon="6.91983">
        <ele>2063.61</ele>
        <time>2020-07-29T10:56:25Z</time>
      </trkpt>
      <trkpt lat="45.22713" lon="6.91985">
        <ele>2065.05</ele>
        <time>2020-07-29T10:56:41Z</time>
      </trkpt>
      <trkpt lat="45.22691" lon="6.91984">
        <ele>2065.53</ele>
        <time>2020-07-29T10:56:58Z</time>
      </trkpt>
      <trkpt lat="45.2267" lon="6.92006">
        <ele>2066.01</ele>
        <time>2020-07-29T10:57:16Z</time>
      </trkpt>
      <trkpt lat="45.22676" lon="6.92023">
        <ele>2066.97</ele>
        <time>2020-07-29T10:57:24Z</time>
      </trkpt>
      <trkpt lat="45.22679" lon="6.92029">
        <ele>2066.49</ele>
        <time>2020-07-29T10:57:28Z</time>
      </trkpt>
      <trkpt lat="45.22687" lon="6.92062">
        <ele>2066.97</ele>
        <time>2020-07-29T10:57:46Z</time>
      </trkpt>
      <trkpt lat="45.22686" lon="6.92063">
        <ele>2066.97</ele>
        <time>2020-07-29T10:57:47Z</time>
      </trkpt>
      <trkpt lat="45.22684" lon="6.9207">
        <ele>2066.97</ele>
        <time>2020-07-29T10:57:51Z</time>
      </trkpt>
      <trkpt lat="45.22669" lon="6.92097">
        <ele>2066.97</ele>
        <time>2020-07-29T10:58:09Z</time>
      </trkpt>
      <trkpt lat="45.22666" lon="6.921">
        <ele>2066.97</ele>
        <time>2020-07-29T10:58:20Z</time>
      </trkpt>
      <trkpt lat="45.22664" lon="6.92106">
        <ele>2066.97</ele>
        <time>2020-07-29T10:58:24Z</time>
      </trkpt>
      <trkpt lat="45.22653" lon="6.92121">
        <ele>2066.97</ele>
        <time>2020-07-29T10:58:34Z</time>
      </trkpt>
      <trkpt lat="45.22647" lon="6.92129">
        <ele>2066.97</ele>
        <time>2020-07-29T10:58:39Z</time>
      </trkpt>
      <trkpt lat="45.22639" lon="6.92147">
        <ele>2066.97</ele>
        <time>2020-07-29T10:58:47Z</time>
      </trkpt>
      <trkpt lat="45.22636" lon="6.92184">
        <ele>2067.45</ele>
        <time>2020-07-29T10:59:01Z</time>
      </trkpt>
      <trkpt lat="45.22646" lon="6.92222">
        <ele>2068.41</ele>
        <time>2020-07-29T10:59:17Z</time>
      </trkpt>
      <trkpt lat="45.22665" lon="6.92265">
        <ele>2068.41</ele>
        <time>2020-07-29T10:59:37Z</time>
      </trkpt>
      <trkpt lat="45.22656" lon="6.92309">
        <ele>2067.45</ele>
        <time>2020-07-29T10:59:52Z</time>
      </trkpt>
      <trkpt lat="45.22634" lon="6.92346">
        <ele>2065.53</ele>
        <time>2020-07-29T11:00:02Z</time>
      </trkpt>
      <trkpt lat="45.22623" lon="6.92401">
        <ele>2064.57</ele>
        <time>2020-07-29T11:00:15Z</time>
      </trkpt>
      <trkpt lat="45.22604" lon="6.92423">
        <ele>2065.05</ele>
        <time>2020-07-29T11:00:27Z</time>
      </trkpt>
      <trkpt lat="45.22592" lon="6.92438">
        <ele>2065.53</ele>
        <time>2020-07-29T11:00:35Z</time>
      </trkpt>
      <trkpt lat="45.22584" lon="6.92437">
        <ele>2066.01</ele>
        <time>2020-07-29T11:00:48Z</time>
      </trkpt>
      <trkpt lat="45.22584" lon="6.92439">
        <ele>2065.53</ele>
        <time>2020-07-29T11:01:29Z</time>
      </trkpt>
      <trkpt lat="45.22583" lon="6.92438">
        <ele>2065.05</ele>
        <time>2020-07-29T11:02:06Z</time>
      </trkpt>
      <trkpt lat="45.22584" lon="6.92438">
        <ele>2065.53</ele>
        <time>2020-07-29T11:02:43Z</time>
      </trkpt>
      <trkpt lat="45.22585" lon="6.92438">
        <ele>2066.01</ele>
        <time>2020-07-29T11:03:23Z</time>
      </trkpt>
      <trkpt lat="45.22585" lon="6.92431">
        <ele>2066.49</ele>
        <time>2020-07-29T11:03:36Z</time>
      </trkpt>
      <trkpt lat="45.22587" lon="6.92416">
        <ele>2066.97</ele>
        <time>2020-07-29T11:03:49Z</time>
      </trkpt>
      <trkpt lat="45.22587" lon="6.92397">
        <ele>2068.41</ele>
        <time>2020-07-29T11:04:06Z</time>
      </trkpt>
      <trkpt lat="45.22589" lon="6.92381">
        <ele>2070.34</ele>
        <time>2020-07-29T11:04:21Z</time>
      </trkpt>
      <trkpt lat="45.22591" lon="6.92365">
        <ele>2071.3</ele>
        <time>2020-07-29T11:04:38Z</time>
      </trkpt>
      <trkpt lat="45.22595" lon="6.92348">
        <ele>2071.78</ele>
        <time>2020-07-29T11:04:55Z</time>
      </trkpt>
      <trkpt lat="45.226" lon="6.92327">
        <ele>2071.3</ele>
        <time>2020-07-29T11:05:14Z</time>
      </trkpt>
      <trkpt lat="45.22604" lon="6.92307">
        <ele>2072.26</ele>
        <time>2020-07-29T11:05:32Z</time>
      </trkpt>
      <trkpt lat="45.2261" lon="6.92286">
        <ele>2073.7</ele>
        <time>2020-07-29T11:05:53Z</time>
      </trkpt>
      <trkpt lat="45.2262" lon="6.92271">
        <ele>2074.66</ele>
        <time>2020-07-29T11:06:12Z</time>
      </trkpt>
      <trkpt lat="45.22621" lon="6.92267">
        <ele>2075.14</ele>
        <time>2020-07-29T11:06:34Z</time>
      </trkpt>
      <trkpt lat="45.22618" lon="6.92275">
        <ele>2075.14</ele>
        <time>2020-07-29T11:06:57Z</time>
      </trkpt>
      <trkpt lat="45.22604" lon="6.92305">
        <ele>2072.26</ele>
        <time>2020-07-29T11:07:08Z</time>
      </trkpt>
      <trkpt lat="45.22593" lon="6.92352">
        <ele>2072.26</ele>
        <time>2020-07-29T11:07:20Z</time>
      </trkpt>
      <trkpt lat="45.22585" lon="6.92398">
        <ele>2069.86</ele>
        <time>2020-07-29T11:07:34Z</time>
      </trkpt>
      <trkpt lat="45.22586" lon="6.92414">
        <ele>2068.89</ele>
        <time>2020-07-29T11:07:38Z</time>
      </trkpt>
      <trkpt lat="45.22584" lon="6.92447">
        <ele>2067.45</ele>
        <time>2020-07-29T11:07:48Z</time>
      </trkpt>
      <trkpt lat="45.2258" lon="6.92473">
        <ele>2066.97</ele>
        <time>2020-07-29T11:08:00Z</time>
      </trkpt>
      <trkpt lat="45.22582" lon="6.92468">
        <ele>2067.45</ele>
        <time>2020-07-29T11:08:04Z</time>
      </trkpt>
      <trkpt lat="45.22587" lon="6.92442">
        <ele>2067.45</ele>
        <time>2020-07-29T11:08:23Z</time>
      </trkpt>
      <trkpt lat="45.22591" lon="6.92438">
        <ele>2066.97</ele>
        <time>2020-07-29T11:08:27Z</time>
      </trkpt>
      <trkpt lat="45.22617" lon="6.92403">
        <ele>2066.01</ele>
        <time>2020-07-29T11:08:43Z</time>
      </trkpt>
      <trkpt lat="45.22625" lon="6.92399">
        <ele>2066.01</ele>
        <time>2020-07-29T11:08:48Z</time>
      </trkpt>
      <trkpt lat="45.22622" lon="6.92433">
        <ele>2065.05</ele>
        <time>2020-07-29T11:08:57Z</time>
      </trkpt>
      <trkpt lat="45.22607" lon="6.92506">
        <ele>2063.13</ele>
        <time>2020-07-29T11:09:12Z</time>
      </trkpt>
      <trkpt lat="45.22597" lon="6.92513">
        <ele>2061.68</ele>
        <time>2020-07-29T11:09:15Z</time>
      </trkpt>
      <trkpt lat="45.22581" lon="6.92519">
        <ele>2060.72</ele>
        <time>2020-07-29T11:09:19Z</time>
      </trkpt>
      <trkpt lat="45.22536" lon="6.92512">
        <ele>2057.36</ele>
        <time>2020-07-29T11:09:31Z</time>
      </trkpt>
      <trkpt lat="45.22526" lon="6.92511">
        <ele>2055.92</ele>
        <time>2020-07-29T11:09:34Z</time>
      </trkpt>
      <trkpt lat="45.22478" lon="6.92508">
        <ele>2053.03</ele>
        <time>2020-07-29T11:09:48Z</time>
      </trkpt>
      <trkpt lat="45.22465" lon="6.92507">
        <ele>2052.55</ele>
        <time>2020-07-29T11:09:58Z</time>
      </trkpt>
      <trkpt lat="45.22456" lon="6.92505">
        <ele>2052.07</ele>
        <time>2020-07-29T11:10:16Z</time>
      </trkpt>
      <trkpt lat="45.2243" lon="6.92527">
        <ele>2051.59</ele>
        <time>2020-07-29T11:10:27Z</time>
      </trkpt>
      <trkpt lat="45.22393" lon="6.92562">
        <ele>2050.63</ele>
        <time>2020-07-29T11:10:44Z</time>
      </trkpt>
      <trkpt lat="45.22389" lon="6.9256">
        <ele>2050.63</ele>
        <time>2020-07-29T11:10:58Z</time>
      </trkpt>
      <trkpt lat="45.22389" lon="6.92558">
        <ele>2050.63</ele>
        <time>2020-07-29T11:11:27Z</time>
      </trkpt>
      <trkpt lat="45.22389" lon="6.92565">
        <ele>2051.11</ele>
        <time>2020-07-29T11:11:45Z</time>
      </trkpt>
      <trkpt lat="45.22388" lon="6.92588">
        <ele>2049.19</ele>
        <time>2020-07-29T11:11:56Z</time>
      </trkpt>
      <trkpt lat="45.22389" lon="6.92576">
        <ele>2050.15</ele>
        <time>2020-07-29T11:12:08Z</time>
      </trkpt>
      <trkpt lat="45.22391" lon="6.92558">
        <ele>2051.59</ele>
        <time>2020-07-29T11:12:22Z</time>
      </trkpt>
      <trkpt lat="45.22399" lon="6.92542">
        <ele>2053.03</ele>
        <time>2020-07-29T11:12:41Z</time>
      </trkpt>
      <trkpt lat="45.22404" lon="6.92525">
        <ele>2053.99</ele>
        <time>2020-07-29T11:12:58Z</time>
      </trkpt>
      <trkpt lat="45.2241" lon="6.92509">
        <ele>2054.96</ele>
        <time>2020-07-29T11:13:15Z</time>
      </trkpt>
      <trkpt lat="45.22415" lon="6.92503">
        <ele>2055.92</ele>
        <time>2020-07-29T11:13:27Z</time>
      </trkpt>
      <trkpt lat="45.2242" lon="6.92502">
        <ele>2055.92</ele>
        <time>2020-07-29T11:13:41Z</time>
      </trkpt>
      <trkpt lat="45.2242" lon="6.92501">
        <ele>2055.92</ele>
        <time>2020-07-29T11:14:17Z</time>
      </trkpt>
      <trkpt lat="45.22419" lon="6.925">
        <ele>2055.92</ele>
        <time>2020-07-29T11:14:50Z</time>
      </trkpt>
      <trkpt lat="45.22419" lon="6.92502">
        <ele>2055.92</ele>
        <time>2020-07-29T11:15:18Z</time>
      </trkpt>
      <trkpt lat="45.22419" lon="6.92503">
        <ele>2055.44</ele>
        <time>2020-07-29T11:15:50Z</time>
      </trkpt>
      <trkpt lat="45.22418" lon="6.92504">
        <ele>2055.92</ele>
        <time>2020-07-29T11:16:22Z</time>
      </trkpt>
      <trkpt lat="45.22417" lon="6.92501">
        <ele>2055.92</ele>
        <time>2020-07-29T11:16:55Z</time>
      </trkpt>
      <trkpt lat="45.22418" lon="6.92502">
        <ele>2055.44</ele>
        <time>2020-07-29T11:17:28Z</time>
      </trkpt>
      <trkpt lat="45.22419" lon="6.92501">
        <ele>2055.44</ele>
        <time>2020-07-29T11:17:50Z</time>
      </trkpt>
      <trkpt lat="45.22417" lon="6.92503">
        <ele>2055.44</ele>
        <time>2020-07-29T11:18:24Z</time>
      </trkpt>
      <trkpt lat="45.22418" lon="6.92504">
        <ele>2055.44</ele>
        <time>2020-07-29T11:19:00Z</time>
      </trkpt>
      <trkpt lat="45.2242" lon="6.92503">
        <ele>2055.44</ele>
        <time>2020-07-29T11:19:34Z</time>
      </trkpt>
      <trkpt lat="45.22419" lon="6.92502">
        <ele>2055.44</ele>
        <time>2020-07-29T11:20:05Z</time>
      </trkpt>
      <trkpt lat="45.22381" lon="6.92665">
        <ele>2043.9</ele>
        <time>2020-07-29T11:36:25Z</time>
      </trkpt>
      <trkpt lat="45.2238" lon="6.92665">
        <ele>2042.46</ele>
        <time>2020-07-29T11:36:26Z</time>
      </trkpt>
      <trkpt lat="45.2238" lon="6.92668">
        <ele>2041.98</ele>
        <time>2020-07-29T11:36:40Z</time>
      </trkpt>
      <trkpt lat="45.22378" lon="6.92682">
        <ele>2041.5</ele>
        <time>2020-07-29T11:36:45Z</time>
      </trkpt>
      <trkpt lat="45.22358" lon="6.92714">
        <ele>2038.61</ele>
        <time>2020-07-29T11:36:55Z</time>
      </trkpt>
      <trkpt lat="45.22356" lon="6.92732">
        <ele>2037.65</ele>
        <time>2020-07-29T11:36:58Z</time>
      </trkpt>
      <trkpt lat="45.22353" lon="6.92743">
        <ele>2036.69</ele>
        <time>2020-07-29T11:37:00Z</time>
      </trkpt>
      <trkpt lat="45.22335" lon="6.92789">
        <ele>2033.33</ele>
        <time>2020-07-29T11:37:10Z</time>
      </trkpt>
      <trkpt lat="45.22337" lon="6.92804">
        <ele>2031.88</ele>
        <time>2020-07-29T11:37:13Z</time>
      </trkpt>
      <trkpt lat="45.22329" lon="6.92867">
        <ele>2029.96</ele>
        <time>2020-07-29T11:37:23Z</time>
      </trkpt>
      <trkpt lat="45.22319" lon="6.92911">
        <ele>2028.52</ele>
        <time>2020-07-29T11:37:29Z</time>
      </trkpt>
      <trkpt lat="45.22293" lon="6.93002">
        <ele>2027.08</ele>
        <time>2020-07-29T11:37:44Z</time>
      </trkpt>
      <trkpt lat="45.22271" lon="6.93027">
        <ele>2027.08</ele>
        <time>2020-07-29T11:37:54Z</time>
      </trkpt>
      <trkpt lat="45.22268" lon="6.93058">
        <ele>2026.12</ele>
        <time>2020-07-29T11:38:00Z</time>
      </trkpt>
      <trkpt lat="45.22265" lon="6.93109">
        <ele>2023.23</ele>
        <time>2020-07-29T11:38:11Z</time>
      </trkpt>
      <trkpt lat="45.22267" lon="6.93154">
        <ele>2021.79</ele>
        <time>2020-07-29T11:38:20Z</time>
      </trkpt>
      <trkpt lat="45.22268" lon="6.9316">
        <ele>2020.35</ele>
        <time>2020-07-29T11:38:21Z</time>
      </trkpt>
      <trkpt lat="45.22262" lon="6.93183">
        <ele>2019.39</ele>
        <time>2020-07-29T11:38:25Z</time>
      </trkpt>
      <trkpt lat="45.22252" lon="6.93207">
        <ele>2018.43</ele>
        <time>2020-07-29T11:38:29Z</time>
      </trkpt>
      <trkpt lat="45.22245" lon="6.93217">
        <ele>2018.43</ele>
        <time>2020-07-29T11:38:31Z</time>
      </trkpt>
      <trkpt lat="45.22237" lon="6.9326">
        <ele>2017.46</ele>
        <time>2020-07-29T11:38:38Z</time>
      </trkpt>
      <trkpt lat="45.22241" lon="6.93284">
        <ele>2017.46</ele>
        <time>2020-07-29T11:38:42Z</time>
      </trkpt>
      <trkpt lat="45.22239" lon="6.93305">
        <ele>2015.54</ele>
        <time>2020-07-29T11:38:46Z</time>
      </trkpt>
      <trkpt lat="45.22234" lon="6.93314">
        <ele>2016.02</ele>
        <time>2020-07-29T11:38:48Z</time>
      </trkpt>
      <trkpt lat="45.22227" lon="6.93322">
        <ele>2015.06</ele>
        <time>2020-07-29T11:38:50Z</time>
      </trkpt>
      <trkpt lat="45.22229" lon="6.93359">
        <ele>2014.58</ele>
        <time>2020-07-29T11:38:58Z</time>
      </trkpt>
      <trkpt lat="45.22259" lon="6.9337">
        <ele>2015.54</ele>
        <time>2020-07-29T11:39:10Z</time>
      </trkpt>
      <trkpt lat="45.22274" lon="6.93398">
        <ele>2016.5</ele>
        <time>2020-07-29T11:39:24Z</time>
      </trkpt>
      <trkpt lat="45.22285" lon="6.9343">
        <ele>2016.02</ele>
        <time>2020-07-29T11:39:41Z</time>
      </trkpt>
      <trkpt lat="45.22299" lon="6.93454">
        <ele>2016.98</ele>
        <time>2020-07-29T11:39:57Z</time>
      </trkpt>
      <trkpt lat="45.22312" lon="6.93479">
        <ele>2017.94</ele>
        <time>2020-07-29T11:40:14Z</time>
      </trkpt>
      <trkpt lat="45.22325" lon="6.93509">
        <ele>2018.91</ele>
        <time>2020-07-29T11:40:34Z</time>
      </trkpt>
      <trkpt lat="45.22333" lon="6.93538">
        <ele>2020.35</ele>
        <time>2020-07-29T11:40:52Z</time>
      </trkpt>
      <trkpt lat="45.22338" lon="6.93564">
        <ele>2021.31</ele>
        <time>2020-07-29T11:41:08Z</time>
      </trkpt>
      <trkpt lat="45.22336" lon="6.93588">
        <ele>2021.79</ele>
        <time>2020-07-29T11:41:24Z</time>
      </trkpt>
      <trkpt lat="45.22332" lon="6.93599">
        <ele>2021.79</ele>
        <time>2020-07-29T11:41:40Z</time>
      </trkpt>
      <trkpt lat="45.22318" lon="6.93634">
        <ele>2023.23</ele>
        <time>2020-07-29T11:42:02Z</time>
      </trkpt>
      <trkpt lat="45.22316" lon="6.93662">
        <ele>2024.67</ele>
        <time>2020-07-29T11:42:18Z</time>
      </trkpt>
      <trkpt lat="45.22313" lon="6.93698">
        <ele>2025.64</ele>
        <time>2020-07-29T11:42:37Z</time>
      </trkpt>
      <trkpt lat="45.22299" lon="6.93731">
        <ele>2026.6</ele>
        <time>2020-07-29T11:42:55Z</time>
      </trkpt>
      <trkpt lat="45.22289" lon="6.93768">
        <ele>2027.56</ele>
        <time>2020-07-29T11:43:15Z</time>
      </trkpt>
      <trkpt lat="45.22283" lon="6.93808">
        <ele>2029</ele>
        <time>2020-07-29T11:43:35Z</time>
      </trkpt>
      <trkpt lat="45.2228" lon="6.9384">
        <ele>2029.96</ele>
        <time>2020-07-29T11:43:51Z</time>
      </trkpt>
      <trkpt lat="45.22275" lon="6.93872">
        <ele>2030.92</ele>
        <time>2020-07-29T11:44:07Z</time>
      </trkpt>
      <trkpt lat="45.22268" lon="6.93905">
        <ele>2031.88</ele>
        <time>2020-07-29T11:44:24Z</time>
      </trkpt>
      <trkpt lat="45.22262" lon="6.93937">
        <ele>2032.84</ele>
        <time>2020-07-29T11:44:40Z</time>
      </trkpt>
      <trkpt lat="45.22262" lon="6.93965">
        <ele>2035.25</ele>
        <time>2020-07-29T11:44:56Z</time>
      </trkpt>
      <trkpt lat="45.22259" lon="6.94001">
        <ele>2034.77</ele>
        <time>2020-07-29T11:45:14Z</time>
      </trkpt>
      <trkpt lat="45.22253" lon="6.94031">
        <ele>2035.25</ele>
        <time>2020-07-29T11:45:30Z</time>
      </trkpt>
      <trkpt lat="45.22249" lon="6.94035">
        <ele>2035.25</ele>
        <time>2020-07-29T11:45:42Z</time>
      </trkpt>
      <trkpt lat="45.22249" lon="6.94035">
        <ele>2035.25</ele>
        <time>2020-07-29T11:46:02Z</time>
      </trkpt>
      <trkpt lat="45.2225" lon="6.94032">
        <ele>2036.69</ele>
        <time>2020-07-29T11:46:32Z</time>
      </trkpt>
      <trkpt lat="45.22251" lon="6.94035">
        <ele>2036.69</ele>
        <time>2020-07-29T11:46:49Z</time>
      </trkpt>
      <trkpt lat="45.22256" lon="6.94048">
        <ele>2035.25</ele>
        <time>2020-07-29T11:46:55Z</time>
      </trkpt>
      <trkpt lat="45.22255" lon="6.94057">
        <ele>2034.29</ele>
        <time>2020-07-29T11:47:07Z</time>
      </trkpt>
      <trkpt lat="45.22251" lon="6.9409">
        <ele>2030.92</ele>
        <time>2020-07-29T11:47:15Z</time>
      </trkpt>
      <trkpt lat="45.22249" lon="6.94104">
        <ele>2029.48</ele>
        <time>2020-07-29T11:47:18Z</time>
      </trkpt>
      <trkpt lat="45.22247" lon="6.94119">
        <ele>2028.52</ele>
        <time>2020-07-29T11:47:28Z</time>
      </trkpt>
      <trkpt lat="45.22243" lon="6.94146">
        <ele>2026.12</ele>
        <time>2020-07-29T11:47:38Z</time>
      </trkpt>
      <trkpt lat="45.22244" lon="6.94193">
        <ele>2023.23</ele>
        <time>2020-07-29T11:47:50Z</time>
      </trkpt>
      <trkpt lat="45.22253" lon="6.94233">
        <ele>2019.87</ele>
        <time>2020-07-29T11:47:59Z</time>
      </trkpt>
      <trkpt lat="45.22248" lon="6.94273">
        <ele>2016.98</ele>
        <time>2020-07-29T11:48:06Z</time>
      </trkpt>
      <trkpt lat="45.22248" lon="6.94278">
        <ele>2016.5</ele>
        <time>2020-07-29T11:48:07Z</time>
      </trkpt>
      <trkpt lat="45.22248" lon="6.94304">
        <ele>2014.1</ele>
        <time>2020-07-29T11:48:13Z</time>
      </trkpt>
      <trkpt lat="45.22247" lon="6.94345">
        <ele>2010.73</ele>
        <time>2020-07-29T11:48:21Z</time>
      </trkpt>
      <trkpt lat="45.22248" lon="6.94391">
        <ele>2007.85</ele>
        <time>2020-07-29T11:48:29Z</time>
      </trkpt>
      <trkpt lat="45.22251" lon="6.94433">
        <ele>2004.49</ele>
        <time>2020-07-29T11:48:36Z</time>
      </trkpt>
      <trkpt lat="45.22257" lon="6.94461">
        <ele>2003.04</ele>
        <time>2020-07-29T11:48:46Z</time>
      </trkpt>
      <trkpt lat="45.22271" lon="6.94503">
        <ele>2000.16</ele>
        <time>2020-07-29T11:49:00Z</time>
      </trkpt>
      <trkpt lat="45.22278" lon="6.94542">
        <ele>1997.28</ele>
        <time>2020-07-29T11:49:12Z</time>
      </trkpt>
      <trkpt lat="45.22279" lon="6.94555">
        <ele>1996.8</ele>
        <time>2020-07-29T11:49:20Z</time>
      </trkpt>
      <trkpt lat="45.2228" lon="6.94552">
        <ele>1997.28</ele>
        <time>2020-07-29T11:49:32Z</time>
      </trkpt>
      <trkpt lat="45.22283" lon="6.94546">
        <ele>1996.8</ele>
        <time>2020-07-29T11:49:58Z</time>
      </trkpt>
      <trkpt lat="45.22283" lon="6.94547">
        <ele>1996.8</ele>
        <time>2020-07-29T11:50:03Z</time>
      </trkpt>
      <trkpt lat="45.22292" lon="6.94551">
        <ele>1996.8</ele>
        <time>2020-07-29T11:50:07Z</time>
      </trkpt>
      <trkpt lat="45.22298" lon="6.94555">
        <ele>1996.32</ele>
        <time>2020-07-29T11:50:09Z</time>
      </trkpt>
      <trkpt lat="45.22367" lon="6.9457">
        <ele>1994.87</ele>
        <time>2020-07-29T11:50:25Z</time>
      </trkpt>
      <trkpt lat="45.22406" lon="6.94579">
        <ele>1992.95</ele>
        <time>2020-07-29T11:50:38Z</time>
      </trkpt>
      <trkpt lat="45.22419" lon="6.94633">
        <ele>1993.43</ele>
        <time>2020-07-29T11:50:53Z</time>
      </trkpt>
      <trkpt lat="45.22438" lon="6.94697">
        <ele>1993.43</ele>
        <time>2020-07-29T11:51:12Z</time>
      </trkpt>
      <trkpt lat="45.22451" lon="6.94743">
        <ele>1992.95</ele>
        <time>2020-07-29T11:51:26Z</time>
      </trkpt>
      <trkpt lat="45.22467" lon="6.94802">
        <ele>1993.43</ele>
        <time>2020-07-29T11:51:44Z</time>
      </trkpt>
      <trkpt lat="45.22484" lon="6.94865">
        <ele>1992.95</ele>
        <time>2020-07-29T11:52:02Z</time>
      </trkpt>
      <trkpt lat="45.22497" lon="6.94911">
        <ele>1992.95</ele>
        <time>2020-07-29T11:52:15Z</time>
      </trkpt>
      <trkpt lat="45.22503" lon="6.9494">
        <ele>1992.47</ele>
        <time>2020-07-29T11:52:23Z</time>
      </trkpt>
      <trkpt lat="45.22517" lon="6.95009">
        <ele>1992.47</ele>
        <time>2020-07-29T11:52:41Z</time>
      </trkpt>
      <trkpt lat="45.22525" lon="6.95064">
        <ele>1992.47</ele>
        <time>2020-07-29T11:52:55Z</time>
      </trkpt>
      <trkpt lat="45.22528" lon="6.95124">
        <ele>1992.95</ele>
        <time>2020-07-29T11:53:10Z</time>
      </trkpt>
      <trkpt lat="45.2253" lon="6.95171">
        <ele>1992.47</ele>
        <time>2020-07-29T11:53:23Z</time>
      </trkpt>
      <trkpt lat="45.2253" lon="6.95224">
        <ele>1992.95</ele>
        <time>2020-07-29T11:53:37Z</time>
      </trkpt>
      <trkpt lat="45.22529" lon="6.95282">
        <ele>1992.95</ele>
        <time>2020-07-29T11:53:53Z</time>
      </trkpt>
      <trkpt lat="45.22527" lon="6.95349">
        <ele>1992.95</ele>
        <time>2020-07-29T11:54:11Z</time>
      </trkpt>
      <trkpt lat="45.22523" lon="6.95404">
        <ele>1992.47</ele>
        <time>2020-07-29T11:54:25Z</time>
      </trkpt>
      <trkpt lat="45.22522" lon="6.95458">
        <ele>1992.47</ele>
        <time>2020-07-29T11:54:39Z</time>
      </trkpt>
      <trkpt lat="45.22521" lon="6.95517">
        <ele>1992.47</ele>
        <time>2020-07-29T11:54:53Z</time>
      </trkpt>
      <trkpt lat="45.22517" lon="6.95605">
        <ele>1992.47</ele>
        <time>2020-07-29T11:55:13Z</time>
      </trkpt>
      <trkpt lat="45.22513" lon="6.95672">
        <ele>1992.47</ele>
        <time>2020-07-29T11:55:29Z</time>
      </trkpt>
      <trkpt lat="45.22509" lon="6.95746">
        <ele>1992.47</ele>
        <time>2020-07-29T11:55:46Z</time>
      </trkpt>
      <trkpt lat="45.22507" lon="6.95807">
        <ele>1992.47</ele>
        <time>2020-07-29T11:56:00Z</time>
      </trkpt>
      <trkpt lat="45.22505" lon="6.95869">
        <ele>1991.99</ele>
        <time>2020-07-29T11:56:15Z</time>
      </trkpt>
      <trkpt lat="45.22501" lon="6.95936">
        <ele>1991.99</ele>
        <time>2020-07-29T11:56:31Z</time>
      </trkpt>
      <trkpt lat="45.22499" lon="6.95997">
        <ele>1991.99</ele>
        <time>2020-07-29T11:56:45Z</time>
      </trkpt>
      <trkpt lat="45.22496" lon="6.96056">
        <ele>1991.99</ele>
        <time>2020-07-29T11:56:59Z</time>
      </trkpt>
      <trkpt lat="45.22494" lon="6.96111">
        <ele>1991.99</ele>
        <time>2020-07-29T11:57:12Z</time>
      </trkpt>
      <trkpt lat="45.2249" lon="6.96177">
        <ele>1991.51</ele>
        <time>2020-07-29T11:57:29Z</time>
      </trkpt>
      <trkpt lat="45.22487" lon="6.96242">
        <ele>1991.03</ele>
        <time>2020-07-29T11:57:45Z</time>
      </trkpt>
      <trkpt lat="45.22485" lon="6.96277">
        <ele>1991.51</ele>
        <time>2020-07-29T11:57:54Z</time>
      </trkpt>
      <trkpt lat="45.22483" lon="6.96291">
        <ele>1991.51</ele>
        <time>2020-07-29T11:58:03Z</time>
      </trkpt>
      <trkpt lat="45.22484" lon="6.96293">
        <ele>1991.51</ele>
        <time>2020-07-29T11:58:18Z</time>
      </trkpt>
      <trkpt lat="45.22479" lon="6.96316">
        <ele>1992.47</ele>
        <time>2020-07-29T11:58:28Z</time>
      </trkpt>
      <trkpt lat="45.22474" lon="6.96328">
        <ele>1991.03</ele>
        <time>2020-07-29T11:58:32Z</time>
      </trkpt>
      <trkpt lat="45.22447" lon="6.96367">
        <ele>1990.55</ele>
        <time>2020-07-29T11:58:47Z</time>
      </trkpt>
      <trkpt lat="45.22438" lon="6.96376">
        <ele>1990.55</ele>
        <time>2020-07-29T11:58:51Z</time>
      </trkpt>
      <trkpt lat="45.22426" lon="6.9637">
        <ele>1989.59</ele>
        <time>2020-07-29T11:58:55Z</time>
      </trkpt>
      <trkpt lat="45.22422" lon="6.96362">
        <ele>1989.59</ele>
        <time>2020-07-29T11:59:05Z</time>
      </trkpt>
      <trkpt lat="45.22422" lon="6.96363">
        <ele>1989.59</ele>
        <time>2020-07-29T11:59:25Z</time>
      </trkpt>
      <trkpt lat="45.22408" lon="6.9636">
        <ele>1988.62</ele>
        <time>2020-07-29T11:59:31Z</time>
      </trkpt>
      <trkpt lat="45.22367" lon="6.96363">
        <ele>1985.26</ele>
        <time>2020-07-29T11:59:42Z</time>
      </trkpt>
      <trkpt lat="45.22352" lon="6.9635">
        <ele>1984.3</ele>
        <time>2020-07-29T11:59:47Z</time>
      </trkpt>
      <trkpt lat="45.22353" lon="6.96321">
        <ele>1983.82</ele>
        <time>2020-07-29T11:59:52Z</time>
      </trkpt>
      <trkpt lat="45.22377" lon="6.96254">
        <ele>1980.45</ele>
        <time>2020-07-29T12:00:05Z</time>
      </trkpt>
      <trkpt lat="45.22384" lon="6.96232">
        <ele>1979.49</ele>
        <time>2020-07-29T12:00:09Z</time>
      </trkpt>
      <trkpt lat="45.22409" lon="6.96179">
        <ele>1975.65</ele>
        <time>2020-07-29T12:00:21Z</time>
      </trkpt>
      <trkpt lat="45.22412" lon="6.96137">
        <ele>1974.69</ele>
        <time>2020-07-29T12:00:30Z</time>
      </trkpt>
      <trkpt lat="45.22406" lon="6.9613">
        <ele>1974.2</ele>
        <time>2020-07-29T12:00:32Z</time>
      </trkpt>
      <trkpt lat="45.22396" lon="6.9613">
        <ele>1973.72</ele>
        <time>2020-07-29T12:00:35Z</time>
      </trkpt>
      <trkpt lat="45.22359" lon="6.96159">
        <ele>1970.84</ele>
        <time>2020-07-29T12:00:48Z</time>
      </trkpt>
      <trkpt lat="45.22327" lon="6.96204">
        <ele>1968.44</ele>
        <time>2020-07-29T12:01:01Z</time>
      </trkpt>
      <trkpt lat="45.223" lon="6.96253">
        <ele>1966.03</ele>
        <time>2020-07-29T12:01:14Z</time>
      </trkpt>
      <trkpt lat="45.22266" lon="6.96299">
        <ele>1963.15</ele>
        <time>2020-07-29T12:01:27Z</time>
      </trkpt>
      <trkpt lat="45.22229" lon="6.96352">
        <ele>1960.27</ele>
        <time>2020-07-29T12:01:41Z</time>
      </trkpt>
      <trkpt lat="45.22224" lon="6.96361">
        <ele>1959.3</ele>
        <time>2020-07-29T12:01:43Z</time>
      </trkpt>
      <trkpt lat="45.22212" lon="6.96378">
        <ele>1958.82</ele>
        <time>2020-07-29T12:01:47Z</time>
      </trkpt>
      <trkpt lat="45.22178" lon="6.96417">
        <ele>1955.94</ele>
        <time>2020-07-29T12:01:59Z</time>
      </trkpt>
      <trkpt lat="45.2218" lon="6.96382">
        <ele>1955.94</ele>
        <time>2020-07-29T12:02:08Z</time>
      </trkpt>
      <trkpt lat="45.22184" lon="6.96376">
        <ele>1955.94</ele>
        <time>2020-07-29T12:02:10Z</time>
      </trkpt>
      <trkpt lat="45.22207" lon="6.96328">
        <ele>1955.46</ele>
        <time>2020-07-29T12:02:25Z</time>
      </trkpt>
      <trkpt lat="45.22223" lon="6.96284">
        <ele>1954.5</ele>
        <time>2020-07-29T12:02:39Z</time>
      </trkpt>
      <trkpt lat="45.22244" lon="6.96223">
        <ele>1951.61</ele>
        <time>2020-07-29T12:02:51Z</time>
      </trkpt>
      <trkpt lat="45.22267" lon="6.96155">
        <ele>1950.65</ele>
        <time>2020-07-29T12:03:04Z</time>
      </trkpt>
      <trkpt lat="45.22265" lon="6.96108">
        <ele>1951.13</ele>
        <time>2020-07-29T12:03:18Z</time>
      </trkpt>
      <trkpt lat="45.22235" lon="6.96113">
        <ele>1948.73</ele>
        <time>2020-07-29T12:03:29Z</time>
      </trkpt>
      <trkpt lat="45.22217" lon="6.96116">
        <ele>1947.29</ele>
        <time>2020-07-29T12:03:34Z</time>
      </trkpt>
      <trkpt lat="45.22202" lon="6.96084">
        <ele>1945.85</ele>
        <time>2020-07-29T12:03:42Z</time>
      </trkpt>
      <trkpt lat="45.22207" lon="6.96073">
        <ele>1945.85</ele>
        <time>2020-07-29T12:03:44Z</time>
      </trkpt>
      <trkpt lat="45.22213" lon="6.96062">
        <ele>1944.88</ele>
        <time>2020-07-29T12:03:46Z</time>
      </trkpt>
      <trkpt lat="45.22223" lon="6.96052">
        <ele>1943.44</ele>
        <time>2020-07-29T12:03:49Z</time>
      </trkpt>
      <trkpt lat="45.22245" lon="6.96018">
        <ele>1941.52</ele>
        <time>2020-07-29T12:03:55Z</time>
      </trkpt>
      <trkpt lat="45.22283" lon="6.95953">
        <ele>1937.67</ele>
        <time>2020-07-29T12:04:06Z</time>
      </trkpt>
      <trkpt lat="45.22286" lon="6.95947">
        <ele>1937.67</ele>
        <time>2020-07-29T12:04:07Z</time>
      </trkpt>
      <trkpt lat="45.22291" lon="6.95935">
        <ele>1936.71</ele>
        <time>2020-07-29T12:04:09Z</time>
      </trkpt>
      <trkpt lat="45.22297" lon="6.95915">
        <ele>1936.23</ele>
        <time>2020-07-29T12:04:12Z</time>
      </trkpt>
      <trkpt lat="45.22342" lon="6.95835">
        <ele>1932.87</ele>
        <time>2020-07-29T12:04:25Z</time>
      </trkpt>
      <trkpt lat="45.22352" lon="6.95817">
        <ele>1932.39</ele>
        <time>2020-07-29T12:04:28Z</time>
      </trkpt>
      <trkpt lat="45.22362" lon="6.958">
        <ele>1932.39</ele>
        <time>2020-07-29T12:04:31Z</time>
      </trkpt>
      <trkpt lat="45.22355" lon="6.95758">
        <ele>1930.95</ele>
        <time>2020-07-29T12:04:40Z</time>
      </trkpt>
      <trkpt lat="45.22351" lon="6.95758">
        <ele>1930.46</ele>
        <time>2020-07-29T12:04:41Z</time>
      </trkpt>
      <trkpt lat="45.22343" lon="6.95757">
        <ele>1929.98</ele>
        <time>2020-07-29T12:04:43Z</time>
      </trkpt>
      <trkpt lat="45.22301" lon="6.95772">
        <ele>1926.62</ele>
        <time>2020-07-29T12:04:54Z</time>
      </trkpt>
      <trkpt lat="45.22297" lon="6.95774">
        <ele>1926.62</ele>
        <time>2020-07-29T12:04:55Z</time>
      </trkpt>
      <trkpt lat="45.22273" lon="6.95778">
        <ele>1925.66</ele>
        <time>2020-07-29T12:05:00Z</time>
      </trkpt>
      <trkpt lat="45.22254" lon="6.95778">
        <ele>1924.22</ele>
        <time>2020-07-29T12:05:04Z</time>
      </trkpt>
      <trkpt lat="45.22229" lon="6.95778">
        <ele>1922.77</ele>
        <time>2020-07-29T12:05:11Z</time>
      </trkpt>
      <trkpt lat="45.22234" lon="6.9573">
        <ele>1920.85</ele>
        <time>2020-07-29T12:05:20Z</time>
      </trkpt>
      <trkpt lat="45.22256" lon="6.95703">
        <ele>1918.93</ele>
        <time>2020-07-29T12:05:26Z</time>
      </trkpt>
      <trkpt lat="45.22265" lon="6.95695">
        <ele>1917.97</ele>
        <time>2020-07-29T12:05:28Z</time>
      </trkpt>
      <trkpt lat="45.22279" lon="6.95684">
        <ele>1917.01</ele>
        <time>2020-07-29T12:05:31Z</time>
      </trkpt>
      <trkpt lat="45.22299" lon="6.95635">
        <ele>1914.6</ele>
        <time>2020-07-29T12:05:42Z</time>
      </trkpt>
      <trkpt lat="45.223" lon="6.9563">
        <ele>1914.12</ele>
        <time>2020-07-29T12:05:43Z</time>
      </trkpt>
      <trkpt lat="45.22312" lon="6.95601">
        <ele>1912.2</ele>
        <time>2020-07-29T12:05:48Z</time>
      </trkpt>
      <trkpt lat="45.22321" lon="6.95554">
        <ele>1909.8</ele>
        <time>2020-07-29T12:05:54Z</time>
      </trkpt>
      <trkpt lat="45.22327" lon="6.95527">
        <ele>1908.35</ele>
        <time>2020-07-29T12:05:58Z</time>
      </trkpt>
      <trkpt lat="45.22334" lon="6.95471">
        <ele>1904.99</ele>
        <time>2020-07-29T12:06:06Z</time>
      </trkpt>
      <trkpt lat="45.2234" lon="6.95439">
        <ele>1904.51</ele>
        <time>2020-07-29T12:06:11Z</time>
      </trkpt>
      <trkpt lat="45.22345" lon="6.95378">
        <ele>1902.11</ele>
        <time>2020-07-29T12:06:21Z</time>
      </trkpt>
      <trkpt lat="45.22344" lon="6.9536">
        <ele>1901.63</ele>
        <time>2020-07-29T12:06:24Z</time>
      </trkpt>
      <trkpt lat="45.22328" lon="6.95282">
        <ele>1899.7</ele>
        <time>2020-07-29T12:06:39Z</time>
      </trkpt>
      <trkpt lat="45.2231" lon="6.9524">
        <ele>1899.22</ele>
        <time>2020-07-29T12:06:52Z</time>
      </trkpt>
      <trkpt lat="45.22271" lon="6.95262">
        <ele>1899.7</ele>
        <time>2020-07-29T12:07:07Z</time>
      </trkpt>
      <trkpt lat="45.22231" lon="6.95294">
        <ele>1899.22</ele>
        <time>2020-07-29T12:07:21Z</time>
      </trkpt>
      <trkpt lat="45.222" lon="6.95335">
        <ele>1899.22</ele>
        <time>2020-07-29T12:07:33Z</time>
      </trkpt>
      <trkpt lat="45.22163" lon="6.95381">
        <ele>1898.74</ele>
        <time>2020-07-29T12:07:47Z</time>
      </trkpt>
      <trkpt lat="45.22115" lon="6.95433">
        <ele>1898.74</ele>
        <time>2020-07-29T12:08:03Z</time>
      </trkpt>
      <trkpt lat="45.22106" lon="6.95442">
        <ele>1898.26</ele>
        <time>2020-07-29T12:08:06Z</time>
      </trkpt>
      <trkpt lat="45.22069" lon="6.95477">
        <ele>1896.34</ele>
        <time>2020-07-29T12:08:15Z</time>
      </trkpt>
      <trkpt lat="45.22012" lon="6.9554">
        <ele>1895.38</ele>
        <time>2020-07-29T12:08:32Z</time>
      </trkpt>
      <trkpt lat="45.21963" lon="6.95582">
        <ele>1894.9</ele>
        <time>2020-07-29T12:08:47Z</time>
      </trkpt>
      <trkpt lat="45.21929" lon="6.95618">
        <ele>1894.42</ele>
        <time>2020-07-29T12:09:00Z</time>
      </trkpt>
      <trkpt lat="45.21922" lon="6.95624">
        <ele>1894.42</ele>
        <time>2020-07-29T12:09:09Z</time>
      </trkpt>
      <trkpt lat="45.21922" lon="6.95625">
        <ele>1894.42</ele>
        <time>2020-07-29T12:09:16Z</time>
      </trkpt>
      <trkpt lat="45.21923" lon="6.9563">
        <ele>1894.42</ele>
        <time>2020-07-29T12:09:19Z</time>
      </trkpt>
      <trkpt lat="45.21926" lon="6.95648">
        <ele>1893.93</ele>
        <time>2020-07-29T12:09:25Z</time>
      </trkpt>
      <trkpt lat="45.2192" lon="6.95671">
        <ele>1891.53</ele>
        <time>2020-07-29T12:09:33Z</time>
      </trkpt>
      <trkpt lat="45.21919" lon="6.95659">
        <ele>1892.01</ele>
        <time>2020-07-29T12:09:36Z</time>
      </trkpt>
      <trkpt lat="45.21921" lon="6.95651">
        <ele>1891.53</ele>
        <time>2020-07-29T12:09:46Z</time>
      </trkpt>
      <trkpt lat="45.21921" lon="6.9565">
        <ele>1892.01</ele>
        <time>2020-07-29T12:10:26Z</time>
      </trkpt>
      <trkpt lat="45.21922" lon="6.95652">
        <ele>1891.05</ele>
        <time>2020-07-29T12:11:10Z</time>
      </trkpt>
      <trkpt lat="45.21923" lon="6.95651">
        <ele>1890.57</ele>
        <time>2020-07-29T12:11:46Z</time>
      </trkpt>
      <trkpt lat="45.21923" lon="6.95651">
        <ele>1890.57</ele>
        <time>2020-07-29T12:12:18Z</time>
      </trkpt>
      <trkpt lat="45.21923" lon="6.95651">
        <ele>1890.57</ele>
        <time>2020-07-29T12:12:46Z</time>
      </trkpt>
      <trkpt lat="45.21922" lon="6.95651">
        <ele>1890.57</ele>
        <time>2020-07-29T12:12:50Z</time>
      </trkpt>
    </trkseg>
  </trk>
</gpx>